<?xml version="1.0" encoding="UTF-8" standalone="no" ?>
<gpx xmlns="http://www.topografix.com/GPX/1/1" xmlns:xsi="http://www.w3.org/2001/XMLSchema-instance" xsi:schemaLocation="http://www.topografix.com/GPX/1/1 http://www.topografix.com/GPX/1/1/gpx.xsd" version="1.1" creator="VisuGPX - https://www.visugpx.com">
  <metadata>
    <name>Castrum St Jean, Piegu, Le Defens </name>
    <desc><![CDATA[Les copains randonneurs du 04
au départ du parking à l'entrée de Rougiers]]></desc>
  </metadata>
  <trk>
    <name><![CDATA[Castrum St Jean, Piegu, Le Defens _1]]></name>
    <trkseg>
      <trkpt lat="43.3935" lon="5.85154">
        <ele>354</ele>
        <time>2021-11-08T09:33:12+01:00</time>
      </trkpt>
      <trkpt lat="43.39351" lon="5.85153">
        <ele>354</ele>
        <time>2021-11-08T09:33:39+01:00</time>
      </trkpt>
      <trkpt lat="43.39352" lon="5.85152">
        <ele>354</ele>
        <time>2021-11-08T09:33:52+01:00</time>
      </trkpt>
      <trkpt lat="43.39352" lon="5.85153">
        <ele>354</ele>
        <time>2021-11-08T09:34:05+01:00</time>
      </trkpt>
      <trkpt lat="43.39353" lon="5.85153">
        <ele>354</ele>
        <time>2021-11-08T09:34:07+01:00</time>
      </trkpt>
      <trkpt lat="43.39352" lon="5.85153">
        <ele>354</ele>
        <time>2021-11-08T09:34:23+01:00</time>
      </trkpt>
      <trkpt lat="43.3935" lon="5.85153">
        <ele>354</ele>
        <time>2021-11-08T09:34:40+01:00</time>
      </trkpt>
      <trkpt lat="43.3935" lon="5.85153">
        <ele>354</ele>
        <time>2021-11-08T09:34:50+01:00</time>
      </trkpt>
      <trkpt lat="43.3935" lon="5.85153">
        <ele>354</ele>
        <time>2021-11-08T09:34:52+01:00</time>
      </trkpt>
      <trkpt lat="43.3935" lon="5.85153">
        <ele>354</ele>
        <time>2021-11-08T09:35:14+01:00</time>
      </trkpt>
      <trkpt lat="43.39349" lon="5.85154">
        <ele>354</ele>
        <time>2021-11-08T09:35:32+01:00</time>
      </trkpt>
      <trkpt lat="43.39349" lon="5.85153">
        <ele>354</ele>
        <time>2021-11-08T09:35:48+01:00</time>
      </trkpt>
      <trkpt lat="43.39351" lon="5.8515">
        <ele>354</ele>
        <time>2021-11-08T09:36:12+01:00</time>
      </trkpt>
      <trkpt lat="43.3935" lon="5.85152">
        <ele>354</ele>
        <time>2021-11-08T09:36:36+01:00</time>
      </trkpt>
      <trkpt lat="43.39351" lon="5.85157">
        <ele>354</ele>
        <time>2021-11-08T09:36:59+01:00</time>
      </trkpt>
      <trkpt lat="43.39352" lon="5.85152">
        <ele>354</ele>
        <time>2021-11-08T09:37:26+01:00</time>
      </trkpt>
      <trkpt lat="43.39353" lon="5.85152">
        <ele>354</ele>
        <time>2021-11-08T09:37:58+01:00</time>
      </trkpt>
      <trkpt lat="43.39351" lon="5.85153">
        <ele>354</ele>
        <time>2021-11-08T09:38:19+01:00</time>
      </trkpt>
      <trkpt lat="43.39351" lon="5.85154">
        <ele>354</ele>
        <time>2021-11-08T09:38:39+01:00</time>
      </trkpt>
      <trkpt lat="43.39348" lon="5.85152">
        <ele>354</ele>
        <time>2021-11-08T09:38:56+01:00</time>
      </trkpt>
      <trkpt lat="43.39347" lon="5.85152">
        <ele>354</ele>
        <time>2021-11-08T09:39:17+01:00</time>
      </trkpt>
      <trkpt lat="43.39346" lon="5.85144">
        <ele>354</ele>
        <time>2021-11-08T09:39:33+01:00</time>
      </trkpt>
      <trkpt lat="43.39346" lon="5.85121">
        <ele>354</ele>
        <time>2021-11-08T09:39:51+01:00</time>
      </trkpt>
      <trkpt lat="43.39344" lon="5.85111">
        <ele>354</ele>
        <time>2021-11-08T09:40:08+01:00</time>
      </trkpt>
      <trkpt lat="43.39344" lon="5.85113">
        <ele>354</ele>
        <time>2021-11-08T09:40:26+01:00</time>
      </trkpt>
      <trkpt lat="43.39335" lon="5.85101">
        <ele>354</ele>
        <time>2021-11-08T09:40:46+01:00</time>
      </trkpt>
      <trkpt lat="43.3933" lon="5.85102">
        <ele>354</ele>
        <time>2021-11-08T09:41:00+01:00</time>
      </trkpt>
      <trkpt lat="43.39331" lon="5.851">
        <ele>354</ele>
        <time>2021-11-08T09:41:16+01:00</time>
      </trkpt>
      <trkpt lat="43.39332" lon="5.851">
        <ele>354</ele>
        <time>2021-11-08T09:41:30+01:00</time>
      </trkpt>
      <trkpt lat="43.39329" lon="5.85098">
        <ele>354</ele>
        <time>2021-11-08T09:41:49+01:00</time>
      </trkpt>
      <trkpt lat="43.39311" lon="5.85097">
        <ele>354</ele>
        <time>2021-11-08T09:42:11+01:00</time>
      </trkpt>
      <trkpt lat="43.39294" lon="5.851">
        <ele>355</ele>
        <time>2021-11-08T09:42:31+01:00</time>
      </trkpt>
      <trkpt lat="43.39283" lon="5.85104">
        <ele>356</ele>
        <time>2021-11-08T09:42:47+01:00</time>
      </trkpt>
      <trkpt lat="43.39261" lon="5.85115">
        <ele>358</ele>
        <time>2021-11-08T09:43:08+01:00</time>
      </trkpt>
      <trkpt lat="43.39258" lon="5.85121">
        <ele>359</ele>
        <time>2021-11-08T09:43:24+01:00</time>
      </trkpt>
      <trkpt lat="43.39258" lon="5.85121">
        <ele>359</ele>
        <time>2021-11-08T09:43:40+01:00</time>
      </trkpt>
      <trkpt lat="43.39255" lon="5.85117">
        <ele>359</ele>
        <time>2021-11-08T09:43:53+01:00</time>
      </trkpt>
      <trkpt lat="43.39254" lon="5.85122">
        <ele>359</ele>
        <time>2021-11-08T09:44:08+01:00</time>
      </trkpt>
      <trkpt lat="43.39253" lon="5.85128">
        <ele>359</ele>
        <time>2021-11-08T09:44:25+01:00</time>
      </trkpt>
      <trkpt lat="43.39251" lon="5.8512">
        <ele>359</ele>
        <time>2021-11-08T09:44:40+01:00</time>
      </trkpt>
      <trkpt lat="43.39239" lon="5.85121">
        <ele>359</ele>
        <time>2021-11-08T09:44:58+01:00</time>
      </trkpt>
      <trkpt lat="43.39215" lon="5.85124">
        <ele>360</ele>
        <time>2021-11-08T09:45:20+01:00</time>
      </trkpt>
      <trkpt lat="43.39193" lon="5.85122">
        <ele>360</ele>
        <time>2021-11-08T09:45:42+01:00</time>
      </trkpt>
      <trkpt lat="43.39181" lon="5.85126">
        <ele>360</ele>
        <time>2021-11-08T09:45:54+01:00</time>
      </trkpt>
      <trkpt lat="43.39163" lon="5.85126">
        <ele>360</ele>
        <time>2021-11-08T09:46:12+01:00</time>
      </trkpt>
      <trkpt lat="43.39145" lon="5.85126">
        <ele>361</ele>
        <time>2021-11-08T09:46:28+01:00</time>
      </trkpt>
      <trkpt lat="43.39119" lon="5.85124">
        <ele>364</ele>
        <time>2021-11-08T09:46:45+01:00</time>
      </trkpt>
      <trkpt lat="43.39108" lon="5.85126">
        <ele>365</ele>
        <time>2021-11-08T09:46:56+01:00</time>
      </trkpt>
      <trkpt lat="43.39085" lon="5.85129">
        <ele>367</ele>
        <time>2021-11-08T09:47:15+01:00</time>
      </trkpt>
      <trkpt lat="43.39064" lon="5.85132">
        <ele>368</ele>
        <time>2021-11-08T09:47:32+01:00</time>
      </trkpt>
      <trkpt lat="43.39044" lon="5.85133">
        <ele>370</ele>
        <time>2021-11-08T09:47:50+01:00</time>
      </trkpt>
      <trkpt lat="43.39023" lon="5.85132">
        <ele>372</ele>
        <time>2021-11-08T09:48:09+01:00</time>
      </trkpt>
      <trkpt lat="43.39007" lon="5.85131">
        <ele>374</ele>
        <time>2021-11-08T09:48:26+01:00</time>
      </trkpt>
      <trkpt lat="43.38993" lon="5.85131">
        <ele>375</ele>
        <time>2021-11-08T09:48:41+01:00</time>
      </trkpt>
      <trkpt lat="43.38974" lon="5.85127">
        <ele>376</ele>
        <time>2021-11-08T09:48:59+01:00</time>
      </trkpt>
      <trkpt lat="43.38961" lon="5.85125">
        <ele>377</ele>
        <time>2021-11-08T09:49:18+01:00</time>
      </trkpt>
      <trkpt lat="43.38942" lon="5.85119">
        <ele>379</ele>
        <time>2021-11-08T09:49:32+01:00</time>
      </trkpt>
      <trkpt lat="43.38921" lon="5.85115">
        <ele>381</ele>
        <time>2021-11-08T09:49:50+01:00</time>
      </trkpt>
      <trkpt lat="43.38907" lon="5.85116">
        <ele>383</ele>
        <time>2021-11-08T09:50:04+01:00</time>
      </trkpt>
      <trkpt lat="43.38892" lon="5.85117">
        <ele>385</ele>
        <time>2021-11-08T09:50:19+01:00</time>
      </trkpt>
      <trkpt lat="43.38882" lon="5.85119">
        <ele>386</ele>
        <time>2021-11-08T09:50:27+01:00</time>
      </trkpt>
      <trkpt lat="43.38863" lon="5.85127">
        <ele>389</ele>
        <time>2021-11-08T09:50:46+01:00</time>
      </trkpt>
      <trkpt lat="43.38843" lon="5.85127">
        <ele>392</ele>
        <time>2021-11-08T09:51:04+01:00</time>
      </trkpt>
      <trkpt lat="43.38833" lon="5.85121">
        <ele>393</ele>
        <time>2021-11-08T09:51:17+01:00</time>
      </trkpt>
      <trkpt lat="43.38828" lon="5.85098">
        <ele>394</ele>
        <time>2021-11-08T09:51:34+01:00</time>
      </trkpt>
      <trkpt lat="43.38827" lon="5.85086">
        <ele>394</ele>
        <time>2021-11-08T09:51:46+01:00</time>
      </trkpt>
      <trkpt lat="43.38825" lon="5.85077">
        <ele>394</ele>
        <time>2021-11-08T09:51:54+01:00</time>
      </trkpt>
      <trkpt lat="43.38818" lon="5.85058">
        <ele>396</ele>
        <time>2021-11-08T09:52:09+01:00</time>
      </trkpt>
      <trkpt lat="43.38813" lon="5.85036">
        <ele>397</ele>
        <time>2021-11-08T09:52:24+01:00</time>
      </trkpt>
      <trkpt lat="43.38809" lon="5.85009">
        <ele>398</ele>
        <time>2021-11-08T09:52:40+01:00</time>
      </trkpt>
      <trkpt lat="43.38806" lon="5.84987">
        <ele>398</ele>
        <time>2021-11-08T09:52:59+01:00</time>
      </trkpt>
      <trkpt lat="43.38805" lon="5.84971">
        <ele>398</ele>
        <time>2021-11-08T09:53:16+01:00</time>
      </trkpt>
      <trkpt lat="43.38801" lon="5.84947">
        <ele>400</ele>
        <time>2021-11-08T09:53:33+01:00</time>
      </trkpt>
      <trkpt lat="43.38796" lon="5.84923">
        <ele>401</ele>
        <time>2021-11-08T09:53:50+01:00</time>
      </trkpt>
      <trkpt lat="43.38793" lon="5.84904">
        <ele>403</ele>
        <time>2021-11-08T09:54:07+01:00</time>
      </trkpt>
      <trkpt lat="43.38787" lon="5.84882">
        <ele>405</ele>
        <time>2021-11-08T09:54:25+01:00</time>
      </trkpt>
      <trkpt lat="43.3878" lon="5.84862">
        <ele>410</ele>
        <time>2021-11-08T09:54:42+01:00</time>
      </trkpt>
      <trkpt lat="43.38772" lon="5.84846">
        <ele>412</ele>
        <time>2021-11-08T09:54:57+01:00</time>
      </trkpt>
      <trkpt lat="43.38767" lon="5.84837">
        <ele>414</ele>
        <time>2021-11-08T09:55:07+01:00</time>
      </trkpt>
      <trkpt lat="43.38762" lon="5.84834">
        <ele>415</ele>
        <time>2021-11-08T09:55:19+01:00</time>
      </trkpt>
      <trkpt lat="43.38756" lon="5.84832">
        <ele>417</ele>
        <time>2021-11-08T09:55:27+01:00</time>
      </trkpt>
      <trkpt lat="43.38758" lon="5.84832">
        <ele>416</ele>
        <time>2021-11-08T09:55:41+01:00</time>
      </trkpt>
      <trkpt lat="43.38752" lon="5.84844">
        <ele>419</ele>
        <time>2021-11-08T09:55:57+01:00</time>
      </trkpt>
      <trkpt lat="43.38749" lon="5.84846">
        <ele>420</ele>
        <time>2021-11-08T09:56:10+01:00</time>
      </trkpt>
      <trkpt lat="43.38741" lon="5.84838">
        <ele>423</ele>
        <time>2021-11-08T09:56:26+01:00</time>
      </trkpt>
      <trkpt lat="43.38727" lon="5.84822">
        <ele>426</ele>
        <time>2021-11-08T09:56:45+01:00</time>
      </trkpt>
      <trkpt lat="43.38715" lon="5.84806">
        <ele>429</ele>
        <time>2021-11-08T09:57:03+01:00</time>
      </trkpt>
      <trkpt lat="43.38704" lon="5.84795">
        <ele>431</ele>
        <time>2021-11-08T09:57:19+01:00</time>
      </trkpt>
      <trkpt lat="43.38692" lon="5.84779">
        <ele>433</ele>
        <time>2021-11-08T09:57:36+01:00</time>
      </trkpt>
      <trkpt lat="43.38683" lon="5.8476">
        <ele>434</ele>
        <time>2021-11-08T09:57:56+01:00</time>
      </trkpt>
      <trkpt lat="43.38677" lon="5.84751">
        <ele>435</ele>
        <time>2021-11-08T09:58:10+01:00</time>
      </trkpt>
      <trkpt lat="43.38667" lon="5.84734">
        <ele>436</ele>
        <time>2021-11-08T09:58:24+01:00</time>
      </trkpt>
      <trkpt lat="43.38658" lon="5.84717">
        <ele>437</ele>
        <time>2021-11-08T09:58:40+01:00</time>
      </trkpt>
      <trkpt lat="43.38647" lon="5.84703">
        <ele>438</ele>
        <time>2021-11-08T09:58:56+01:00</time>
      </trkpt>
      <trkpt lat="43.38641" lon="5.84695">
        <ele>439</ele>
        <time>2021-11-08T09:59:06+01:00</time>
      </trkpt>
      <trkpt lat="43.38629" lon="5.84676">
        <ele>439</ele>
        <time>2021-11-08T09:59:23+01:00</time>
      </trkpt>
      <trkpt lat="43.38614" lon="5.84661">
        <ele>440</ele>
        <time>2021-11-08T09:59:40+01:00</time>
      </trkpt>
      <trkpt lat="43.386" lon="5.84639">
        <ele>439</ele>
        <time>2021-11-08T09:59:58+01:00</time>
      </trkpt>
      <trkpt lat="43.38589" lon="5.84631">
        <ele>440</ele>
        <time>2021-11-08T10:00:15+01:00</time>
      </trkpt>
      <trkpt lat="43.38588" lon="5.84629">
        <ele>439</ele>
        <time>2021-11-08T10:00:40+01:00</time>
      </trkpt>
      <trkpt lat="43.38584" lon="5.84626">
        <ele>440</ele>
        <time>2021-11-08T10:01:06+01:00</time>
      </trkpt>
      <trkpt lat="43.38573" lon="5.84614">
        <ele>439</ele>
        <time>2021-11-08T10:01:22+01:00</time>
      </trkpt>
      <trkpt lat="43.38567" lon="5.84594">
        <ele>438</ele>
        <time>2021-11-08T10:01:36+01:00</time>
      </trkpt>
      <trkpt lat="43.38561" lon="5.8458">
        <ele>437</ele>
        <time>2021-11-08T10:01:49+01:00</time>
      </trkpt>
      <trkpt lat="43.38553" lon="5.84571">
        <ele>436</ele>
        <time>2021-11-08T10:02:07+01:00</time>
      </trkpt>
      <trkpt lat="43.38537" lon="5.84563">
        <ele>436</ele>
        <time>2021-11-08T10:02:23+01:00</time>
      </trkpt>
      <trkpt lat="43.38518" lon="5.84559">
        <ele>436</ele>
        <time>2021-11-08T10:02:40+01:00</time>
      </trkpt>
      <trkpt lat="43.38501" lon="5.84554">
        <ele>436</ele>
        <time>2021-11-08T10:02:57+01:00</time>
      </trkpt>
      <trkpt lat="43.38484" lon="5.84557">
        <ele>436</ele>
        <time>2021-11-08T10:03:15+01:00</time>
      </trkpt>
      <trkpt lat="43.38467" lon="5.84552">
        <ele>435</ele>
        <time>2021-11-08T10:03:33+01:00</time>
      </trkpt>
      <trkpt lat="43.38447" lon="5.84543">
        <ele>434</ele>
        <time>2021-11-08T10:03:53+01:00</time>
      </trkpt>
      <trkpt lat="43.38439" lon="5.84537">
        <ele>434</ele>
        <time>2021-11-08T10:04:02+01:00</time>
      </trkpt>
      <trkpt lat="43.38426" lon="5.84525">
        <ele>434</ele>
        <time>2021-11-08T10:04:14+01:00</time>
      </trkpt>
      <trkpt lat="43.38415" lon="5.84513">
        <ele>435</ele>
        <time>2021-11-08T10:04:32+01:00</time>
      </trkpt>
      <trkpt lat="43.38401" lon="5.84492">
        <ele>436</ele>
        <time>2021-11-08T10:04:53+01:00</time>
      </trkpt>
      <trkpt lat="43.38393" lon="5.84479">
        <ele>437</ele>
        <time>2021-11-08T10:05:09+01:00</time>
      </trkpt>
      <trkpt lat="43.38383" lon="5.8447">
        <ele>438</ele>
        <time>2021-11-08T10:05:24+01:00</time>
      </trkpt>
      <trkpt lat="43.38373" lon="5.84455">
        <ele>439</ele>
        <time>2021-11-08T10:05:40+01:00</time>
      </trkpt>
      <trkpt lat="43.38369" lon="5.84443">
        <ele>439</ele>
        <time>2021-11-08T10:05:54+01:00</time>
      </trkpt>
      <trkpt lat="43.38372" lon="5.84434">
        <ele>438</ele>
        <time>2021-11-08T10:06:10+01:00</time>
      </trkpt>
      <trkpt lat="43.3837" lon="5.84416">
        <ele>437</ele>
        <time>2021-11-08T10:06:25+01:00</time>
      </trkpt>
      <trkpt lat="43.3837" lon="5.84406">
        <ele>436</ele>
        <time>2021-11-08T10:06:42+01:00</time>
      </trkpt>
      <trkpt lat="43.38369" lon="5.84396">
        <ele>436</ele>
        <time>2021-11-08T10:06:57+01:00</time>
      </trkpt>
      <trkpt lat="43.38366" lon="5.84388">
        <ele>436</ele>
        <time>2021-11-08T10:07:18+01:00</time>
      </trkpt>
      <trkpt lat="43.38366" lon="5.84376">
        <ele>435</ele>
        <time>2021-11-08T10:07:38+01:00</time>
      </trkpt>
      <trkpt lat="43.38363" lon="5.84358">
        <ele>434</ele>
        <time>2021-11-08T10:07:56+01:00</time>
      </trkpt>
      <trkpt lat="43.38359" lon="5.84348">
        <ele>434</ele>
        <time>2021-11-08T10:08:11+01:00</time>
      </trkpt>
      <trkpt lat="43.38352" lon="5.84333">
        <ele>434</ele>
        <time>2021-11-08T10:08:29+01:00</time>
      </trkpt>
      <trkpt lat="43.38351" lon="5.84321">
        <ele>434</ele>
        <time>2021-11-08T10:08:48+01:00</time>
      </trkpt>
      <trkpt lat="43.38352" lon="5.84301">
        <ele>432</ele>
        <time>2021-11-08T10:09:05+01:00</time>
      </trkpt>
      <trkpt lat="43.38346" lon="5.84281">
        <ele>433</ele>
        <time>2021-11-08T10:09:23+01:00</time>
      </trkpt>
      <trkpt lat="43.3834" lon="5.84267">
        <ele>433</ele>
        <time>2021-11-08T10:09:40+01:00</time>
      </trkpt>
      <trkpt lat="43.3833" lon="5.84248">
        <ele>433</ele>
        <time>2021-11-08T10:09:58+01:00</time>
      </trkpt>
      <trkpt lat="43.38334" lon="5.8423">
        <ele>433</ele>
        <time>2021-11-08T10:10:19+01:00</time>
      </trkpt>
      <trkpt lat="43.38331" lon="5.84225">
        <ele>433</ele>
        <time>2021-11-08T10:10:32+01:00</time>
      </trkpt>
      <trkpt lat="43.38337" lon="5.84218">
        <ele>434</ele>
        <time>2021-11-08T10:10:48+01:00</time>
      </trkpt>
      <trkpt lat="43.38353" lon="5.84215">
        <ele>434</ele>
        <time>2021-11-08T10:11:09+01:00</time>
      </trkpt>
      <trkpt lat="43.38372" lon="5.84213">
        <ele>434</ele>
        <time>2021-11-08T10:11:31+01:00</time>
      </trkpt>
      <trkpt lat="43.38387" lon="5.8421">
        <ele>436</ele>
        <time>2021-11-08T10:11:49+01:00</time>
      </trkpt>
      <trkpt lat="43.38402" lon="5.84209">
        <ele>439</ele>
        <time>2021-11-08T10:12:08+01:00</time>
      </trkpt>
      <trkpt lat="43.38404" lon="5.84212">
        <ele>439</ele>
        <time>2021-11-08T10:12:27+01:00</time>
      </trkpt>
      <trkpt lat="43.38413" lon="5.84219">
        <ele>440</ele>
        <time>2021-11-08T10:12:45+01:00</time>
      </trkpt>
      <trkpt lat="43.38422" lon="5.84226">
        <ele>440</ele>
        <time>2021-11-08T10:13:00+01:00</time>
      </trkpt>
      <trkpt lat="43.38433" lon="5.84229">
        <ele>441</ele>
        <time>2021-11-08T10:13:16+01:00</time>
      </trkpt>
      <trkpt lat="43.38451" lon="5.84225">
        <ele>444</ele>
        <time>2021-11-08T10:13:39+01:00</time>
      </trkpt>
      <trkpt lat="43.38466" lon="5.84217">
        <ele>446</ele>
        <time>2021-11-08T10:14:00+01:00</time>
      </trkpt>
      <trkpt lat="43.38478" lon="5.84204">
        <ele>448</ele>
        <time>2021-11-08T10:14:21+01:00</time>
      </trkpt>
      <trkpt lat="43.38493" lon="5.84199">
        <ele>449</ele>
        <time>2021-11-08T10:14:42+01:00</time>
      </trkpt>
      <trkpt lat="43.38502" lon="5.84187">
        <ele>452</ele>
        <time>2021-11-08T10:15:03+01:00</time>
      </trkpt>
      <trkpt lat="43.38508" lon="5.84183">
        <ele>453</ele>
        <time>2021-11-08T10:15:23+01:00</time>
      </trkpt>
      <trkpt lat="43.38517" lon="5.84173">
        <ele>455</ele>
        <time>2021-11-08T10:15:44+01:00</time>
      </trkpt>
      <trkpt lat="43.38535" lon="5.84167">
        <ele>456</ele>
        <time>2021-11-08T10:16:05+01:00</time>
      </trkpt>
      <trkpt lat="43.38547" lon="5.84166">
        <ele>456</ele>
        <time>2021-11-08T10:16:24+01:00</time>
      </trkpt>
      <trkpt lat="43.38559" lon="5.84163">
        <ele>456</ele>
        <time>2021-11-08T10:16:43+01:00</time>
      </trkpt>
      <trkpt lat="43.38567" lon="5.84161">
        <ele>456</ele>
        <time>2021-11-08T10:17:06+01:00</time>
      </trkpt>
      <trkpt lat="43.38579" lon="5.84155">
        <ele>456</ele>
        <time>2021-11-08T10:17:24+01:00</time>
      </trkpt>
      <trkpt lat="43.38591" lon="5.84151">
        <ele>455</ele>
        <time>2021-11-08T10:17:44+01:00</time>
      </trkpt>
      <trkpt lat="43.38599" lon="5.84147">
        <ele>454</ele>
        <time>2021-11-08T10:18:01+01:00</time>
      </trkpt>
      <trkpt lat="43.38616" lon="5.84136">
        <ele>452</ele>
        <time>2021-11-08T10:18:21+01:00</time>
      </trkpt>
      <trkpt lat="43.38623" lon="5.84127">
        <ele>452</ele>
        <time>2021-11-08T10:18:40+01:00</time>
      </trkpt>
      <trkpt lat="43.38623" lon="5.84127">
        <ele>452</ele>
        <time>2021-11-08T10:19:12+01:00</time>
      </trkpt>
      <trkpt lat="43.38628" lon="5.84125">
        <ele>451</ele>
        <time>2021-11-08T10:19:55+01:00</time>
      </trkpt>
      <trkpt lat="43.38625" lon="5.84126">
        <ele>452</ele>
        <time>2021-11-08T10:20:29+01:00</time>
      </trkpt>
      <trkpt lat="43.38629" lon="5.84118">
        <ele>452</ele>
        <time>2021-11-08T10:20:47+01:00</time>
      </trkpt>
      <trkpt lat="43.38639" lon="5.84103">
        <ele>452</ele>
        <time>2021-11-08T10:21:05+01:00</time>
      </trkpt>
      <trkpt lat="43.38651" lon="5.84091">
        <ele>455</ele>
        <time>2021-11-08T10:21:21+01:00</time>
      </trkpt>
      <trkpt lat="43.3866" lon="5.84083">
        <ele>456</ele>
        <time>2021-11-08T10:21:38+01:00</time>
      </trkpt>
      <trkpt lat="43.38673" lon="5.84073">
        <ele>457</ele>
        <time>2021-11-08T10:21:52+01:00</time>
      </trkpt>
      <trkpt lat="43.38681" lon="5.84063">
        <ele>458</ele>
        <time>2021-11-08T10:22:09+01:00</time>
      </trkpt>
      <trkpt lat="43.38682" lon="5.84062">
        <ele>458</ele>
        <time>2021-11-08T10:22:13+01:00</time>
      </trkpt>
      <trkpt lat="43.38687" lon="5.84054">
        <ele>458</ele>
        <time>2021-11-08T10:22:29+01:00</time>
      </trkpt>
      <trkpt lat="43.38694" lon="5.84035">
        <ele>460</ele>
        <time>2021-11-08T10:22:50+01:00</time>
      </trkpt>
      <trkpt lat="43.38695" lon="5.84021">
        <ele>461</ele>
        <time>2021-11-08T10:23:08+01:00</time>
      </trkpt>
      <trkpt lat="43.38697" lon="5.84012">
        <ele>462</ele>
        <time>2021-11-08T10:23:25+01:00</time>
      </trkpt>
      <trkpt lat="43.38695" lon="5.83999">
        <ele>463</ele>
        <time>2021-11-08T10:23:44+01:00</time>
      </trkpt>
      <trkpt lat="43.38698" lon="5.83986">
        <ele>463</ele>
        <time>2021-11-08T10:23:59+01:00</time>
      </trkpt>
      <trkpt lat="43.38697" lon="5.83976">
        <ele>464</ele>
        <time>2021-11-08T10:24:12+01:00</time>
      </trkpt>
      <trkpt lat="43.38696" lon="5.83965">
        <ele>465</ele>
        <time>2021-11-08T10:24:26+01:00</time>
      </trkpt>
      <trkpt lat="43.38693" lon="5.83948">
        <ele>467</ele>
        <time>2021-11-08T10:24:43+01:00</time>
      </trkpt>
      <trkpt lat="43.3869" lon="5.83939">
        <ele>469</ele>
        <time>2021-11-08T10:24:57+01:00</time>
      </trkpt>
      <trkpt lat="43.38688" lon="5.83934">
        <ele>470</ele>
        <time>2021-11-08T10:25:13+01:00</time>
      </trkpt>
      <trkpt lat="43.38689" lon="5.83923">
        <ele>470</ele>
        <time>2021-11-08T10:25:28+01:00</time>
      </trkpt>
      <trkpt lat="43.38685" lon="5.83914">
        <ele>472</ele>
        <time>2021-11-08T10:25:41+01:00</time>
      </trkpt>
      <trkpt lat="43.38682" lon="5.83912">
        <ele>473</ele>
        <time>2021-11-08T10:25:53+01:00</time>
      </trkpt>
      <trkpt lat="43.38679" lon="5.83901">
        <ele>475</ele>
        <time>2021-11-08T10:26:09+01:00</time>
      </trkpt>
      <trkpt lat="43.38677" lon="5.83898">
        <ele>477</ele>
        <time>2021-11-08T10:26:27+01:00</time>
      </trkpt>
      <trkpt lat="43.38672" lon="5.83887">
        <ele>479</ele>
        <time>2021-11-08T10:26:41+01:00</time>
      </trkpt>
      <trkpt lat="43.38672" lon="5.83881">
        <ele>480</ele>
        <time>2021-11-08T10:26:48+01:00</time>
      </trkpt>
      <trkpt lat="43.38671" lon="5.83879">
        <ele>480</ele>
        <time>2021-11-08T10:27:09+01:00</time>
      </trkpt>
      <trkpt lat="43.3867" lon="5.8388">
        <ele>480</ele>
        <time>2021-11-08T10:27:36+01:00</time>
      </trkpt>
      <trkpt lat="43.38666" lon="5.8387">
        <ele>483</ele>
        <time>2021-11-08T10:27:53+01:00</time>
      </trkpt>
      <trkpt lat="43.38663" lon="5.83858">
        <ele>485</ele>
        <time>2021-11-08T10:28:10+01:00</time>
      </trkpt>
      <trkpt lat="43.38659" lon="5.83847">
        <ele>487</ele>
        <time>2021-11-08T10:28:25+01:00</time>
      </trkpt>
      <trkpt lat="43.3866" lon="5.83844">
        <ele>486</ele>
        <time>2021-11-08T10:28:46+01:00</time>
      </trkpt>
      <trkpt lat="43.38661" lon="5.83843">
        <ele>486</ele>
        <time>2021-11-08T10:29:08+01:00</time>
      </trkpt>
      <trkpt lat="43.38661" lon="5.83843">
        <ele>486</ele>
        <time>2021-11-08T10:29:36+01:00</time>
      </trkpt>
      <trkpt lat="43.38662" lon="5.83843">
        <ele>485</ele>
        <time>2021-11-08T10:30:05+01:00</time>
      </trkpt>
      <trkpt lat="43.38658" lon="5.83844">
        <ele>487</ele>
        <time>2021-11-08T10:30:32+01:00</time>
      </trkpt>
      <trkpt lat="43.38659" lon="5.83844">
        <ele>487</ele>
        <time>2021-11-08T10:31:05+01:00</time>
      </trkpt>
      <trkpt lat="43.38659" lon="5.83839">
        <ele>487</ele>
        <time>2021-11-08T10:31:25+01:00</time>
      </trkpt>
      <trkpt lat="43.38656" lon="5.83822">
        <ele>488</ele>
        <time>2021-11-08T10:31:41+01:00</time>
      </trkpt>
      <trkpt lat="43.38656" lon="5.83818">
        <ele>488</ele>
        <time>2021-11-08T10:31:48+01:00</time>
      </trkpt>
      <trkpt lat="43.38656" lon="5.83813">
        <ele>488</ele>
        <time>2021-11-08T10:32:05+01:00</time>
      </trkpt>
      <trkpt lat="43.38654" lon="5.83803">
        <ele>489</ele>
        <time>2021-11-08T10:32:22+01:00</time>
      </trkpt>
      <trkpt lat="43.38651" lon="5.83782">
        <ele>492</ele>
        <time>2021-11-08T10:32:56+01:00</time>
      </trkpt>
      <trkpt lat="43.38649" lon="5.83773">
        <ele>494</ele>
        <time>2021-11-08T10:33:15+01:00</time>
      </trkpt>
      <trkpt lat="43.38651" lon="5.83765">
        <ele>494</ele>
        <time>2021-11-08T10:33:40+01:00</time>
      </trkpt>
      <trkpt lat="43.38651" lon="5.83761">
        <ele>494</ele>
        <time>2021-11-08T10:33:58+01:00</time>
      </trkpt>
      <trkpt lat="43.38641" lon="5.83752">
        <ele>501</ele>
        <time>2021-11-09T07:14:59+01:00</time>
      </trkpt>
      <trkpt lat="43.38632" lon="5.83748">
        <ele>506</ele>
        <time>2021-11-09T07:15:04+01:00</time>
      </trkpt>
      <trkpt lat="43.38622" lon="5.8375">
        <ele>511</ele>
        <time>2021-11-09T07:15:09+01:00</time>
      </trkpt>
      <trkpt lat="43.38615" lon="5.8375">
        <ele>514</ele>
        <time>2021-11-08T10:44:54+01:00</time>
      </trkpt>
      <trkpt lat="43.38609" lon="5.83749">
        <ele>518</ele>
        <time>2021-11-08T10:45:45+01:00</time>
      </trkpt>
      <trkpt lat="43.38596" lon="5.83764">
        <ele>527</ele>
        <time>2021-11-08T10:46:03+01:00</time>
      </trkpt>
      <trkpt lat="43.38599" lon="5.83754">
        <ele>525</ele>
        <time>2021-11-08T10:46:25+01:00</time>
      </trkpt>
      <trkpt lat="43.38595" lon="5.8376">
        <ele>527</ele>
        <time>2021-11-08T10:49:17+01:00</time>
      </trkpt>
      <trkpt lat="43.38584" lon="5.83765">
        <ele>536</ele>
        <time>2021-11-08T10:49:35+01:00</time>
      </trkpt>
      <trkpt lat="43.38586" lon="5.83764">
        <ele>534</ele>
        <time>2021-11-08T10:49:57+01:00</time>
      </trkpt>
      <trkpt lat="43.38584" lon="5.83761">
        <ele>536</ele>
        <time>2021-11-08T10:50:17+01:00</time>
      </trkpt>
      <trkpt lat="43.38583" lon="5.83759">
        <ele>536</ele>
        <time>2021-11-08T10:50:36+01:00</time>
      </trkpt>
      <trkpt lat="43.38583" lon="5.83757">
        <ele>537</ele>
        <time>2021-11-08T10:51:01+01:00</time>
      </trkpt>
      <trkpt lat="43.38583" lon="5.83756">
        <ele>537</ele>
        <time>2021-11-08T10:51:02+01:00</time>
      </trkpt>
      <trkpt lat="43.38583" lon="5.83759">
        <ele>536</ele>
        <time>2021-11-08T10:51:17+01:00</time>
      </trkpt>
      <trkpt lat="43.38575" lon="5.83769">
        <ele>542</ele>
        <time>2021-11-08T10:51:38+01:00</time>
      </trkpt>
      <trkpt lat="43.38571" lon="5.83766">
        <ele>545</ele>
        <time>2021-11-08T10:51:56+01:00</time>
      </trkpt>
      <trkpt lat="43.38567" lon="5.83765">
        <ele>548</ele>
        <time>2021-11-08T10:52:16+01:00</time>
      </trkpt>
      <trkpt lat="43.38562" lon="5.8376">
        <ele>552</ele>
        <time>2021-11-08T10:52:36+01:00</time>
      </trkpt>
      <trkpt lat="43.38558" lon="5.83753">
        <ele>555</ele>
        <time>2021-11-08T10:52:55+01:00</time>
      </trkpt>
      <trkpt lat="43.38557" lon="5.83761">
        <ele>555</ele>
        <time>2021-11-08T10:53:13+01:00</time>
      </trkpt>
      <trkpt lat="43.38554" lon="5.83763">
        <ele>557</ele>
        <time>2021-11-08T10:53:35+01:00</time>
      </trkpt>
      <trkpt lat="43.38548" lon="5.83765">
        <ele>561</ele>
        <time>2021-11-08T10:53:58+01:00</time>
      </trkpt>
      <trkpt lat="43.38543" lon="5.8377">
        <ele>564</ele>
        <time>2021-11-08T10:54:17+01:00</time>
      </trkpt>
      <trkpt lat="43.3854" lon="5.83779">
        <ele>566</ele>
        <time>2021-11-08T10:54:33+01:00</time>
      </trkpt>
      <trkpt lat="43.38533" lon="5.83781">
        <ele>570</ele>
        <time>2021-11-08T10:54:52+01:00</time>
      </trkpt>
      <trkpt lat="43.38529" lon="5.83779">
        <ele>573</ele>
        <time>2021-11-08T10:55:12+01:00</time>
      </trkpt>
      <trkpt lat="43.38525" lon="5.83782">
        <ele>575</ele>
        <time>2021-11-08T10:55:30+01:00</time>
      </trkpt>
      <trkpt lat="43.38521" lon="5.83786">
        <ele>577</ele>
        <time>2021-11-08T10:55:45+01:00</time>
      </trkpt>
      <trkpt lat="43.38517" lon="5.83786">
        <ele>580</ele>
        <time>2021-11-08T10:56:04+01:00</time>
      </trkpt>
      <trkpt lat="43.38514" lon="5.83784">
        <ele>582</ele>
        <time>2021-11-08T10:56:28+01:00</time>
      </trkpt>
      <trkpt lat="43.38507" lon="5.83784">
        <ele>586</ele>
        <time>2021-11-08T10:56:49+01:00</time>
      </trkpt>
      <trkpt lat="43.38502" lon="5.8378">
        <ele>590</ele>
        <time>2021-11-08T10:57:08+01:00</time>
      </trkpt>
      <trkpt lat="43.38496" lon="5.83776">
        <ele>593</ele>
        <time>2021-11-08T10:57:27+01:00</time>
      </trkpt>
      <trkpt lat="43.38493" lon="5.83775">
        <ele>595</ele>
        <time>2021-11-08T10:57:50+01:00</time>
      </trkpt>
      <trkpt lat="43.38492" lon="5.83775">
        <ele>596</ele>
        <time>2021-11-08T10:58:08+01:00</time>
      </trkpt>
      <trkpt lat="43.38489" lon="5.83774">
        <ele>597</ele>
        <time>2021-11-08T10:58:32+01:00</time>
      </trkpt>
      <trkpt lat="43.38489" lon="5.83773">
        <ele>597</ele>
        <time>2021-11-08T10:58:58+01:00</time>
      </trkpt>
      <trkpt lat="43.38485" lon="5.83769">
        <ele>599</ele>
        <time>2021-11-08T10:59:16+01:00</time>
      </trkpt>
      <trkpt lat="43.38482" lon="5.83773">
        <ele>601</ele>
        <time>2021-11-08T10:59:36+01:00</time>
      </trkpt>
      <trkpt lat="43.38477" lon="5.83782">
        <ele>604</ele>
        <time>2021-11-08T10:59:56+01:00</time>
      </trkpt>
      <trkpt lat="43.38474" lon="5.8379">
        <ele>604</ele>
        <time>2021-11-08T11:00:17+01:00</time>
      </trkpt>
      <trkpt lat="43.38476" lon="5.8379">
        <ele>603</ele>
        <time>2021-11-08T11:00:30+01:00</time>
      </trkpt>
      <trkpt lat="43.38475" lon="5.83792">
        <ele>603</ele>
        <time>2021-11-08T11:00:52+01:00</time>
      </trkpt>
      <trkpt lat="43.38475" lon="5.83791">
        <ele>603</ele>
        <time>2021-11-08T11:01:10+01:00</time>
      </trkpt>
      <trkpt lat="43.38473" lon="5.83792">
        <ele>604</ele>
        <time>2021-11-08T11:01:35+01:00</time>
      </trkpt>
      <trkpt lat="43.38473" lon="5.83793">
        <ele>604</ele>
        <time>2021-11-08T11:02:08+01:00</time>
      </trkpt>
      <trkpt lat="43.38473" lon="5.83794">
        <ele>604</ele>
        <time>2021-11-08T11:02:51+01:00</time>
      </trkpt>
      <trkpt lat="43.38473" lon="5.83794">
        <ele>604</ele>
        <time>2021-11-08T11:03:26+01:00</time>
      </trkpt>
      <trkpt lat="43.38473" lon="5.83794">
        <ele>604</ele>
        <time>2021-11-08T11:04:01+01:00</time>
      </trkpt>
      <trkpt lat="43.38473" lon="5.83794">
        <ele>604</ele>
        <time>2021-11-08T11:04:39+01:00</time>
      </trkpt>
      <trkpt lat="43.38473" lon="5.83794">
        <ele>604</ele>
        <time>2021-11-08T11:05:02+01:00</time>
      </trkpt>
      <trkpt lat="43.38473" lon="5.83794">
        <ele>604</ele>
        <time>2021-11-08T11:05:31+01:00</time>
      </trkpt>
      <trkpt lat="43.38475" lon="5.83794">
        <ele>603</ele>
        <time>2021-11-08T11:06:01+01:00</time>
      </trkpt>
      <trkpt lat="43.38474" lon="5.83794">
        <ele>603</ele>
        <time>2021-11-08T11:06:32+01:00</time>
      </trkpt>
      <trkpt lat="43.38474" lon="5.83794">
        <ele>603</ele>
        <time>2021-11-08T11:07:09+01:00</time>
      </trkpt>
      <trkpt lat="43.38474" lon="5.83794">
        <ele>603</ele>
        <time>2021-11-08T11:07:46+01:00</time>
      </trkpt>
      <trkpt lat="43.38475" lon="5.83794">
        <ele>603</ele>
        <time>2021-11-08T11:08:20+01:00</time>
      </trkpt>
      <trkpt lat="43.38474" lon="5.83794">
        <ele>603</ele>
        <time>2021-11-08T11:08:57+01:00</time>
      </trkpt>
      <trkpt lat="43.38475" lon="5.83794">
        <ele>603</ele>
        <time>2021-11-08T11:09:25+01:00</time>
      </trkpt>
      <trkpt lat="43.38474" lon="5.83794">
        <ele>603</ele>
        <time>2021-11-08T11:10:05+01:00</time>
      </trkpt>
      <trkpt lat="43.38474" lon="5.83796">
        <ele>603</ele>
        <time>2021-11-08T11:10:44+01:00</time>
      </trkpt>
      <trkpt lat="43.38475" lon="5.83796">
        <ele>602</ele>
        <time>2021-11-08T11:11:10+01:00</time>
      </trkpt>
      <trkpt lat="43.38476" lon="5.83795">
        <ele>602</ele>
        <time>2021-11-08T11:11:35+01:00</time>
      </trkpt>
      <trkpt lat="43.38475" lon="5.83793">
        <ele>603</ele>
        <time>2021-11-08T11:11:53+01:00</time>
      </trkpt>
      <trkpt lat="43.38475" lon="5.83794">
        <ele>603</ele>
        <time>2021-11-08T11:12:18+01:00</time>
      </trkpt>
      <trkpt lat="43.38475" lon="5.83794">
        <ele>602</ele>
        <time>2021-11-08T11:12:37+01:00</time>
      </trkpt>
      <trkpt lat="43.38475" lon="5.83795">
        <ele>602</ele>
        <time>2021-11-08T11:13:05+01:00</time>
      </trkpt>
      <trkpt lat="43.38474" lon="5.83793">
        <ele>604</ele>
        <time>2021-11-08T11:13:26+01:00</time>
      </trkpt>
      <trkpt lat="43.38471" lon="5.83788">
        <ele>606</ele>
        <time>2021-11-08T11:13:44+01:00</time>
      </trkpt>
      <trkpt lat="43.38465" lon="5.83787">
        <ele>606</ele>
        <time>2021-11-08T11:13:59+01:00</time>
      </trkpt>
      <trkpt lat="43.38462" lon="5.83781">
        <ele>608</ele>
        <time>2021-11-08T11:14:13+01:00</time>
      </trkpt>
      <trkpt lat="43.38458" lon="5.83786">
        <ele>607</ele>
        <time>2021-11-08T11:14:28+01:00</time>
      </trkpt>
      <trkpt lat="43.38458" lon="5.83787">
        <ele>607</ele>
        <time>2021-11-08T11:14:31+01:00</time>
      </trkpt>
      <trkpt lat="43.38456" lon="5.83788">
        <ele>607</ele>
        <time>2021-11-08T11:14:47+01:00</time>
      </trkpt>
      <trkpt lat="43.38456" lon="5.8379">
        <ele>606</ele>
        <time>2021-11-08T11:15:16+01:00</time>
      </trkpt>
      <trkpt lat="43.38456" lon="5.83781">
        <ele>608</ele>
        <time>2021-11-08T11:15:30+01:00</time>
      </trkpt>
      <trkpt lat="43.38453" lon="5.8378">
        <ele>609</ele>
        <time>2021-11-08T11:15:45+01:00</time>
      </trkpt>
      <trkpt lat="43.38444" lon="5.83781">
        <ele>609</ele>
        <time>2021-11-08T11:16:02+01:00</time>
      </trkpt>
      <trkpt lat="43.38436" lon="5.83784">
        <ele>608</ele>
        <time>2021-11-08T11:16:15+01:00</time>
      </trkpt>
      <trkpt lat="43.38433" lon="5.83782">
        <ele>608</ele>
        <time>2021-11-08T11:16:29+01:00</time>
      </trkpt>
      <trkpt lat="43.38427" lon="5.8378">
        <ele>609</ele>
        <time>2021-11-08T11:16:42+01:00</time>
      </trkpt>
      <trkpt lat="43.38424" lon="5.83773">
        <ele>609</ele>
        <time>2021-11-08T11:16:57+01:00</time>
      </trkpt>
      <trkpt lat="43.38415" lon="5.83779">
        <ele>608</ele>
        <time>2021-11-08T11:17:12+01:00</time>
      </trkpt>
      <trkpt lat="43.38406" lon="5.83782">
        <ele>606</ele>
        <time>2021-11-08T11:17:28+01:00</time>
      </trkpt>
      <trkpt lat="43.38399" lon="5.83783">
        <ele>605</ele>
        <time>2021-11-08T11:17:50+01:00</time>
      </trkpt>
      <trkpt lat="43.38391" lon="5.83788">
        <ele>603</ele>
        <time>2021-11-08T11:18:06+01:00</time>
      </trkpt>
      <trkpt lat="43.38386" lon="5.83791">
        <ele>602</ele>
        <time>2021-11-08T11:18:13+01:00</time>
      </trkpt>
      <trkpt lat="43.38378" lon="5.83793">
        <ele>601</ele>
        <time>2021-11-08T11:18:24+01:00</time>
      </trkpt>
      <trkpt lat="43.3837" lon="5.83795">
        <ele>600</ele>
        <time>2021-11-08T11:18:37+01:00</time>
      </trkpt>
      <trkpt lat="43.38361" lon="5.83799">
        <ele>599</ele>
        <time>2021-11-08T11:18:53+01:00</time>
      </trkpt>
      <trkpt lat="43.38356" lon="5.83798">
        <ele>599</ele>
        <time>2021-11-08T11:19:07+01:00</time>
      </trkpt>
      <trkpt lat="43.38356" lon="5.83801">
        <ele>599</ele>
        <time>2021-11-08T11:19:23+01:00</time>
      </trkpt>
      <trkpt lat="43.38354" lon="5.83804">
        <ele>598</ele>
        <time>2021-11-08T11:19:36+01:00</time>
      </trkpt>
      <trkpt lat="43.38355" lon="5.83811">
        <ele>597</ele>
        <time>2021-11-08T11:19:49+01:00</time>
      </trkpt>
      <trkpt lat="43.38352" lon="5.83818">
        <ele>595</ele>
        <time>2021-11-08T11:20:02+01:00</time>
      </trkpt>
      <trkpt lat="43.38349" lon="5.83821">
        <ele>594</ele>
        <time>2021-11-08T11:20:16+01:00</time>
      </trkpt>
      <trkpt lat="43.38351" lon="5.8382">
        <ele>595</ele>
        <time>2021-11-08T11:20:38+01:00</time>
      </trkpt>
      <trkpt lat="43.38351" lon="5.8382">
        <ele>595</ele>
        <time>2021-11-08T11:20:56+01:00</time>
      </trkpt>
      <trkpt lat="43.38351" lon="5.8382">
        <ele>595</ele>
        <time>2021-11-08T11:21:11+01:00</time>
      </trkpt>
      <trkpt lat="43.38352" lon="5.83822">
        <ele>595</ele>
        <time>2021-11-08T11:21:29+01:00</time>
      </trkpt>
      <trkpt lat="43.38349" lon="5.83824">
        <ele>594</ele>
        <time>2021-11-08T11:21:52+01:00</time>
      </trkpt>
      <trkpt lat="43.38349" lon="5.83824">
        <ele>594</ele>
        <time>2021-11-08T11:22:14+01:00</time>
      </trkpt>
      <trkpt lat="43.38346" lon="5.83824">
        <ele>594</ele>
        <time>2021-11-08T11:22:33+01:00</time>
      </trkpt>
      <trkpt lat="43.38347" lon="5.83824">
        <ele>594</ele>
        <time>2021-11-08T11:22:54+01:00</time>
      </trkpt>
      <trkpt lat="43.38348" lon="5.8382">
        <ele>595</ele>
        <time>2021-11-08T11:23:20+01:00</time>
      </trkpt>
      <trkpt lat="43.38348" lon="5.83819">
        <ele>595</ele>
        <time>2021-11-08T11:23:34+01:00</time>
      </trkpt>
      <trkpt lat="43.38352" lon="5.83819">
        <ele>595</ele>
        <time>2021-11-08T11:23:51+01:00</time>
      </trkpt>
      <trkpt lat="43.38352" lon="5.83819">
        <ele>595</ele>
        <time>2021-11-08T11:23:53+01:00</time>
      </trkpt>
      <trkpt lat="43.38351" lon="5.83814">
        <ele>596</ele>
        <time>2021-11-08T11:24:13+01:00</time>
      </trkpt>
      <trkpt lat="43.38351" lon="5.83801">
        <ele>598</ele>
        <time>2021-11-08T11:24:30+01:00</time>
      </trkpt>
      <trkpt lat="43.38346" lon="5.83798">
        <ele>597</ele>
        <time>2021-11-08T11:24:49+01:00</time>
      </trkpt>
      <trkpt lat="43.38346" lon="5.83798">
        <ele>597</ele>
        <time>2021-11-08T11:25:20+01:00</time>
      </trkpt>
      <trkpt lat="43.38345" lon="5.83798">
        <ele>597</ele>
        <time>2021-11-08T11:25:21+01:00</time>
      </trkpt>
      <trkpt lat="43.38343" lon="5.83797">
        <ele>597</ele>
        <time>2021-11-08T11:25:39+01:00</time>
      </trkpt>
      <trkpt lat="43.3834" lon="5.83807">
        <ele>597</ele>
        <time>2021-11-08T11:25:59+01:00</time>
      </trkpt>
      <trkpt lat="43.38334" lon="5.83814">
        <ele>595</ele>
        <time>2021-11-08T11:26:15+01:00</time>
      </trkpt>
      <trkpt lat="43.38323" lon="5.83819">
        <ele>593</ele>
        <time>2021-11-08T11:26:35+01:00</time>
      </trkpt>
      <trkpt lat="43.38319" lon="5.83824">
        <ele>592</ele>
        <time>2021-11-08T11:26:47+01:00</time>
      </trkpt>
      <trkpt lat="43.38308" lon="5.8383">
        <ele>591</ele>
        <time>2021-11-08T11:27:02+01:00</time>
      </trkpt>
      <trkpt lat="43.38297" lon="5.83849">
        <ele>588</ele>
        <time>2021-11-08T11:27:18+01:00</time>
      </trkpt>
      <trkpt lat="43.38279" lon="5.83859">
        <ele>586</ele>
        <time>2021-11-08T11:27:37+01:00</time>
      </trkpt>
      <trkpt lat="43.3827" lon="5.83864">
        <ele>585</ele>
        <time>2021-11-08T11:27:54+01:00</time>
      </trkpt>
      <trkpt lat="43.3826" lon="5.83872">
        <ele>583</ele>
        <time>2021-11-08T11:28:10+01:00</time>
      </trkpt>
      <trkpt lat="43.38247" lon="5.83883">
        <ele>581</ele>
        <time>2021-11-08T11:28:29+01:00</time>
      </trkpt>
      <trkpt lat="43.3823" lon="5.83892">
        <ele>579</ele>
        <time>2021-11-08T11:28:47+01:00</time>
      </trkpt>
      <trkpt lat="43.38213" lon="5.83895">
        <ele>579</ele>
        <time>2021-11-08T11:29:04+01:00</time>
      </trkpt>
      <trkpt lat="43.382" lon="5.83897">
        <ele>579</ele>
        <time>2021-11-08T11:29:18+01:00</time>
      </trkpt>
      <trkpt lat="43.38182" lon="5.83903">
        <ele>575</ele>
        <time>2021-11-08T11:29:39+01:00</time>
      </trkpt>
      <trkpt lat="43.38162" lon="5.83912">
        <ele>572</ele>
        <time>2021-11-08T11:29:57+01:00</time>
      </trkpt>
      <trkpt lat="43.38143" lon="5.83912">
        <ele>570</ele>
        <time>2021-11-08T11:30:14+01:00</time>
      </trkpt>
      <trkpt lat="43.38129" lon="5.83913">
        <ele>571</ele>
        <time>2021-11-08T11:30:32+01:00</time>
      </trkpt>
      <trkpt lat="43.38105" lon="5.83917">
        <ele>571</ele>
        <time>2021-11-08T11:30:52+01:00</time>
      </trkpt>
      <trkpt lat="43.3809" lon="5.83918">
        <ele>572</ele>
        <time>2021-11-08T11:31:11+01:00</time>
      </trkpt>
      <trkpt lat="43.3807" lon="5.83921">
        <ele>573</ele>
        <time>2021-11-08T11:31:30+01:00</time>
      </trkpt>
      <trkpt lat="43.38046" lon="5.83931">
        <ele>572</ele>
        <time>2021-11-08T11:31:51+01:00</time>
      </trkpt>
      <trkpt lat="43.38041" lon="5.83937">
        <ele>571</ele>
        <time>2021-11-08T11:31:57+01:00</time>
      </trkpt>
      <trkpt lat="43.3803" lon="5.83942">
        <ele>571</ele>
        <time>2021-11-08T11:32:07+01:00</time>
      </trkpt>
      <trkpt lat="43.38012" lon="5.83939">
        <ele>571</ele>
        <time>2021-11-08T11:32:25+01:00</time>
      </trkpt>
      <trkpt lat="43.38008" lon="5.83937">
        <ele>571</ele>
        <time>2021-11-08T11:32:29+01:00</time>
      </trkpt>
      <trkpt lat="43.37998" lon="5.83934">
        <ele>570</ele>
        <time>2021-11-08T11:32:40+01:00</time>
      </trkpt>
      <trkpt lat="43.37994" lon="5.83933">
        <ele>570</ele>
        <time>2021-11-08T11:32:44+01:00</time>
      </trkpt>
      <trkpt lat="43.3799" lon="5.83927">
        <ele>570</ele>
        <time>2021-11-08T11:32:49+01:00</time>
      </trkpt>
      <trkpt lat="43.37978" lon="5.83919">
        <ele>570</ele>
        <time>2021-11-08T11:33:01+01:00</time>
      </trkpt>
      <trkpt lat="43.37957" lon="5.83923">
        <ele>568</ele>
        <time>2021-11-08T11:33:19+01:00</time>
      </trkpt>
      <trkpt lat="43.37937" lon="5.8393">
        <ele>567</ele>
        <time>2021-11-08T11:33:36+01:00</time>
      </trkpt>
      <trkpt lat="43.37922" lon="5.83933">
        <ele>566</ele>
        <time>2021-11-08T11:33:53+01:00</time>
      </trkpt>
      <trkpt lat="43.37902" lon="5.83929">
        <ele>565</ele>
        <time>2021-11-08T11:34:11+01:00</time>
      </trkpt>
      <trkpt lat="43.37889" lon="5.83925">
        <ele>564</ele>
        <time>2021-11-08T11:34:28+01:00</time>
      </trkpt>
      <trkpt lat="43.37884" lon="5.83933">
        <ele>564</ele>
        <time>2021-11-08T11:34:42+01:00</time>
      </trkpt>
      <trkpt lat="43.37876" lon="5.83954">
        <ele>562</ele>
        <time>2021-11-08T11:34:59+01:00</time>
      </trkpt>
      <trkpt lat="43.37873" lon="5.83959">
        <ele>561</ele>
        <time>2021-11-08T11:35:16+01:00</time>
      </trkpt>
      <trkpt lat="43.37873" lon="5.83962">
        <ele>561</ele>
        <time>2021-11-08T11:35:33+01:00</time>
      </trkpt>
      <trkpt lat="43.37872" lon="5.83963">
        <ele>561</ele>
        <time>2021-11-08T11:35:49+01:00</time>
      </trkpt>
      <trkpt lat="43.37875" lon="5.83967">
        <ele>561</ele>
        <time>2021-11-08T11:36:02+01:00</time>
      </trkpt>
      <trkpt lat="43.37881" lon="5.83973">
        <ele>560</ele>
        <time>2021-11-08T11:36:16+01:00</time>
      </trkpt>
      <trkpt lat="43.3789" lon="5.83976">
        <ele>560</ele>
        <time>2021-11-08T11:36:29+01:00</time>
      </trkpt>
      <trkpt lat="43.37899" lon="5.83984">
        <ele>559</ele>
        <time>2021-11-08T11:36:47+01:00</time>
      </trkpt>
      <trkpt lat="43.37897" lon="5.84">
        <ele>557</ele>
        <time>2021-11-08T11:37:05+01:00</time>
      </trkpt>
      <trkpt lat="43.37902" lon="5.84014">
        <ele>555</ele>
        <time>2021-11-08T11:37:22+01:00</time>
      </trkpt>
      <trkpt lat="43.37903" lon="5.84029">
        <ele>552</ele>
        <time>2021-11-08T11:37:38+01:00</time>
      </trkpt>
      <trkpt lat="43.37898" lon="5.84049">
        <ele>549</ele>
        <time>2021-11-08T11:37:59+01:00</time>
      </trkpt>
      <trkpt lat="43.37901" lon="5.84064">
        <ele>546</ele>
        <time>2021-11-08T11:38:16+01:00</time>
      </trkpt>
      <trkpt lat="43.379" lon="5.84081">
        <ele>543</ele>
        <time>2021-11-08T11:38:34+01:00</time>
      </trkpt>
      <trkpt lat="43.37892" lon="5.8411">
        <ele>539</ele>
        <time>2021-11-08T11:38:54+01:00</time>
      </trkpt>
      <trkpt lat="43.37883" lon="5.84129">
        <ele>538</ele>
        <time>2021-11-08T11:39:11+01:00</time>
      </trkpt>
      <trkpt lat="43.37874" lon="5.84144">
        <ele>538</ele>
        <time>2021-11-08T11:39:26+01:00</time>
      </trkpt>
      <trkpt lat="43.37866" lon="5.84161">
        <ele>536</ele>
        <time>2021-11-08T11:39:38+01:00</time>
      </trkpt>
      <trkpt lat="43.37858" lon="5.84183">
        <ele>534</ele>
        <time>2021-11-08T11:39:58+01:00</time>
      </trkpt>
      <trkpt lat="43.37858" lon="5.84181">
        <ele>534</ele>
        <time>2021-11-08T11:40:17+01:00</time>
      </trkpt>
      <trkpt lat="43.37858" lon="5.84179">
        <ele>535</ele>
        <time>2021-11-08T11:40:36+01:00</time>
      </trkpt>
      <trkpt lat="43.3786" lon="5.84177">
        <ele>534</ele>
        <time>2021-11-08T11:40:54+01:00</time>
      </trkpt>
      <trkpt lat="43.37857" lon="5.84178">
        <ele>535</ele>
        <time>2021-11-08T11:41:15+01:00</time>
      </trkpt>
      <trkpt lat="43.37858" lon="5.84187">
        <ele>533</ele>
        <time>2021-11-08T11:41:38+01:00</time>
      </trkpt>
      <trkpt lat="43.37856" lon="5.84199">
        <ele>532</ele>
        <time>2021-11-08T11:41:56+01:00</time>
      </trkpt>
      <trkpt lat="43.37857" lon="5.84214">
        <ele>529</ele>
        <time>2021-11-08T11:42:12+01:00</time>
      </trkpt>
      <trkpt lat="43.37852" lon="5.84231">
        <ele>527</ele>
        <time>2021-11-08T11:42:31+01:00</time>
      </trkpt>
      <trkpt lat="43.37848" lon="5.84251">
        <ele>524</ele>
        <time>2021-11-08T11:42:49+01:00</time>
      </trkpt>
      <trkpt lat="43.37844" lon="5.84265">
        <ele>524</ele>
        <time>2021-11-08T11:43:09+01:00</time>
      </trkpt>
      <trkpt lat="43.37845" lon="5.84278">
        <ele>524</ele>
        <time>2021-11-08T11:43:27+01:00</time>
      </trkpt>
      <trkpt lat="43.37843" lon="5.84279">
        <ele>524</ele>
        <time>2021-11-08T11:43:42+01:00</time>
      </trkpt>
      <trkpt lat="43.37839" lon="5.84277">
        <ele>524</ele>
        <time>2021-11-08T11:43:58+01:00</time>
      </trkpt>
      <trkpt lat="43.37842" lon="5.8428">
        <ele>524</ele>
        <time>2021-11-08T11:44:12+01:00</time>
      </trkpt>
      <trkpt lat="43.37842" lon="5.84276">
        <ele>524</ele>
        <time>2021-11-08T11:44:41+01:00</time>
      </trkpt>
      <trkpt lat="43.37844" lon="5.84277">
        <ele>524</ele>
        <time>2021-11-08T11:44:57+01:00</time>
      </trkpt>
      <trkpt lat="43.37853" lon="5.84272">
        <ele>523</ele>
        <time>2021-11-08T11:45:13+01:00</time>
      </trkpt>
      <trkpt lat="43.37862" lon="5.84271">
        <ele>522</ele>
        <time>2021-11-08T11:45:28+01:00</time>
      </trkpt>
      <trkpt lat="43.37875" lon="5.84261">
        <ele>521</ele>
        <time>2021-11-08T11:45:45+01:00</time>
      </trkpt>
      <trkpt lat="43.37882" lon="5.84257">
        <ele>520</ele>
        <time>2021-11-08T11:46:03+01:00</time>
      </trkpt>
      <trkpt lat="43.37893" lon="5.84266">
        <ele>520</ele>
        <time>2021-11-08T11:46:20+01:00</time>
      </trkpt>
      <trkpt lat="43.379" lon="5.84267">
        <ele>520</ele>
        <time>2021-11-08T11:46:36+01:00</time>
      </trkpt>
      <trkpt lat="43.37911" lon="5.84268">
        <ele>520</ele>
        <time>2021-11-08T11:46:51+01:00</time>
      </trkpt>
      <trkpt lat="43.37929" lon="5.84273">
        <ele>519</ele>
        <time>2021-11-08T11:47:10+01:00</time>
      </trkpt>
      <trkpt lat="43.37948" lon="5.84286">
        <ele>521</ele>
        <time>2021-11-08T11:47:28+01:00</time>
      </trkpt>
      <trkpt lat="43.37958" lon="5.84296">
        <ele>523</ele>
        <time>2021-11-08T11:47:44+01:00</time>
      </trkpt>
      <trkpt lat="43.37971" lon="5.84307">
        <ele>524</ele>
        <time>2021-11-08T11:48:01+01:00</time>
      </trkpt>
      <trkpt lat="43.37985" lon="5.84318">
        <ele>526</ele>
        <time>2021-11-08T11:48:21+01:00</time>
      </trkpt>
      <trkpt lat="43.37999" lon="5.84315">
        <ele>525</ele>
        <time>2021-11-08T11:48:38+01:00</time>
      </trkpt>
      <trkpt lat="43.38013" lon="5.8432">
        <ele>526</ele>
        <time>2021-11-08T11:48:56+01:00</time>
      </trkpt>
      <trkpt lat="43.38036" lon="5.84327">
        <ele>526</ele>
        <time>2021-11-08T11:49:16+01:00</time>
      </trkpt>
      <trkpt lat="43.38052" lon="5.84337">
        <ele>527</ele>
        <time>2021-11-08T11:49:35+01:00</time>
      </trkpt>
      <trkpt lat="43.3807" lon="5.84353">
        <ele>528</ele>
        <time>2021-11-08T11:49:56+01:00</time>
      </trkpt>
      <trkpt lat="43.38072" lon="5.84358">
        <ele>529</ele>
        <time>2021-11-08T11:50:13+01:00</time>
      </trkpt>
      <trkpt lat="43.38082" lon="5.84368">
        <ele>531</ele>
        <time>2021-11-08T11:50:29+01:00</time>
      </trkpt>
      <trkpt lat="43.38089" lon="5.84379">
        <ele>532</ele>
        <time>2021-11-08T11:50:44+01:00</time>
      </trkpt>
      <trkpt lat="43.38101" lon="5.84391">
        <ele>533</ele>
        <time>2021-11-08T11:51:03+01:00</time>
      </trkpt>
      <trkpt lat="43.38104" lon="5.84393">
        <ele>533</ele>
        <time>2021-11-08T11:51:24+01:00</time>
      </trkpt>
      <trkpt lat="43.38113" lon="5.844">
        <ele>533</ele>
        <time>2021-11-08T11:51:39+01:00</time>
      </trkpt>
      <trkpt lat="43.38126" lon="5.84409">
        <ele>534</ele>
        <time>2021-11-08T11:52:00+01:00</time>
      </trkpt>
      <trkpt lat="43.38142" lon="5.84418">
        <ele>535</ele>
        <time>2021-11-08T11:52:18+01:00</time>
      </trkpt>
      <trkpt lat="43.38154" lon="5.8443">
        <ele>534</ele>
        <time>2021-11-08T11:52:36+01:00</time>
      </trkpt>
      <trkpt lat="43.38163" lon="5.84445">
        <ele>535</ele>
        <time>2021-11-08T11:52:54+01:00</time>
      </trkpt>
      <trkpt lat="43.38169" lon="5.84449">
        <ele>534</ele>
        <time>2021-11-08T11:53:10+01:00</time>
      </trkpt>
      <trkpt lat="43.38179" lon="5.84465">
        <ele>533</ele>
        <time>2021-11-08T11:53:31+01:00</time>
      </trkpt>
      <trkpt lat="43.38186" lon="5.84484">
        <ele>533</ele>
        <time>2021-11-08T11:53:50+01:00</time>
      </trkpt>
      <trkpt lat="43.38194" lon="5.84507">
        <ele>534</ele>
        <time>2021-11-08T11:54:11+01:00</time>
      </trkpt>
      <trkpt lat="43.382" lon="5.84523">
        <ele>533</ele>
        <time>2021-11-08T11:54:26+01:00</time>
      </trkpt>
      <trkpt lat="43.38202" lon="5.84534">
        <ele>534</ele>
        <time>2021-11-08T11:54:44+01:00</time>
      </trkpt>
      <trkpt lat="43.38203" lon="5.84539">
        <ele>534</ele>
        <time>2021-11-08T11:55:02+01:00</time>
      </trkpt>
      <trkpt lat="43.38209" lon="5.84562">
        <ele>534</ele>
        <time>2021-11-08T11:55:25+01:00</time>
      </trkpt>
      <trkpt lat="43.38204" lon="5.84574">
        <ele>539</ele>
        <time>2021-11-08T11:55:44+01:00</time>
      </trkpt>
      <trkpt lat="43.38201" lon="5.84583">
        <ele>542</ele>
        <time>2021-11-08T11:55:59+01:00</time>
      </trkpt>
      <trkpt lat="43.38202" lon="5.84598">
        <ele>544</ele>
        <time>2021-11-08T11:56:17+01:00</time>
      </trkpt>
      <trkpt lat="43.38201" lon="5.8462">
        <ele>548</ele>
        <time>2021-11-08T11:56:37+01:00</time>
      </trkpt>
      <trkpt lat="43.38202" lon="5.8464">
        <ele>550</ele>
        <time>2021-11-08T11:56:57+01:00</time>
      </trkpt>
      <trkpt lat="43.38205" lon="5.84666">
        <ele>551</ele>
        <time>2021-11-08T11:57:20+01:00</time>
      </trkpt>
      <trkpt lat="43.38205" lon="5.84687">
        <ele>554</ele>
        <time>2021-11-08T11:57:40+01:00</time>
      </trkpt>
      <trkpt lat="43.38211" lon="5.84711">
        <ele>555</ele>
        <time>2021-11-08T11:58:00+01:00</time>
      </trkpt>
      <trkpt lat="43.38215" lon="5.8473">
        <ele>557</ele>
        <time>2021-11-08T11:58:17+01:00</time>
      </trkpt>
      <trkpt lat="43.38213" lon="5.84745">
        <ele>562</ele>
        <time>2021-11-08T11:58:35+01:00</time>
      </trkpt>
      <trkpt lat="43.38214" lon="5.84746">
        <ele>562</ele>
        <time>2021-11-08T11:58:48+01:00</time>
      </trkpt>
      <trkpt lat="43.38219" lon="5.84746">
        <ele>560</ele>
        <time>2021-11-08T11:58:57+01:00</time>
      </trkpt>
      <trkpt lat="43.38218" lon="5.84746">
        <ele>561</ele>
        <time>2021-11-08T11:59:13+01:00</time>
      </trkpt>
      <trkpt lat="43.38217" lon="5.84746">
        <ele>561</ele>
        <time>2021-11-08T11:59:31+01:00</time>
      </trkpt>
      <trkpt lat="43.38216" lon="5.84758">
        <ele>565</ele>
        <time>2021-11-08T11:59:47+01:00</time>
      </trkpt>
      <trkpt lat="43.38225" lon="5.84776">
        <ele>567</ele>
        <time>2021-11-08T12:00:05+01:00</time>
      </trkpt>
      <trkpt lat="43.38227" lon="5.84794">
        <ele>571</ele>
        <time>2021-11-08T12:00:20+01:00</time>
      </trkpt>
      <trkpt lat="43.38231" lon="5.84814">
        <ele>574</ele>
        <time>2021-11-08T12:00:38+01:00</time>
      </trkpt>
      <trkpt lat="43.3823" lon="5.84835">
        <ele>577</ele>
        <time>2021-11-08T12:00:56+01:00</time>
      </trkpt>
      <trkpt lat="43.38233" lon="5.84853">
        <ele>578</ele>
        <time>2021-11-08T12:01:14+01:00</time>
      </trkpt>
      <trkpt lat="43.38228" lon="5.84869">
        <ele>579</ele>
        <time>2021-11-08T12:01:31+01:00</time>
      </trkpt>
      <trkpt lat="43.38221" lon="5.84884">
        <ele>580</ele>
        <time>2021-11-08T12:01:46+01:00</time>
      </trkpt>
      <trkpt lat="43.38216" lon="5.849">
        <ele>580</ele>
        <time>2021-11-08T12:02:04+01:00</time>
      </trkpt>
      <trkpt lat="43.38211" lon="5.84915">
        <ele>581</ele>
        <time>2021-11-08T12:02:20+01:00</time>
      </trkpt>
      <trkpt lat="43.38199" lon="5.84918">
        <ele>582</ele>
        <time>2021-11-08T12:02:39+01:00</time>
      </trkpt>
      <trkpt lat="43.38194" lon="5.84931">
        <ele>584</ele>
        <time>2021-11-08T12:02:58+01:00</time>
      </trkpt>
      <trkpt lat="43.38189" lon="5.84939">
        <ele>585</ele>
        <time>2021-11-08T12:03:15+01:00</time>
      </trkpt>
      <trkpt lat="43.38179" lon="5.84959">
        <ele>588</ele>
        <time>2021-11-08T12:03:34+01:00</time>
      </trkpt>
      <trkpt lat="43.38172" lon="5.84972">
        <ele>590</ele>
        <time>2021-11-08T12:03:53+01:00</time>
      </trkpt>
      <trkpt lat="43.38165" lon="5.84989">
        <ele>592</ele>
        <time>2021-11-08T12:04:14+01:00</time>
      </trkpt>
      <trkpt lat="43.3816" lon="5.85005">
        <ele>593</ele>
        <time>2021-11-08T12:04:33+01:00</time>
      </trkpt>
      <trkpt lat="43.38158" lon="5.85019">
        <ele>593</ele>
        <time>2021-11-08T12:04:53+01:00</time>
      </trkpt>
      <trkpt lat="43.38158" lon="5.85019">
        <ele>593</ele>
        <time>2021-11-08T12:05:21+01:00</time>
      </trkpt>
      <trkpt lat="43.38157" lon="5.85032">
        <ele>593</ele>
        <time>2021-11-08T12:05:38+01:00</time>
      </trkpt>
      <trkpt lat="43.38159" lon="5.85046">
        <ele>593</ele>
        <time>2021-11-08T12:05:51+01:00</time>
      </trkpt>
      <trkpt lat="43.38151" lon="5.85064">
        <ele>593</ele>
        <time>2021-11-08T12:06:09+01:00</time>
      </trkpt>
      <trkpt lat="43.3814" lon="5.85075">
        <ele>594</ele>
        <time>2021-11-08T12:06:27+01:00</time>
      </trkpt>
      <trkpt lat="43.38137" lon="5.85082">
        <ele>594</ele>
        <time>2021-11-08T12:06:43+01:00</time>
      </trkpt>
      <trkpt lat="43.38145" lon="5.85096">
        <ele>594</ele>
        <time>2021-11-08T12:07:01+01:00</time>
      </trkpt>
      <trkpt lat="43.38155" lon="5.85121">
        <ele>594</ele>
        <time>2021-11-08T12:07:21+01:00</time>
      </trkpt>
      <trkpt lat="43.38158" lon="5.85129">
        <ele>594</ele>
        <time>2021-11-08T12:07:37+01:00</time>
      </trkpt>
      <trkpt lat="43.38165" lon="5.85153">
        <ele>594</ele>
        <time>2021-11-08T12:07:56+01:00</time>
      </trkpt>
      <trkpt lat="43.38168" lon="5.85159">
        <ele>594</ele>
        <time>2021-11-08T12:08:14+01:00</time>
      </trkpt>
      <trkpt lat="43.38172" lon="5.85169">
        <ele>594</ele>
        <time>2021-11-08T12:08:23+01:00</time>
      </trkpt>
      <trkpt lat="43.38183" lon="5.85191">
        <ele>595</ele>
        <time>2021-11-08T12:08:43+01:00</time>
      </trkpt>
      <trkpt lat="43.38189" lon="5.8521">
        <ele>597</ele>
        <time>2021-11-08T12:09:01+01:00</time>
      </trkpt>
      <trkpt lat="43.38198" lon="5.85233">
        <ele>599</ele>
        <time>2021-11-08T12:09:21+01:00</time>
      </trkpt>
      <trkpt lat="43.38207" lon="5.85239">
        <ele>598</ele>
        <time>2021-11-08T12:09:40+01:00</time>
      </trkpt>
      <trkpt lat="43.38214" lon="5.85235">
        <ele>597</ele>
        <time>2021-11-08T12:09:55+01:00</time>
      </trkpt>
      <trkpt lat="43.38222" lon="5.85238">
        <ele>595</ele>
        <time>2021-11-08T12:10:10+01:00</time>
      </trkpt>
      <trkpt lat="43.38226" lon="5.85236">
        <ele>594</ele>
        <time>2021-11-08T12:10:23+01:00</time>
      </trkpt>
      <trkpt lat="43.38229" lon="5.85226">
        <ele>594</ele>
        <time>2021-11-08T12:10:36+01:00</time>
      </trkpt>
      <trkpt lat="43.38232" lon="5.85222">
        <ele>594</ele>
        <time>2021-11-08T12:10:49+01:00</time>
      </trkpt>
      <trkpt lat="43.3824" lon="5.8522">
        <ele>590</ele>
        <time>2021-11-08T12:11:03+01:00</time>
      </trkpt>
      <trkpt lat="43.38242" lon="5.85218">
        <ele>590</ele>
        <time>2021-11-08T12:11:19+01:00</time>
      </trkpt>
      <trkpt lat="43.38242" lon="5.85218">
        <ele>589</ele>
        <time>2021-11-08T12:11:24+01:00</time>
      </trkpt>
      <trkpt lat="43.38235" lon="5.85212">
        <ele>590</ele>
        <time>2021-11-08T12:11:40+01:00</time>
      </trkpt>
      <trkpt lat="43.38233" lon="5.85208">
        <ele>590</ele>
        <time>2021-11-08T12:11:57+01:00</time>
      </trkpt>
      <trkpt lat="43.38229" lon="5.85208">
        <ele>591</ele>
        <time>2021-11-08T12:12:11+01:00</time>
      </trkpt>
      <trkpt lat="43.3823" lon="5.85214">
        <ele>592</ele>
        <time>2021-11-08T12:12:26+01:00</time>
      </trkpt>
      <trkpt lat="43.38231" lon="5.85206">
        <ele>590</ele>
        <time>2021-11-08T12:12:39+01:00</time>
      </trkpt>
      <trkpt lat="43.38232" lon="5.85195">
        <ele>587</ele>
        <time>2021-11-08T12:12:52+01:00</time>
      </trkpt>
      <trkpt lat="43.38236" lon="5.85201">
        <ele>587</ele>
        <time>2021-11-08T12:13:07+01:00</time>
      </trkpt>
      <trkpt lat="43.38237" lon="5.85205">
        <ele>588</ele>
        <time>2021-11-08T12:13:11+01:00</time>
      </trkpt>
      <trkpt lat="43.38239" lon="5.85205">
        <ele>587</ele>
        <time>2021-11-08T12:13:14+01:00</time>
      </trkpt>
      <trkpt lat="43.38245" lon="5.85208">
        <ele>586</ele>
        <time>2021-11-08T12:13:29+01:00</time>
      </trkpt>
      <trkpt lat="43.3825" lon="5.85207">
        <ele>584</ele>
        <time>2021-11-08T12:13:41+01:00</time>
      </trkpt>
      <trkpt lat="43.38259" lon="5.85209">
        <ele>581</ele>
        <time>2021-11-08T12:13:55+01:00</time>
      </trkpt>
      <trkpt lat="43.38259" lon="5.85212">
        <ele>582</ele>
        <time>2021-11-08T12:14:09+01:00</time>
      </trkpt>
      <trkpt lat="43.38259" lon="5.8522">
        <ele>584</ele>
        <time>2021-11-08T12:14:25+01:00</time>
      </trkpt>
      <trkpt lat="43.38261" lon="5.85224">
        <ele>584</ele>
        <time>2021-11-08T12:14:37+01:00</time>
      </trkpt>
      <trkpt lat="43.3827" lon="5.85225">
        <ele>580</ele>
        <time>2021-11-08T12:14:48+01:00</time>
      </trkpt>
      <trkpt lat="43.38273" lon="5.85225">
        <ele>579</ele>
        <time>2021-11-08T12:14:51+01:00</time>
      </trkpt>
      <trkpt lat="43.3828" lon="5.85222">
        <ele>577</ele>
        <time>2021-11-08T12:15:07+01:00</time>
      </trkpt>
      <trkpt lat="43.38281" lon="5.85226">
        <ele>576</ele>
        <time>2021-11-08T12:15:22+01:00</time>
      </trkpt>
      <trkpt lat="43.38283" lon="5.85226">
        <ele>576</ele>
        <time>2021-11-08T12:15:38+01:00</time>
      </trkpt>
      <trkpt lat="43.3828" lon="5.85222">
        <ele>577</ele>
        <time>2021-11-08T12:15:57+01:00</time>
      </trkpt>
      <trkpt lat="43.3828" lon="5.85221">
        <ele>577</ele>
        <time>2021-11-08T12:16:10+01:00</time>
      </trkpt>
      <trkpt lat="43.38277" lon="5.85214">
        <ele>576</ele>
        <time>2021-11-08T12:16:23+01:00</time>
      </trkpt>
      <trkpt lat="43.38274" lon="5.85218">
        <ele>578</ele>
        <time>2021-11-08T12:16:41+01:00</time>
      </trkpt>
      <trkpt lat="43.38273" lon="5.85219">
        <ele>579</ele>
        <time>2021-11-08T12:16:44+01:00</time>
      </trkpt>
      <trkpt lat="43.38271" lon="5.8522">
        <ele>580</ele>
        <time>2021-11-08T12:17:03+01:00</time>
      </trkpt>
      <trkpt lat="43.38273" lon="5.85228">
        <ele>579</ele>
        <time>2021-11-08T12:17:16+01:00</time>
      </trkpt>
      <trkpt lat="43.3828" lon="5.85225">
        <ele>577</ele>
        <time>2021-11-08T12:17:30+01:00</time>
      </trkpt>
      <trkpt lat="43.38284" lon="5.85225">
        <ele>576</ele>
        <time>2021-11-08T12:17:44+01:00</time>
      </trkpt>
      <trkpt lat="43.38283" lon="5.85227">
        <ele>575</ele>
        <time>2021-11-08T12:18:03+01:00</time>
      </trkpt>
      <trkpt lat="43.38283" lon="5.85227">
        <ele>575</ele>
        <time>2021-11-08T12:18:22+01:00</time>
      </trkpt>
      <trkpt lat="43.38282" lon="5.85226">
        <ele>576</ele>
        <time>2021-11-08T12:18:48+01:00</time>
      </trkpt>
      <trkpt lat="43.38281" lon="5.85226">
        <ele>576</ele>
        <time>2021-11-08T12:18:49+01:00</time>
      </trkpt>
      <trkpt lat="43.38279" lon="5.85223">
        <ele>577</ele>
        <time>2021-11-08T12:19:04+01:00</time>
      </trkpt>
      <trkpt lat="43.38283" lon="5.85224">
        <ele>576</ele>
        <time>2021-11-08T12:19:20+01:00</time>
      </trkpt>
      <trkpt lat="43.38283" lon="5.85224">
        <ele>576</ele>
        <time>2021-11-08T12:19:38+01:00</time>
      </trkpt>
      <trkpt lat="43.38284" lon="5.85227">
        <ele>575</ele>
        <time>2021-11-08T12:19:58+01:00</time>
      </trkpt>
      <trkpt lat="43.38284" lon="5.85227">
        <ele>575</ele>
        <time>2021-11-08T12:20:02+01:00</time>
      </trkpt>
      <trkpt lat="43.38284" lon="5.85227">
        <ele>575</ele>
        <time>2021-11-08T12:20:03+01:00</time>
      </trkpt>
      <trkpt lat="43.38284" lon="5.85226">
        <ele>575</ele>
        <time>2021-11-08T12:20:05+01:00</time>
      </trkpt>
      <trkpt lat="43.38283" lon="5.85226">
        <ele>575</ele>
        <time>2021-11-08T12:20:08+01:00</time>
      </trkpt>
      <trkpt lat="43.38282" lon="5.85225">
        <ele>576</ele>
        <time>2021-11-08T12:20:23+01:00</time>
      </trkpt>
      <trkpt lat="43.38283" lon="5.85226">
        <ele>575</ele>
        <time>2021-11-08T12:20:43+01:00</time>
      </trkpt>
      <trkpt lat="43.38283" lon="5.85226">
        <ele>576</ele>
        <time>2021-11-08T12:20:58+01:00</time>
      </trkpt>
      <trkpt lat="43.38285" lon="5.85228">
        <ele>575</ele>
        <time>2021-11-08T12:21:13+01:00</time>
      </trkpt>
      <trkpt lat="43.38282" lon="5.85225">
        <ele>576</ele>
        <time>2021-11-08T12:21:40+01:00</time>
      </trkpt>
      <trkpt lat="43.38276" lon="5.85222">
        <ele>578</ele>
        <time>2021-11-08T12:21:57+01:00</time>
      </trkpt>
      <trkpt lat="43.38267" lon="5.85215">
        <ele>580</ele>
        <time>2021-11-08T12:22:10+01:00</time>
      </trkpt>
      <trkpt lat="43.38259" lon="5.85219">
        <ele>584</ele>
        <time>2021-11-08T12:22:24+01:00</time>
      </trkpt>
      <trkpt lat="43.38258" lon="5.85223">
        <ele>585</ele>
        <time>2021-11-08T12:22:29+01:00</time>
      </trkpt>
      <trkpt lat="43.38259" lon="5.85227">
        <ele>584</ele>
        <time>2021-11-08T12:22:40+01:00</time>
      </trkpt>
      <trkpt lat="43.38268" lon="5.85229">
        <ele>580</ele>
        <time>2021-11-08T12:22:48+01:00</time>
      </trkpt>
      <trkpt lat="43.38269" lon="5.85228">
        <ele>580</ele>
        <time>2021-11-08T12:22:50+01:00</time>
      </trkpt>
      <trkpt lat="43.3827" lon="5.85215">
        <ele>579</ele>
        <time>2021-11-08T12:23:00+01:00</time>
      </trkpt>
      <trkpt lat="43.3826" lon="5.85215">
        <ele>582</ele>
        <time>2021-11-08T12:23:15+01:00</time>
      </trkpt>
      <trkpt lat="43.38251" lon="5.85225">
        <ele>587</ele>
        <time>2021-11-08T12:23:34+01:00</time>
      </trkpt>
      <trkpt lat="43.38245" lon="5.85224">
        <ele>590</ele>
        <time>2021-11-08T12:23:53+01:00</time>
      </trkpt>
      <trkpt lat="43.38243" lon="5.85235">
        <ele>589</ele>
        <time>2021-11-08T12:24:11+01:00</time>
      </trkpt>
      <trkpt lat="43.38241" lon="5.85246">
        <ele>588</ele>
        <time>2021-11-08T12:24:28+01:00</time>
      </trkpt>
      <trkpt lat="43.38236" lon="5.85247">
        <ele>589</ele>
        <time>2021-11-08T12:24:48+01:00</time>
      </trkpt>
      <trkpt lat="43.38236" lon="5.85255">
        <ele>588</ele>
        <time>2021-11-08T12:25:01+01:00</time>
      </trkpt>
      <trkpt lat="43.38236" lon="5.85257">
        <ele>587</ele>
        <time>2021-11-08T12:25:16+01:00</time>
      </trkpt>
      <trkpt lat="43.3823" lon="5.85266">
        <ele>586</ele>
        <time>2021-11-08T12:25:32+01:00</time>
      </trkpt>
      <trkpt lat="43.38229" lon="5.85273">
        <ele>584</ele>
        <time>2021-11-08T12:25:46+01:00</time>
      </trkpt>
      <trkpt lat="43.38229" lon="5.8527">
        <ele>585</ele>
        <time>2021-11-08T12:25:57+01:00</time>
      </trkpt>
      <trkpt lat="43.38228" lon="5.8527">
        <ele>585</ele>
        <time>2021-11-08T12:26:11+01:00</time>
      </trkpt>
      <trkpt lat="43.38228" lon="5.85267">
        <ele>586</ele>
        <time>2021-11-08T12:26:28+01:00</time>
      </trkpt>
      <trkpt lat="43.38228" lon="5.85267">
        <ele>587</ele>
        <time>2021-11-08T12:26:53+01:00</time>
      </trkpt>
      <trkpt lat="43.38228" lon="5.85267">
        <ele>587</ele>
        <time>2021-11-08T12:27:22+01:00</time>
      </trkpt>
      <trkpt lat="43.38227" lon="5.85269">
        <ele>586</ele>
        <time>2021-11-08T12:28:02+01:00</time>
      </trkpt>
      <trkpt lat="43.38227" lon="5.85267">
        <ele>587</ele>
        <time>2021-11-08T12:28:49+01:00</time>
      </trkpt>
      <trkpt lat="43.38227" lon="5.85267">
        <ele>587</ele>
        <time>2021-11-08T12:29:23+01:00</time>
      </trkpt>
      <trkpt lat="43.38227" lon="5.85269">
        <ele>586</ele>
        <time>2021-11-08T12:30:01+01:00</time>
      </trkpt>
      <trkpt lat="43.38227" lon="5.85268">
        <ele>586</ele>
        <time>2021-11-08T12:30:37+01:00</time>
      </trkpt>
      <trkpt lat="43.38227" lon="5.85269">
        <ele>586</ele>
        <time>2021-11-08T12:31:12+01:00</time>
      </trkpt>
      <trkpt lat="43.38227" lon="5.85268">
        <ele>587</ele>
        <time>2021-11-08T12:31:59+01:00</time>
      </trkpt>
      <trkpt lat="43.38228" lon="5.85267">
        <ele>587</ele>
        <time>2021-11-08T12:32:18+01:00</time>
      </trkpt>
      <trkpt lat="43.38231" lon="5.85267">
        <ele>585</ele>
        <time>2021-11-08T13:03:36+01:00</time>
      </trkpt>
      <trkpt lat="43.38231" lon="5.85267">
        <ele>585</ele>
        <time>2021-11-08T13:03:37+01:00</time>
      </trkpt>
      <trkpt lat="43.38228" lon="5.85265">
        <ele>587</ele>
        <time>2021-11-08T13:03:58+01:00</time>
      </trkpt>
      <trkpt lat="43.38228" lon="5.85265">
        <ele>587</ele>
        <time>2021-11-08T13:04:18+01:00</time>
      </trkpt>
      <trkpt lat="43.38229" lon="5.85267">
        <ele>586</ele>
        <time>2021-11-08T13:04:35+01:00</time>
      </trkpt>
      <trkpt lat="43.38229" lon="5.85266">
        <ele>586</ele>
        <time>2021-11-08T13:05:01+01:00</time>
      </trkpt>
      <trkpt lat="43.38228" lon="5.85268">
        <ele>586</ele>
        <time>2021-11-08T13:05:27+01:00</time>
      </trkpt>
      <trkpt lat="43.3823" lon="5.85265">
        <ele>587</ele>
        <time>2021-11-08T13:05:43+01:00</time>
      </trkpt>
      <trkpt lat="43.38237" lon="5.85259">
        <ele>586</ele>
        <time>2021-11-08T13:05:59+01:00</time>
      </trkpt>
      <trkpt lat="43.38236" lon="5.85247">
        <ele>589</ele>
        <time>2021-11-08T13:06:13+01:00</time>
      </trkpt>
      <trkpt lat="43.3824" lon="5.85243">
        <ele>588</ele>
        <time>2021-11-08T13:06:27+01:00</time>
      </trkpt>
      <trkpt lat="43.38246" lon="5.8523">
        <ele>588</ele>
        <time>2021-11-08T13:06:45+01:00</time>
      </trkpt>
      <trkpt lat="43.38255" lon="5.8523">
        <ele>585</ele>
        <time>2021-11-08T13:07:05+01:00</time>
      </trkpt>
      <trkpt lat="43.38255" lon="5.85236">
        <ele>584</ele>
        <time>2021-11-08T13:07:21+01:00</time>
      </trkpt>
      <trkpt lat="43.3825" lon="5.85242">
        <ele>585</ele>
        <time>2021-11-08T13:07:41+01:00</time>
      </trkpt>
      <trkpt lat="43.38253" lon="5.85251">
        <ele>583</ele>
        <time>2021-11-08T13:08:01+01:00</time>
      </trkpt>
      <trkpt lat="43.38259" lon="5.85247">
        <ele>581</ele>
        <time>2021-11-08T13:08:15+01:00</time>
      </trkpt>
      <trkpt lat="43.38259" lon="5.8524">
        <ele>582</ele>
        <time>2021-11-08T13:08:33+01:00</time>
      </trkpt>
      <trkpt lat="43.38255" lon="5.85236">
        <ele>584</ele>
        <time>2021-11-08T13:09:02+01:00</time>
      </trkpt>
      <trkpt lat="43.3826" lon="5.85245">
        <ele>581</ele>
        <time>2021-11-08T13:10:00+01:00</time>
      </trkpt>
      <trkpt lat="43.38262" lon="5.85242">
        <ele>581</ele>
        <time>2021-11-08T13:10:14+01:00</time>
      </trkpt>
      <trkpt lat="43.38265" lon="5.8524">
        <ele>580</ele>
        <time>2021-11-08T13:10:32+01:00</time>
      </trkpt>
      <trkpt lat="43.38269" lon="5.8524">
        <ele>578</ele>
        <time>2021-11-08T13:10:50+01:00</time>
      </trkpt>
      <trkpt lat="43.38275" lon="5.8524">
        <ele>576</ele>
        <time>2021-11-08T13:11:09+01:00</time>
      </trkpt>
      <trkpt lat="43.38288" lon="5.85238">
        <ele>571</ele>
        <time>2021-11-08T13:11:29+01:00</time>
      </trkpt>
      <trkpt lat="43.38291" lon="5.85235">
        <ele>571</ele>
        <time>2021-11-08T13:11:34+01:00</time>
      </trkpt>
      <trkpt lat="43.38292" lon="5.85231">
        <ele>571</ele>
        <time>2021-11-08T13:11:49+01:00</time>
      </trkpt>
      <trkpt lat="43.38291" lon="5.8523">
        <ele>572</ele>
        <time>2021-11-08T13:12:09+01:00</time>
      </trkpt>
      <trkpt lat="43.38293" lon="5.8523">
        <ele>571</ele>
        <time>2021-11-08T13:12:35+01:00</time>
      </trkpt>
      <trkpt lat="43.38288" lon="5.85231">
        <ele>573</ele>
        <time>2021-11-08T13:12:54+01:00</time>
      </trkpt>
      <trkpt lat="43.38288" lon="5.85232">
        <ele>572</ele>
        <time>2021-11-08T13:13:10+01:00</time>
      </trkpt>
      <trkpt lat="43.3829" lon="5.85232">
        <ele>572</ele>
        <time>2021-11-08T13:13:29+01:00</time>
      </trkpt>
      <trkpt lat="43.38293" lon="5.8523">
        <ele>571</ele>
        <time>2021-11-08T13:13:45+01:00</time>
      </trkpt>
      <trkpt lat="43.38294" lon="5.85229">
        <ele>571</ele>
        <time>2021-11-08T13:14:02+01:00</time>
      </trkpt>
      <trkpt lat="43.38293" lon="5.8523">
        <ele>571</ele>
        <time>2021-11-08T13:14:33+01:00</time>
      </trkpt>
      <trkpt lat="43.38293" lon="5.85231">
        <ele>571</ele>
        <time>2021-11-08T13:14:52+01:00</time>
      </trkpt>
      <trkpt lat="43.38293" lon="5.85234">
        <ele>570</ele>
        <time>2021-11-08T13:15:12+01:00</time>
      </trkpt>
      <trkpt lat="43.38297" lon="5.85231">
        <ele>569</ele>
        <time>2021-11-08T13:15:29+01:00</time>
      </trkpt>
      <trkpt lat="43.38298" lon="5.85231">
        <ele>569</ele>
        <time>2021-11-08T13:15:56+01:00</time>
      </trkpt>
      <trkpt lat="43.38299" lon="5.85229">
        <ele>570</ele>
        <time>2021-11-08T13:16:35+01:00</time>
      </trkpt>
      <trkpt lat="43.38298" lon="5.85229">
        <ele>570</ele>
        <time>2021-11-08T13:17:15+01:00</time>
      </trkpt>
      <trkpt lat="43.383" lon="5.85229">
        <ele>569</ele>
        <time>2021-11-08T13:17:50+01:00</time>
      </trkpt>
      <trkpt lat="43.38299" lon="5.8523">
        <ele>569</ele>
        <time>2021-11-08T13:18:18+01:00</time>
      </trkpt>
      <trkpt lat="43.38297" lon="5.8523">
        <ele>570</ele>
        <time>2021-11-08T13:18:46+01:00</time>
      </trkpt>
      <trkpt lat="43.38296" lon="5.85228">
        <ele>571</ele>
        <time>2021-11-08T13:19:00+01:00</time>
      </trkpt>
      <trkpt lat="43.38295" lon="5.85227">
        <ele>571</ele>
        <time>2021-11-08T13:19:33+01:00</time>
      </trkpt>
      <trkpt lat="43.38295" lon="5.85228">
        <ele>571</ele>
        <time>2021-11-08T13:20:04+01:00</time>
      </trkpt>
      <trkpt lat="43.38294" lon="5.85226">
        <ele>572</ele>
        <time>2021-11-08T13:20:42+01:00</time>
      </trkpt>
      <trkpt lat="43.38295" lon="5.85227">
        <ele>571</ele>
        <time>2021-11-08T13:21:17+01:00</time>
      </trkpt>
      <trkpt lat="43.38296" lon="5.85226">
        <ele>571</ele>
        <time>2021-11-08T13:21:57+01:00</time>
      </trkpt>
      <trkpt lat="43.38296" lon="5.85227">
        <ele>571</ele>
        <time>2021-11-08T13:22:33+01:00</time>
      </trkpt>
      <trkpt lat="43.38297" lon="5.85231">
        <ele>570</ele>
        <time>2021-11-08T13:23:09+01:00</time>
      </trkpt>
      <trkpt lat="43.38298" lon="5.8523">
        <ele>569</ele>
        <time>2021-11-08T13:23:24+01:00</time>
      </trkpt>
      <trkpt lat="43.38297" lon="5.85228">
        <ele>570</ele>
        <time>2021-11-08T13:23:47+01:00</time>
      </trkpt>
      <trkpt lat="43.38297" lon="5.85229">
        <ele>570</ele>
        <time>2021-11-08T13:24:22+01:00</time>
      </trkpt>
      <trkpt lat="43.38296" lon="5.85229">
        <ele>570</ele>
        <time>2021-11-08T13:24:42+01:00</time>
      </trkpt>
      <trkpt lat="43.38297" lon="5.85231">
        <ele>570</ele>
        <time>2021-11-08T13:24:53+01:00</time>
      </trkpt>
      <trkpt lat="43.38296" lon="5.85228">
        <ele>571</ele>
        <time>2021-11-08T13:25:08+01:00</time>
      </trkpt>
      <trkpt lat="43.38295" lon="5.85227">
        <ele>571</ele>
        <time>2021-11-08T13:25:30+01:00</time>
      </trkpt>
      <trkpt lat="43.38298" lon="5.85228">
        <ele>570</ele>
        <time>2021-11-08T13:25:51+01:00</time>
      </trkpt>
      <trkpt lat="43.38297" lon="5.85229">
        <ele>570</ele>
        <time>2021-11-08T13:26:07+01:00</time>
      </trkpt>
      <trkpt lat="43.38297" lon="5.8523">
        <ele>570</ele>
        <time>2021-11-08T13:26:29+01:00</time>
      </trkpt>
      <trkpt lat="43.38296" lon="5.85228">
        <ele>571</ele>
        <time>2021-11-08T13:27:04+01:00</time>
      </trkpt>
      <trkpt lat="43.38297" lon="5.85226">
        <ele>571</ele>
        <time>2021-11-08T13:27:35+01:00</time>
      </trkpt>
      <trkpt lat="43.38299" lon="5.85231">
        <ele>569</ele>
        <time>2021-11-08T13:27:58+01:00</time>
      </trkpt>
      <trkpt lat="43.38296" lon="5.85236">
        <ele>569</ele>
        <time>2021-11-08T13:28:25+01:00</time>
      </trkpt>
      <trkpt lat="43.38286" lon="5.85237">
        <ele>572</ele>
        <time>2021-11-08T13:28:42+01:00</time>
      </trkpt>
      <trkpt lat="43.3828" lon="5.85235">
        <ele>575</ele>
        <time>2021-11-08T13:28:54+01:00</time>
      </trkpt>
      <trkpt lat="43.38273" lon="5.85236">
        <ele>577</ele>
        <time>2021-11-08T13:29:22+01:00</time>
      </trkpt>
      <trkpt lat="43.38271" lon="5.85239">
        <ele>578</ele>
        <time>2021-11-08T13:29:27+01:00</time>
      </trkpt>
      <trkpt lat="43.38264" lon="5.85252">
        <ele>578</ele>
        <time>2021-11-08T13:29:42+01:00</time>
      </trkpt>
      <trkpt lat="43.38254" lon="5.85269">
        <ele>576</ele>
        <time>2021-11-08T13:29:59+01:00</time>
      </trkpt>
      <trkpt lat="43.38246" lon="5.85281">
        <ele>575</ele>
        <time>2021-11-08T13:30:13+01:00</time>
      </trkpt>
      <trkpt lat="43.38237" lon="5.85295">
        <ele>572</ele>
        <time>2021-11-08T13:30:30+01:00</time>
      </trkpt>
      <trkpt lat="43.38238" lon="5.85301">
        <ele>569</ele>
        <time>2021-11-08T13:30:49+01:00</time>
      </trkpt>
      <trkpt lat="43.38246" lon="5.85298">
        <ele>568</ele>
        <time>2021-11-08T13:31:01+01:00</time>
      </trkpt>
      <trkpt lat="43.38256" lon="5.8529">
        <ele>568</ele>
        <time>2021-11-08T13:31:16+01:00</time>
      </trkpt>
      <trkpt lat="43.38265" lon="5.85288">
        <ele>566</ele>
        <time>2021-11-08T13:31:33+01:00</time>
      </trkpt>
      <trkpt lat="43.38272" lon="5.85287">
        <ele>563</ele>
        <time>2021-11-08T13:31:51+01:00</time>
      </trkpt>
      <trkpt lat="43.38272" lon="5.85287">
        <ele>563</ele>
        <time>2021-11-08T13:32:09+01:00</time>
      </trkpt>
      <trkpt lat="43.38273" lon="5.85281">
        <ele>565</ele>
        <time>2021-11-08T13:32:29+01:00</time>
      </trkpt>
      <trkpt lat="43.38275" lon="5.85278">
        <ele>566</ele>
        <time>2021-11-08T13:32:52+01:00</time>
      </trkpt>
      <trkpt lat="43.38276" lon="5.85273">
        <ele>567</ele>
        <time>2021-11-08T13:33:02+01:00</time>
      </trkpt>
      <trkpt lat="43.38276" lon="5.85299">
        <ele>556</ele>
        <time>2021-11-08T13:33:53+01:00</time>
      </trkpt>
      <trkpt lat="43.38281" lon="5.8528">
        <ele>562</ele>
        <time>2021-11-08T13:34:10+01:00</time>
      </trkpt>
      <trkpt lat="43.38282" lon="5.85273">
        <ele>564</ele>
        <time>2021-11-08T13:34:27+01:00</time>
      </trkpt>
      <trkpt lat="43.38286" lon="5.85279">
        <ele>560</ele>
        <time>2021-11-08T13:34:44+01:00</time>
      </trkpt>
      <trkpt lat="43.38291" lon="5.85273">
        <ele>560</ele>
        <time>2021-11-08T13:35:01+01:00</time>
      </trkpt>
      <trkpt lat="43.38289" lon="5.85273">
        <ele>561</ele>
        <time>2021-11-08T13:35:16+01:00</time>
      </trkpt>
      <trkpt lat="43.38283" lon="5.85272">
        <ele>564</ele>
        <time>2021-11-08T13:35:39+01:00</time>
      </trkpt>
      <trkpt lat="43.38288" lon="5.85276">
        <ele>560</ele>
        <time>2021-11-08T13:35:57+01:00</time>
      </trkpt>
      <trkpt lat="43.38293" lon="5.8527">
        <ele>560</ele>
        <time>2021-11-08T13:36:16+01:00</time>
      </trkpt>
      <trkpt lat="43.383" lon="5.85259">
        <ele>560</ele>
        <time>2021-11-08T13:36:35+01:00</time>
      </trkpt>
      <trkpt lat="43.38297" lon="5.8526">
        <ele>561</ele>
        <time>2021-11-08T13:36:53+01:00</time>
      </trkpt>
      <trkpt lat="43.38293" lon="5.85264">
        <ele>562</ele>
        <time>2021-11-08T13:37:14+01:00</time>
      </trkpt>
      <trkpt lat="43.38298" lon="5.85257">
        <ele>561</ele>
        <time>2021-11-08T13:37:33+01:00</time>
      </trkpt>
      <trkpt lat="43.38305" lon="5.85256">
        <ele>559</ele>
        <time>2021-11-08T13:37:49+01:00</time>
      </trkpt>
      <trkpt lat="43.38314" lon="5.85248">
        <ele>557</ele>
        <time>2021-11-08T13:38:04+01:00</time>
      </trkpt>
      <trkpt lat="43.38316" lon="5.85232">
        <ele>560</ele>
        <time>2021-11-08T13:38:20+01:00</time>
      </trkpt>
      <trkpt lat="43.38318" lon="5.85216">
        <ele>560</ele>
        <time>2021-11-08T13:38:34+01:00</time>
      </trkpt>
      <trkpt lat="43.38321" lon="5.85215">
        <ele>558</ele>
        <time>2021-11-08T13:38:52+01:00</time>
      </trkpt>
      <trkpt lat="43.38321" lon="5.85211">
        <ele>557</ele>
        <time>2021-11-08T13:39:07+01:00</time>
      </trkpt>
      <trkpt lat="43.38318" lon="5.85197">
        <ele>556</ele>
        <time>2021-11-08T13:39:23+01:00</time>
      </trkpt>
      <trkpt lat="43.38316" lon="5.85208">
        <ele>559</ele>
        <time>2021-11-08T13:39:40+01:00</time>
      </trkpt>
      <trkpt lat="43.38316" lon="5.85217">
        <ele>561</ele>
        <time>2021-11-08T13:39:57+01:00</time>
      </trkpt>
      <trkpt lat="43.38315" lon="5.85223">
        <ele>563</ele>
        <time>2021-11-08T13:40:11+01:00</time>
      </trkpt>
      <trkpt lat="43.38311" lon="5.85223">
        <ele>566</ele>
        <time>2021-11-08T13:40:26+01:00</time>
      </trkpt>
      <trkpt lat="43.3831" lon="5.85218">
        <ele>565</ele>
        <time>2021-11-08T13:40:45+01:00</time>
      </trkpt>
      <trkpt lat="43.3831" lon="5.85216">
        <ele>565</ele>
        <time>2021-11-08T13:41:03+01:00</time>
      </trkpt>
      <trkpt lat="43.38314" lon="5.85217">
        <ele>562</ele>
        <time>2021-11-08T13:41:19+01:00</time>
      </trkpt>
      <trkpt lat="43.38313" lon="5.85222">
        <ele>564</ele>
        <time>2021-11-08T13:41:41+01:00</time>
      </trkpt>
      <trkpt lat="43.38315" lon="5.85224">
        <ele>563</ele>
        <time>2021-11-08T13:41:57+01:00</time>
      </trkpt>
      <trkpt lat="43.38319" lon="5.85227">
        <ele>559</ele>
        <time>2021-11-08T13:42:12+01:00</time>
      </trkpt>
      <trkpt lat="43.38317" lon="5.85235">
        <ele>558</ele>
        <time>2021-11-08T13:42:28+01:00</time>
      </trkpt>
      <trkpt lat="43.38321" lon="5.85235">
        <ele>555</ele>
        <time>2021-11-08T13:42:42+01:00</time>
      </trkpt>
      <trkpt lat="43.38326" lon="5.85232">
        <ele>553</ele>
        <time>2021-11-08T13:42:59+01:00</time>
      </trkpt>
      <trkpt lat="43.38328" lon="5.85229">
        <ele>553</ele>
        <time>2021-11-08T13:43:23+01:00</time>
      </trkpt>
      <trkpt lat="43.38325" lon="5.8523">
        <ele>554</ele>
        <time>2021-11-08T13:43:43+01:00</time>
      </trkpt>
      <trkpt lat="43.38328" lon="5.85235">
        <ele>551</ele>
        <time>2021-11-08T13:43:59+01:00</time>
      </trkpt>
      <trkpt lat="43.38324" lon="5.85237">
        <ele>553</ele>
        <time>2021-11-08T13:44:19+01:00</time>
      </trkpt>
      <trkpt lat="43.38323" lon="5.85238">
        <ele>553</ele>
        <time>2021-11-08T13:44:21+01:00</time>
      </trkpt>
      <trkpt lat="43.38321" lon="5.85242">
        <ele>554</ele>
        <time>2021-11-08T13:44:34+01:00</time>
      </trkpt>
      <trkpt lat="43.38318" lon="5.85246">
        <ele>554</ele>
        <time>2021-11-08T13:44:49+01:00</time>
      </trkpt>
      <trkpt lat="43.38319" lon="5.85242">
        <ele>555</ele>
        <time>2021-11-08T13:45:04+01:00</time>
      </trkpt>
      <trkpt lat="43.38319" lon="5.8524">
        <ele>555</ele>
        <time>2021-11-08T13:45:13+01:00</time>
      </trkpt>
      <trkpt lat="43.38319" lon="5.8524">
        <ele>555</ele>
        <time>2021-11-08T13:45:15+01:00</time>
      </trkpt>
      <trkpt lat="43.38317" lon="5.85241">
        <ele>556</ele>
        <time>2021-11-08T13:45:33+01:00</time>
      </trkpt>
      <trkpt lat="43.38313" lon="5.85248">
        <ele>557</ele>
        <time>2021-11-08T13:45:52+01:00</time>
      </trkpt>
      <trkpt lat="43.38304" lon="5.85254">
        <ele>560</ele>
        <time>2021-11-08T13:46:14+01:00</time>
      </trkpt>
      <trkpt lat="43.38294" lon="5.85263">
        <ele>562</ele>
        <time>2021-11-08T13:46:33+01:00</time>
      </trkpt>
      <trkpt lat="43.38285" lon="5.85271">
        <ele>563</ele>
        <time>2021-11-08T13:46:49+01:00</time>
      </trkpt>
      <trkpt lat="43.38272" lon="5.85283">
        <ele>565</ele>
        <time>2021-11-08T13:47:08+01:00</time>
      </trkpt>
      <trkpt lat="43.38268" lon="5.85284">
        <ele>566</ele>
        <time>2021-11-08T13:47:23+01:00</time>
      </trkpt>
      <trkpt lat="43.38259" lon="5.85288">
        <ele>568</ele>
        <time>2021-11-08T13:47:43+01:00</time>
      </trkpt>
      <trkpt lat="43.38248" lon="5.85296">
        <ele>568</ele>
        <time>2021-11-08T13:48:03+01:00</time>
      </trkpt>
      <trkpt lat="43.38241" lon="5.85297">
        <ele>570</ele>
        <time>2021-11-08T13:48:23+01:00</time>
      </trkpt>
      <trkpt lat="43.38244" lon="5.85291">
        <ele>572</ele>
        <time>2021-11-08T13:48:40+01:00</time>
      </trkpt>
      <trkpt lat="43.38251" lon="5.85278">
        <ele>575</ele>
        <time>2021-11-08T13:48:58+01:00</time>
      </trkpt>
      <trkpt lat="43.38257" lon="5.85265">
        <ele>576</ele>
        <time>2021-11-08T13:49:13+01:00</time>
      </trkpt>
      <trkpt lat="43.38265" lon="5.85252">
        <ele>577</ele>
        <time>2021-11-08T13:49:28+01:00</time>
      </trkpt>
      <trkpt lat="43.38266" lon="5.85246">
        <ele>578</ele>
        <time>2021-11-08T13:49:47+01:00</time>
      </trkpt>
      <trkpt lat="43.38258" lon="5.8525">
        <ele>581</ele>
        <time>2021-11-08T13:50:03+01:00</time>
      </trkpt>
      <trkpt lat="43.38256" lon="5.85247">
        <ele>582</ele>
        <time>2021-11-08T13:50:21+01:00</time>
      </trkpt>
      <trkpt lat="43.38262" lon="5.85235">
        <ele>582</ele>
        <time>2021-11-08T13:50:37+01:00</time>
      </trkpt>
      <trkpt lat="43.38258" lon="5.85232">
        <ele>584</ele>
        <time>2021-11-08T13:50:55+01:00</time>
      </trkpt>
      <trkpt lat="43.38257" lon="5.85228">
        <ele>585</ele>
        <time>2021-11-08T13:51:18+01:00</time>
      </trkpt>
      <trkpt lat="43.38258" lon="5.85226">
        <ele>585</ele>
        <time>2021-11-08T13:51:44+01:00</time>
      </trkpt>
      <trkpt lat="43.38259" lon="5.85227">
        <ele>584</ele>
        <time>2021-11-08T13:52:07+01:00</time>
      </trkpt>
      <trkpt lat="43.38259" lon="5.85227">
        <ele>584</ele>
        <time>2021-11-08T13:52:29+01:00</time>
      </trkpt>
      <trkpt lat="43.38259" lon="5.85227">
        <ele>584</ele>
        <time>2021-11-08T13:52:58+01:00</time>
      </trkpt>
      <trkpt lat="43.38259" lon="5.85225">
        <ele>584</ele>
        <time>2021-11-08T13:53:18+01:00</time>
      </trkpt>
      <trkpt lat="43.38258" lon="5.85223">
        <ele>585</ele>
        <time>2021-11-08T13:53:38+01:00</time>
      </trkpt>
      <trkpt lat="43.38256" lon="5.8522">
        <ele>585</ele>
        <time>2021-11-08T13:54:00+01:00</time>
      </trkpt>
      <trkpt lat="43.38252" lon="5.85217">
        <ele>586</ele>
        <time>2021-11-08T13:54:13+01:00</time>
      </trkpt>
      <trkpt lat="43.3824" lon="5.85218">
        <ele>590</ele>
        <time>2021-11-08T13:54:29+01:00</time>
      </trkpt>
      <trkpt lat="43.38231" lon="5.85224">
        <ele>594</ele>
        <time>2021-11-08T13:54:41+01:00</time>
      </trkpt>
      <trkpt lat="43.38224" lon="5.85236">
        <ele>595</ele>
        <time>2021-11-08T13:54:56+01:00</time>
      </trkpt>
      <trkpt lat="43.38221" lon="5.85237">
        <ele>596</ele>
        <time>2021-11-08T13:54:59+01:00</time>
      </trkpt>
      <trkpt lat="43.38207" lon="5.85237">
        <ele>598</ele>
        <time>2021-11-08T13:55:13+01:00</time>
      </trkpt>
      <trkpt lat="43.38204" lon="5.85235">
        <ele>598</ele>
        <time>2021-11-08T13:55:16+01:00</time>
      </trkpt>
      <trkpt lat="43.38195" lon="5.85217">
        <ele>598</ele>
        <time>2021-11-08T13:55:30+01:00</time>
      </trkpt>
      <trkpt lat="43.38192" lon="5.8521">
        <ele>597</ele>
        <time>2021-11-08T13:55:36+01:00</time>
      </trkpt>
      <trkpt lat="43.38183" lon="5.85184">
        <ele>594</ele>
        <time>2021-11-08T13:55:54+01:00</time>
      </trkpt>
      <trkpt lat="43.38171" lon="5.85163">
        <ele>594</ele>
        <time>2021-11-08T13:56:11+01:00</time>
      </trkpt>
      <trkpt lat="43.38167" lon="5.85144">
        <ele>594</ele>
        <time>2021-11-08T13:56:29+01:00</time>
      </trkpt>
      <trkpt lat="43.38167" lon="5.85142">
        <ele>594</ele>
        <time>2021-11-08T13:56:30+01:00</time>
      </trkpt>
      <trkpt lat="43.3816" lon="5.85116">
        <ele>593</ele>
        <time>2021-11-08T13:56:47+01:00</time>
      </trkpt>
      <trkpt lat="43.38147" lon="5.85097">
        <ele>594</ele>
        <time>2021-11-08T13:57:00+01:00</time>
      </trkpt>
      <trkpt lat="43.38135" lon="5.85074">
        <ele>594</ele>
        <time>2021-11-08T13:57:18+01:00</time>
      </trkpt>
      <trkpt lat="43.38126" lon="5.85053">
        <ele>595</ele>
        <time>2021-11-08T13:57:35+01:00</time>
      </trkpt>
      <trkpt lat="43.38122" lon="5.85044">
        <ele>595</ele>
        <time>2021-11-08T13:57:41+01:00</time>
      </trkpt>
      <trkpt lat="43.38109" lon="5.85029">
        <ele>596</ele>
        <time>2021-11-08T13:57:56+01:00</time>
      </trkpt>
      <trkpt lat="43.38091" lon="5.85034">
        <ele>596</ele>
        <time>2021-11-08T13:58:16+01:00</time>
      </trkpt>
      <trkpt lat="43.3808" lon="5.85039">
        <ele>595</ele>
        <time>2021-11-08T13:58:27+01:00</time>
      </trkpt>
      <trkpt lat="43.38073" lon="5.85045">
        <ele>595</ele>
        <time>2021-11-08T13:58:35+01:00</time>
      </trkpt>
      <trkpt lat="43.38055" lon="5.85067">
        <ele>594</ele>
        <time>2021-11-08T13:58:58+01:00</time>
      </trkpt>
      <trkpt lat="43.38038" lon="5.85083">
        <ele>592</ele>
        <time>2021-11-08T13:59:16+01:00</time>
      </trkpt>
      <trkpt lat="43.3803" lon="5.85086">
        <ele>592</ele>
        <time>2021-11-08T13:59:24+01:00</time>
      </trkpt>
      <trkpt lat="43.38008" lon="5.85083">
        <ele>592</ele>
        <time>2021-11-08T13:59:43+01:00</time>
      </trkpt>
      <trkpt lat="43.37996" lon="5.85085">
        <ele>592</ele>
        <time>2021-11-08T13:59:59+01:00</time>
      </trkpt>
      <trkpt lat="43.37983" lon="5.85092">
        <ele>591</ele>
        <time>2021-11-08T14:00:22+01:00</time>
      </trkpt>
      <trkpt lat="43.37963" lon="5.85098">
        <ele>589</ele>
        <time>2021-11-08T14:00:40+01:00</time>
      </trkpt>
      <trkpt lat="43.37942" lon="5.85113">
        <ele>588</ele>
        <time>2021-11-08T14:01:00+01:00</time>
      </trkpt>
      <trkpt lat="43.37921" lon="5.85118">
        <ele>586</ele>
        <time>2021-11-08T14:01:17+01:00</time>
      </trkpt>
      <trkpt lat="43.37893" lon="5.85118">
        <ele>583</ele>
        <time>2021-11-08T14:01:39+01:00</time>
      </trkpt>
      <trkpt lat="43.37879" lon="5.85119">
        <ele>582</ele>
        <time>2021-11-08T14:01:50+01:00</time>
      </trkpt>
      <trkpt lat="43.37877" lon="5.85122">
        <ele>581</ele>
        <time>2021-11-08T14:01:53+01:00</time>
      </trkpt>
      <trkpt lat="43.37856" lon="5.85136">
        <ele>578</ele>
        <time>2021-11-08T14:02:13+01:00</time>
      </trkpt>
      <trkpt lat="43.37852" lon="5.85139">
        <ele>577</ele>
        <time>2021-11-08T14:02:16+01:00</time>
      </trkpt>
      <trkpt lat="43.3783" lon="5.85143">
        <ele>573</ele>
        <time>2021-11-08T14:02:34+01:00</time>
      </trkpt>
      <trkpt lat="43.37819" lon="5.85147">
        <ele>572</ele>
        <time>2021-11-08T14:02:46+01:00</time>
      </trkpt>
      <trkpt lat="43.37801" lon="5.85157">
        <ele>568</ele>
        <time>2021-11-08T14:03:02+01:00</time>
      </trkpt>
      <trkpt lat="43.37786" lon="5.85163">
        <ele>566</ele>
        <time>2021-11-08T14:03:14+01:00</time>
      </trkpt>
      <trkpt lat="43.37756" lon="5.85166">
        <ele>563</ele>
        <time>2021-11-08T14:03:35+01:00</time>
      </trkpt>
      <trkpt lat="43.37736" lon="5.85171">
        <ele>561</ele>
        <time>2021-11-08T14:03:52+01:00</time>
      </trkpt>
      <trkpt lat="43.37725" lon="5.85183">
        <ele>558</ele>
        <time>2021-11-08T14:04:08+01:00</time>
      </trkpt>
      <trkpt lat="43.37717" lon="5.85188">
        <ele>557</ele>
        <time>2021-11-08T14:04:20+01:00</time>
      </trkpt>
      <trkpt lat="43.37712" lon="5.85198">
        <ele>556</ele>
        <time>2021-11-08T14:04:30+01:00</time>
      </trkpt>
      <trkpt lat="43.37711" lon="5.85202">
        <ele>555</ele>
        <time>2021-11-08T14:04:31+01:00</time>
      </trkpt>
      <trkpt lat="43.37711" lon="5.85205">
        <ele>555</ele>
        <time>2021-11-08T14:04:32+01:00</time>
      </trkpt>
      <trkpt lat="43.3771" lon="5.85208">
        <ele>555</ele>
        <time>2021-11-08T14:04:33+01:00</time>
      </trkpt>
      <trkpt lat="43.37709" lon="5.85211">
        <ele>554</ele>
        <time>2021-11-08T14:04:34+01:00</time>
      </trkpt>
      <trkpt lat="43.37708" lon="5.85213">
        <ele>554</ele>
        <time>2021-11-08T14:04:35+01:00</time>
      </trkpt>
      <trkpt lat="43.37705" lon="5.85238">
        <ele>552</ele>
        <time>2021-11-08T14:04:45+01:00</time>
      </trkpt>
      <trkpt lat="43.37703" lon="5.85243">
        <ele>551</ele>
        <time>2021-11-08T14:04:49+01:00</time>
      </trkpt>
      <trkpt lat="43.37696" lon="5.85244">
        <ele>551</ele>
        <time>2021-11-08T14:05:05+01:00</time>
      </trkpt>
      <trkpt lat="43.37697" lon="5.85248">
        <ele>550</ele>
        <time>2021-11-08T14:05:22+01:00</time>
      </trkpt>
      <trkpt lat="43.37697" lon="5.85247">
        <ele>550</ele>
        <time>2021-11-08T14:05:42+01:00</time>
      </trkpt>
      <trkpt lat="43.37697" lon="5.8525">
        <ele>550</ele>
        <time>2021-11-08T14:06:04+01:00</time>
      </trkpt>
      <trkpt lat="43.37701" lon="5.85262">
        <ele>549</ele>
        <time>2021-11-08T14:06:16+01:00</time>
      </trkpt>
      <trkpt lat="43.37704" lon="5.85269">
        <ele>548</ele>
        <time>2021-11-08T14:06:29+01:00</time>
      </trkpt>
      <trkpt lat="43.37715" lon="5.85286">
        <ele>546</ele>
        <time>2021-11-08T14:06:41+01:00</time>
      </trkpt>
      <trkpt lat="43.3773" lon="5.85295">
        <ele>544</ele>
        <time>2021-11-08T14:06:57+01:00</time>
      </trkpt>
      <trkpt lat="43.37748" lon="5.8529">
        <ele>544</ele>
        <time>2021-11-08T14:07:13+01:00</time>
      </trkpt>
      <trkpt lat="43.37756" lon="5.85289">
        <ele>545</ele>
        <time>2021-11-08T14:07:18+01:00</time>
      </trkpt>
      <trkpt lat="43.37757" lon="5.8529">
        <ele>545</ele>
        <time>2021-11-08T14:07:19+01:00</time>
      </trkpt>
      <trkpt lat="43.37758" lon="5.85291">
        <ele>545</ele>
        <time>2021-11-08T14:07:20+01:00</time>
      </trkpt>
      <trkpt lat="43.37757" lon="5.853">
        <ele>544</ele>
        <time>2021-11-08T14:07:27+01:00</time>
      </trkpt>
      <trkpt lat="43.37757" lon="5.85303">
        <ele>544</ele>
        <time>2021-11-08T14:07:28+01:00</time>
      </trkpt>
      <trkpt lat="43.37757" lon="5.85305">
        <ele>543</ele>
        <time>2021-11-08T14:07:29+01:00</time>
      </trkpt>
      <trkpt lat="43.37758" lon="5.8532">
        <ele>542</ele>
        <time>2021-11-08T14:07:42+01:00</time>
      </trkpt>
      <trkpt lat="43.37757" lon="5.85326">
        <ele>541</ele>
        <time>2021-11-08T14:07:46+01:00</time>
      </trkpt>
      <trkpt lat="43.37757" lon="5.85329">
        <ele>541</ele>
        <time>2021-11-08T14:07:47+01:00</time>
      </trkpt>
      <trkpt lat="43.37756" lon="5.85331">
        <ele>540</ele>
        <time>2021-11-08T14:07:48+01:00</time>
      </trkpt>
      <trkpt lat="43.37756" lon="5.85334">
        <ele>540</ele>
        <time>2021-11-08T14:07:49+01:00</time>
      </trkpt>
      <trkpt lat="43.37756" lon="5.85336">
        <ele>539</ele>
        <time>2021-11-08T14:07:50+01:00</time>
      </trkpt>
      <trkpt lat="43.37753" lon="5.85344">
        <ele>538</ele>
        <time>2021-11-08T14:07:59+01:00</time>
      </trkpt>
      <trkpt lat="43.3775" lon="5.85361">
        <ele>535</ele>
        <time>2021-11-08T14:08:11+01:00</time>
      </trkpt>
      <trkpt lat="43.37741" lon="5.85369">
        <ele>534</ele>
        <time>2021-11-08T14:08:24+01:00</time>
      </trkpt>
      <trkpt lat="43.37741" lon="5.85376">
        <ele>534</ele>
        <time>2021-11-08T14:08:30+01:00</time>
      </trkpt>
      <trkpt lat="43.37741" lon="5.85379">
        <ele>533</ele>
        <time>2021-11-08T14:08:31+01:00</time>
      </trkpt>
      <trkpt lat="43.37742" lon="5.85382">
        <ele>533</ele>
        <time>2021-11-08T14:08:32+01:00</time>
      </trkpt>
      <trkpt lat="43.37743" lon="5.85384">
        <ele>533</ele>
        <time>2021-11-08T14:08:33+01:00</time>
      </trkpt>
      <trkpt lat="43.37744" lon="5.85387">
        <ele>532</ele>
        <time>2021-11-08T14:08:34+01:00</time>
      </trkpt>
      <trkpt lat="43.37746" lon="5.85389">
        <ele>532</ele>
        <time>2021-11-08T14:08:35+01:00</time>
      </trkpt>
      <trkpt lat="43.37747" lon="5.85392">
        <ele>532</ele>
        <time>2021-11-08T14:08:36+01:00</time>
      </trkpt>
      <trkpt lat="43.37748" lon="5.85394">
        <ele>531</ele>
        <time>2021-11-08T14:08:37+01:00</time>
      </trkpt>
      <trkpt lat="43.37747" lon="5.85397">
        <ele>531</ele>
        <time>2021-11-08T14:08:38+01:00</time>
      </trkpt>
      <trkpt lat="43.37747" lon="5.854">
        <ele>531</ele>
        <time>2021-11-08T14:08:39+01:00</time>
      </trkpt>
      <trkpt lat="43.37747" lon="5.85403">
        <ele>531</ele>
        <time>2021-11-08T14:08:40+01:00</time>
      </trkpt>
      <trkpt lat="43.37752" lon="5.85421">
        <ele>529</ele>
        <time>2021-11-08T14:08:51+01:00</time>
      </trkpt>
      <trkpt lat="43.37753" lon="5.85423">
        <ele>529</ele>
        <time>2021-11-08T14:08:52+01:00</time>
      </trkpt>
      <trkpt lat="43.37754" lon="5.85426">
        <ele>529</ele>
        <time>2021-11-08T14:08:53+01:00</time>
      </trkpt>
      <trkpt lat="43.37755" lon="5.85429">
        <ele>529</ele>
        <time>2021-11-08T14:08:54+01:00</time>
      </trkpt>
      <trkpt lat="43.37756" lon="5.85432">
        <ele>528</ele>
        <time>2021-11-08T14:08:55+01:00</time>
      </trkpt>
      <trkpt lat="43.37756" lon="5.85434">
        <ele>528</ele>
        <time>2021-11-08T14:08:56+01:00</time>
      </trkpt>
      <trkpt lat="43.37757" lon="5.85436">
        <ele>528</ele>
        <time>2021-11-08T14:08:57+01:00</time>
      </trkpt>
      <trkpt lat="43.37757" lon="5.85438">
        <ele>528</ele>
        <time>2021-11-08T14:08:58+01:00</time>
      </trkpt>
      <trkpt lat="43.37758" lon="5.85441">
        <ele>528</ele>
        <time>2021-11-08T14:09:00+01:00</time>
      </trkpt>
      <trkpt lat="43.37757" lon="5.85448">
        <ele>527</ele>
        <time>2021-11-08T14:09:11+01:00</time>
      </trkpt>
      <trkpt lat="43.37756" lon="5.85453">
        <ele>526</ele>
        <time>2021-11-08T14:09:14+01:00</time>
      </trkpt>
      <trkpt lat="43.37754" lon="5.8548">
        <ele>524</ele>
        <time>2021-11-08T14:09:25+01:00</time>
      </trkpt>
      <trkpt lat="43.37753" lon="5.85496">
        <ele>523</ele>
        <time>2021-11-08T14:09:38+01:00</time>
      </trkpt>
      <trkpt lat="43.3775" lon="5.85503">
        <ele>522</ele>
        <time>2021-11-08T14:09:50+01:00</time>
      </trkpt>
      <trkpt lat="43.37747" lon="5.85513">
        <ele>521</ele>
        <time>2021-11-08T14:09:55+01:00</time>
      </trkpt>
      <trkpt lat="43.37745" lon="5.85517">
        <ele>521</ele>
        <time>2021-11-08T14:09:57+01:00</time>
      </trkpt>
      <trkpt lat="43.37738" lon="5.85536">
        <ele>519</ele>
        <time>2021-11-08T14:10:10+01:00</time>
      </trkpt>
      <trkpt lat="43.37736" lon="5.85544">
        <ele>518</ele>
        <time>2021-11-08T14:10:17+01:00</time>
      </trkpt>
      <trkpt lat="43.37735" lon="5.85546">
        <ele>518</ele>
        <time>2021-11-08T14:10:18+01:00</time>
      </trkpt>
      <trkpt lat="43.37734" lon="5.85548">
        <ele>518</ele>
        <time>2021-11-08T14:10:19+01:00</time>
      </trkpt>
      <trkpt lat="43.37733" lon="5.85551">
        <ele>518</ele>
        <time>2021-11-08T14:10:20+01:00</time>
      </trkpt>
      <trkpt lat="43.37732" lon="5.85552">
        <ele>518</ele>
        <time>2021-11-08T14:10:21+01:00</time>
      </trkpt>
      <trkpt lat="43.3773" lon="5.85554">
        <ele>517</ele>
        <time>2021-11-08T14:10:22+01:00</time>
      </trkpt>
      <trkpt lat="43.37729" lon="5.85557">
        <ele>517</ele>
        <time>2021-11-08T14:10:23+01:00</time>
      </trkpt>
      <trkpt lat="43.37729" lon="5.85588">
        <ele>514</ele>
        <time>2021-11-08T14:10:34+01:00</time>
      </trkpt>
      <trkpt lat="43.37733" lon="5.85608">
        <ele>512</ele>
        <time>2021-11-08T14:10:44+01:00</time>
      </trkpt>
      <trkpt lat="43.37736" lon="5.85623">
        <ele>511</ele>
        <time>2021-11-08T14:10:56+01:00</time>
      </trkpt>
      <trkpt lat="43.37728" lon="5.85633">
        <ele>510</ele>
        <time>2021-11-08T14:11:08+01:00</time>
      </trkpt>
      <trkpt lat="43.37726" lon="5.85631">
        <ele>510</ele>
        <time>2021-11-08T14:11:25+01:00</time>
      </trkpt>
      <trkpt lat="43.37727" lon="5.85629">
        <ele>510</ele>
        <time>2021-11-08T14:11:41+01:00</time>
      </trkpt>
      <trkpt lat="43.37724" lon="5.85633">
        <ele>510</ele>
        <time>2021-11-08T14:11:53+01:00</time>
      </trkpt>
      <trkpt lat="43.37724" lon="5.85635">
        <ele>510</ele>
        <time>2021-11-08T14:11:54+01:00</time>
      </trkpt>
      <trkpt lat="43.37728" lon="5.85655">
        <ele>510</ele>
        <time>2021-11-08T14:12:09+01:00</time>
      </trkpt>
      <trkpt lat="43.37729" lon="5.85657">
        <ele>510</ele>
        <time>2021-11-08T14:12:10+01:00</time>
      </trkpt>
      <trkpt lat="43.37729" lon="5.85658">
        <ele>510</ele>
        <time>2021-11-08T14:12:11+01:00</time>
      </trkpt>
      <trkpt lat="43.3773" lon="5.8566">
        <ele>510</ele>
        <time>2021-11-08T14:12:12+01:00</time>
      </trkpt>
      <trkpt lat="43.3773" lon="5.85661">
        <ele>510</ele>
        <time>2021-11-08T14:12:13+01:00</time>
      </trkpt>
      <trkpt lat="43.3773" lon="5.85662">
        <ele>510</ele>
        <time>2021-11-08T14:12:14+01:00</time>
      </trkpt>
      <trkpt lat="43.37731" lon="5.85667">
        <ele>510</ele>
        <time>2021-11-08T14:12:18+01:00</time>
      </trkpt>
      <trkpt lat="43.37732" lon="5.85669">
        <ele>510</ele>
        <time>2021-11-08T14:12:19+01:00</time>
      </trkpt>
      <trkpt lat="43.37735" lon="5.85688">
        <ele>511</ele>
        <time>2021-11-08T14:12:30+01:00</time>
      </trkpt>
      <trkpt lat="43.37735" lon="5.857">
        <ele>511</ele>
        <time>2021-11-08T14:12:44+01:00</time>
      </trkpt>
      <trkpt lat="43.37728" lon="5.85722">
        <ele>513</ele>
        <time>2021-11-08T14:13:02+01:00</time>
      </trkpt>
      <trkpt lat="43.37716" lon="5.85738">
        <ele>515</ele>
        <time>2021-11-08T14:13:18+01:00</time>
      </trkpt>
      <trkpt lat="43.3771" lon="5.85755">
        <ele>516</ele>
        <time>2021-11-08T14:13:35+01:00</time>
      </trkpt>
      <trkpt lat="43.37707" lon="5.85787">
        <ele>518</ele>
        <time>2021-11-08T14:13:55+01:00</time>
      </trkpt>
      <trkpt lat="43.37705" lon="5.85814">
        <ele>519</ele>
        <time>2021-11-08T14:14:16+01:00</time>
      </trkpt>
      <trkpt lat="43.37704" lon="5.8585">
        <ele>521</ele>
        <time>2021-11-08T14:14:36+01:00</time>
      </trkpt>
      <trkpt lat="43.37707" lon="5.85869">
        <ele>522</ele>
        <time>2021-11-08T14:14:54+01:00</time>
      </trkpt>
      <trkpt lat="43.37706" lon="5.85876">
        <ele>523</ele>
        <time>2021-11-08T14:15:16+01:00</time>
      </trkpt>
      <trkpt lat="43.37706" lon="5.85877">
        <ele>523</ele>
        <time>2021-11-08T14:15:47+01:00</time>
      </trkpt>
      <trkpt lat="43.37706" lon="5.85885">
        <ele>523</ele>
        <time>2021-11-08T14:16:11+01:00</time>
      </trkpt>
      <trkpt lat="43.3771" lon="5.85909">
        <ele>525</ele>
        <time>2021-11-08T14:16:31+01:00</time>
      </trkpt>
      <trkpt lat="43.37711" lon="5.85935">
        <ele>527</ele>
        <time>2021-11-08T14:16:49+01:00</time>
      </trkpt>
      <trkpt lat="43.37713" lon="5.8596">
        <ele>528</ele>
        <time>2021-11-08T14:17:08+01:00</time>
      </trkpt>
      <trkpt lat="43.37716" lon="5.8598">
        <ele>530</ele>
        <time>2021-11-08T14:17:24+01:00</time>
      </trkpt>
      <trkpt lat="43.3772" lon="5.86">
        <ele>530</ele>
        <time>2021-11-08T14:17:40+01:00</time>
      </trkpt>
      <trkpt lat="43.37724" lon="5.86023">
        <ele>530</ele>
        <time>2021-11-08T14:17:55+01:00</time>
      </trkpt>
      <trkpt lat="43.37729" lon="5.8605">
        <ele>530</ele>
        <time>2021-11-08T14:18:13+01:00</time>
      </trkpt>
      <trkpt lat="43.37733" lon="5.8607">
        <ele>530</ele>
        <time>2021-11-08T14:18:26+01:00</time>
      </trkpt>
      <trkpt lat="43.37733" lon="5.86072">
        <ele>530</ele>
        <time>2021-11-08T14:18:27+01:00</time>
      </trkpt>
      <trkpt lat="43.37732" lon="5.86098">
        <ele>531</ele>
        <time>2021-11-08T14:18:45+01:00</time>
      </trkpt>
      <trkpt lat="43.37731" lon="5.86125">
        <ele>532</ele>
        <time>2021-11-08T14:19:00+01:00</time>
      </trkpt>
      <trkpt lat="43.37731" lon="5.8615">
        <ele>532</ele>
        <time>2021-11-08T14:19:18+01:00</time>
      </trkpt>
      <trkpt lat="43.37729" lon="5.86176">
        <ele>534</ele>
        <time>2021-11-08T14:19:36+01:00</time>
      </trkpt>
      <trkpt lat="43.37725" lon="5.8621">
        <ele>536</ele>
        <time>2021-11-08T14:19:53+01:00</time>
      </trkpt>
      <trkpt lat="43.37726" lon="5.8622">
        <ele>537</ele>
        <time>2021-11-08T14:19:58+01:00</time>
      </trkpt>
      <trkpt lat="43.37722" lon="5.86238">
        <ele>538</ele>
        <time>2021-11-08T14:20:11+01:00</time>
      </trkpt>
      <trkpt lat="43.37712" lon="5.86257">
        <ele>539</ele>
        <time>2021-11-08T14:20:25+01:00</time>
      </trkpt>
      <trkpt lat="43.37702" lon="5.86313">
        <ele>542</ele>
        <time>2021-11-08T14:20:36+01:00</time>
      </trkpt>
      <trkpt lat="43.37648" lon="5.86324">
        <ele>540</ele>
        <time>2021-11-08T14:38:55+01:00</time>
      </trkpt>
      <trkpt lat="43.37646" lon="5.86324">
        <ele>540</ele>
        <time>2021-11-08T14:39:19+01:00</time>
      </trkpt>
      <trkpt lat="43.37648" lon="5.86323">
        <ele>540</ele>
        <time>2021-11-08T14:39:45+01:00</time>
      </trkpt>
      <trkpt lat="43.37649" lon="5.86323">
        <ele>540</ele>
        <time>2021-11-08T14:40:09+01:00</time>
      </trkpt>
      <trkpt lat="43.37649" lon="5.86324">
        <ele>540</ele>
        <time>2021-11-08T14:40:35+01:00</time>
      </trkpt>
      <trkpt lat="43.3765" lon="5.86325">
        <ele>540</ele>
        <time>2021-11-08T14:40:56+01:00</time>
      </trkpt>
      <trkpt lat="43.37648" lon="5.86326">
        <ele>540</ele>
        <time>2021-11-08T14:41:24+01:00</time>
      </trkpt>
      <trkpt lat="43.3765" lon="5.86325">
        <ele>540</ele>
        <time>2021-11-08T14:41:41+01:00</time>
      </trkpt>
      <trkpt lat="43.37653" lon="5.86331">
        <ele>540</ele>
        <time>2021-11-08T14:42:02+01:00</time>
      </trkpt>
      <trkpt lat="43.37667" lon="5.86321">
        <ele>540</ele>
        <time>2021-11-08T14:42:18+01:00</time>
      </trkpt>
      <trkpt lat="43.37678" lon="5.86311">
        <ele>541</ele>
        <time>2021-11-08T14:42:29+01:00</time>
      </trkpt>
      <trkpt lat="43.3769" lon="5.86293">
        <ele>540</ele>
        <time>2021-11-08T14:42:44+01:00</time>
      </trkpt>
      <trkpt lat="43.37699" lon="5.86303">
        <ele>541</ele>
        <time>2021-11-08T14:42:57+01:00</time>
      </trkpt>
      <trkpt lat="43.37701" lon="5.86306">
        <ele>541</ele>
        <time>2021-11-08T14:43:00+01:00</time>
      </trkpt>
      <trkpt lat="43.37715" lon="5.86326">
        <ele>542</ele>
        <time>2021-11-08T14:43:18+01:00</time>
      </trkpt>
      <trkpt lat="43.37724" lon="5.86344">
        <ele>544</ele>
        <time>2021-11-08T14:43:31+01:00</time>
      </trkpt>
      <trkpt lat="43.37732" lon="5.86363">
        <ele>546</ele>
        <time>2021-11-08T14:43:47+01:00</time>
      </trkpt>
      <trkpt lat="43.37742" lon="5.86392">
        <ele>548</ele>
        <time>2021-11-08T14:44:06+01:00</time>
      </trkpt>
      <trkpt lat="43.37755" lon="5.86422">
        <ele>549</ele>
        <time>2021-11-08T14:44:28+01:00</time>
      </trkpt>
      <trkpt lat="43.3777" lon="5.86443">
        <ele>549</ele>
        <time>2021-11-08T14:44:47+01:00</time>
      </trkpt>
      <trkpt lat="43.37782" lon="5.8646">
        <ele>550</ele>
        <time>2021-11-08T14:45:03+01:00</time>
      </trkpt>
      <trkpt lat="43.37801" lon="5.86478">
        <ele>550</ele>
        <time>2021-11-08T14:45:21+01:00</time>
      </trkpt>
      <trkpt lat="43.37804" lon="5.8648">
        <ele>550</ele>
        <time>2021-11-08T14:45:25+01:00</time>
      </trkpt>
      <trkpt lat="43.37806" lon="5.86482">
        <ele>550</ele>
        <time>2021-11-08T14:45:27+01:00</time>
      </trkpt>
      <trkpt lat="43.37807" lon="5.86483">
        <ele>550</ele>
        <time>2021-11-08T14:45:28+01:00</time>
      </trkpt>
      <trkpt lat="43.37808" lon="5.86484">
        <ele>550</ele>
        <time>2021-11-08T14:45:29+01:00</time>
      </trkpt>
      <trkpt lat="43.37809" lon="5.86486">
        <ele>550</ele>
        <time>2021-11-08T14:45:30+01:00</time>
      </trkpt>
      <trkpt lat="43.3781" lon="5.86487">
        <ele>550</ele>
        <time>2021-11-08T14:45:31+01:00</time>
      </trkpt>
      <trkpt lat="43.37825" lon="5.86511">
        <ele>549</ele>
        <time>2021-11-08T14:45:50+01:00</time>
      </trkpt>
      <trkpt lat="43.37834" lon="5.8653">
        <ele>549</ele>
        <time>2021-11-08T14:46:03+01:00</time>
      </trkpt>
      <trkpt lat="43.37842" lon="5.86549">
        <ele>550</ele>
        <time>2021-11-08T14:46:17+01:00</time>
      </trkpt>
      <trkpt lat="43.37842" lon="5.86551">
        <ele>550</ele>
        <time>2021-11-08T14:46:18+01:00</time>
      </trkpt>
      <trkpt lat="43.37842" lon="5.86552">
        <ele>550</ele>
        <time>2021-11-08T14:46:19+01:00</time>
      </trkpt>
      <trkpt lat="43.37842" lon="5.86554">
        <ele>550</ele>
        <time>2021-11-08T14:46:20+01:00</time>
      </trkpt>
      <trkpt lat="43.37843" lon="5.86556">
        <ele>550</ele>
        <time>2021-11-08T14:46:21+01:00</time>
      </trkpt>
      <trkpt lat="43.37843" lon="5.86557">
        <ele>550</ele>
        <time>2021-11-08T14:46:22+01:00</time>
      </trkpt>
      <trkpt lat="43.37843" lon="5.86559">
        <ele>550</ele>
        <time>2021-11-08T14:46:23+01:00</time>
      </trkpt>
      <trkpt lat="43.37843" lon="5.86561">
        <ele>549</ele>
        <time>2021-11-08T14:46:24+01:00</time>
      </trkpt>
      <trkpt lat="43.37843" lon="5.86562">
        <ele>549</ele>
        <time>2021-11-08T14:46:25+01:00</time>
      </trkpt>
      <trkpt lat="43.37843" lon="5.86564">
        <ele>549</ele>
        <time>2021-11-08T14:46:26+01:00</time>
      </trkpt>
      <trkpt lat="43.37843" lon="5.86565">
        <ele>549</ele>
        <time>2021-11-08T14:46:27+01:00</time>
      </trkpt>
      <trkpt lat="43.37843" lon="5.86567">
        <ele>549</ele>
        <time>2021-11-08T14:46:28+01:00</time>
      </trkpt>
      <trkpt lat="43.37843" lon="5.86569">
        <ele>549</ele>
        <time>2021-11-08T14:46:29+01:00</time>
      </trkpt>
      <trkpt lat="43.37846" lon="5.86596">
        <ele>549</ele>
        <time>2021-11-08T14:46:45+01:00</time>
      </trkpt>
      <trkpt lat="43.37855" lon="5.86607">
        <ele>549</ele>
        <time>2021-11-08T14:46:59+01:00</time>
      </trkpt>
      <trkpt lat="43.37871" lon="5.86601">
        <ele>551</ele>
        <time>2021-11-08T14:47:15+01:00</time>
      </trkpt>
      <trkpt lat="43.37872" lon="5.86601">
        <ele>551</ele>
        <time>2021-11-08T14:47:16+01:00</time>
      </trkpt>
      <trkpt lat="43.37873" lon="5.86601">
        <ele>551</ele>
        <time>2021-11-08T14:47:17+01:00</time>
      </trkpt>
      <trkpt lat="43.37874" lon="5.86601">
        <ele>551</ele>
        <time>2021-11-08T14:47:18+01:00</time>
      </trkpt>
      <trkpt lat="43.37876" lon="5.86601">
        <ele>552</ele>
        <time>2021-11-08T14:47:19+01:00</time>
      </trkpt>
      <trkpt lat="43.37877" lon="5.86601">
        <ele>552</ele>
        <time>2021-11-08T14:47:20+01:00</time>
      </trkpt>
      <trkpt lat="43.37889" lon="5.866">
        <ele>553</ele>
        <time>2021-11-08T14:47:35+01:00</time>
      </trkpt>
      <trkpt lat="43.37903" lon="5.86606">
        <ele>554</ele>
        <time>2021-11-08T14:47:48+01:00</time>
      </trkpt>
      <trkpt lat="43.37917" lon="5.86619">
        <ele>554</ele>
        <time>2021-11-08T14:48:04+01:00</time>
      </trkpt>
      <trkpt lat="43.37922" lon="5.86622">
        <ele>553</ele>
        <time>2021-11-08T14:48:20+01:00</time>
      </trkpt>
      <trkpt lat="43.37931" lon="5.86626">
        <ele>553</ele>
        <time>2021-11-08T14:48:33+01:00</time>
      </trkpt>
      <trkpt lat="43.37942" lon="5.86641">
        <ele>552</ele>
        <time>2021-11-08T14:48:50+01:00</time>
      </trkpt>
      <trkpt lat="43.37945" lon="5.86642">
        <ele>552</ele>
        <time>2021-11-08T14:49:03+01:00</time>
      </trkpt>
      <trkpt lat="43.37955" lon="5.8665">
        <ele>552</ele>
        <time>2021-11-08T14:49:17+01:00</time>
      </trkpt>
      <trkpt lat="43.37956" lon="5.86652">
        <ele>552</ele>
        <time>2021-11-08T14:49:34+01:00</time>
      </trkpt>
      <trkpt lat="43.37955" lon="5.86652">
        <ele>552</ele>
        <time>2021-11-08T14:49:55+01:00</time>
      </trkpt>
      <trkpt lat="43.37955" lon="5.86666">
        <ele>553</ele>
        <time>2021-11-08T14:50:13+01:00</time>
      </trkpt>
      <trkpt lat="43.37959" lon="5.86686">
        <ele>554</ele>
        <time>2021-11-08T14:50:28+01:00</time>
      </trkpt>
      <trkpt lat="43.3796" lon="5.86691">
        <ele>555</ele>
        <time>2021-11-08T14:50:32+01:00</time>
      </trkpt>
      <trkpt lat="43.37969" lon="5.86711">
        <ele>556</ele>
        <time>2021-11-08T14:50:48+01:00</time>
      </trkpt>
      <trkpt lat="43.37975" lon="5.8673">
        <ele>557</ele>
        <time>2021-11-08T14:51:02+01:00</time>
      </trkpt>
      <trkpt lat="43.37978" lon="5.86747">
        <ele>559</ele>
        <time>2021-11-08T14:51:16+01:00</time>
      </trkpt>
      <trkpt lat="43.37985" lon="5.86766">
        <ele>560</ele>
        <time>2021-11-08T14:51:33+01:00</time>
      </trkpt>
      <trkpt lat="43.3799" lon="5.86784">
        <ele>561</ele>
        <time>2021-11-08T14:51:49+01:00</time>
      </trkpt>
      <trkpt lat="43.3799" lon="5.86792">
        <ele>561</ele>
        <time>2021-11-08T14:51:55+01:00</time>
      </trkpt>
      <trkpt lat="43.37992" lon="5.86796">
        <ele>561</ele>
        <time>2021-11-08T14:51:58+01:00</time>
      </trkpt>
      <trkpt lat="43.37995" lon="5.868">
        <ele>562</ele>
        <time>2021-11-08T14:52:02+01:00</time>
      </trkpt>
      <trkpt lat="43.37995" lon="5.86801">
        <ele>562</ele>
        <time>2021-11-08T14:52:03+01:00</time>
      </trkpt>
      <trkpt lat="43.37995" lon="5.86816">
        <ele>562</ele>
        <time>2021-11-08T14:52:16+01:00</time>
      </trkpt>
      <trkpt lat="43.38004" lon="5.86831">
        <ele>564</ele>
        <time>2021-11-08T14:52:29+01:00</time>
      </trkpt>
      <trkpt lat="43.38014" lon="5.86844">
        <ele>564</ele>
        <time>2021-11-08T14:52:44+01:00</time>
      </trkpt>
      <trkpt lat="43.38015" lon="5.86846">
        <ele>564</ele>
        <time>2021-11-08T14:52:57+01:00</time>
      </trkpt>
      <trkpt lat="43.38015" lon="5.86847">
        <ele>564</ele>
        <time>2021-11-08T14:53:15+01:00</time>
      </trkpt>
      <trkpt lat="43.38015" lon="5.86845">
        <ele>564</ele>
        <time>2021-11-08T14:53:37+01:00</time>
      </trkpt>
      <trkpt lat="43.38016" lon="5.86847">
        <ele>564</ele>
        <time>2021-11-08T14:54:02+01:00</time>
      </trkpt>
      <trkpt lat="43.38023" lon="5.86851">
        <ele>565</ele>
        <time>2021-11-08T14:54:12+01:00</time>
      </trkpt>
      <trkpt lat="43.38024" lon="5.86853">
        <ele>565</ele>
        <time>2021-11-08T14:54:22+01:00</time>
      </trkpt>
      <trkpt lat="43.38027" lon="5.86855">
        <ele>565</ele>
        <time>2021-11-08T14:54:34+01:00</time>
      </trkpt>
      <trkpt lat="43.38028" lon="5.86854">
        <ele>565</ele>
        <time>2021-11-08T14:54:55+01:00</time>
      </trkpt>
      <trkpt lat="43.3803" lon="5.86853">
        <ele>565</ele>
        <time>2021-11-08T14:54:58+01:00</time>
      </trkpt>
      <trkpt lat="43.38031" lon="5.86852">
        <ele>565</ele>
        <time>2021-11-08T14:54:59+01:00</time>
      </trkpt>
      <trkpt lat="43.38032" lon="5.86851">
        <ele>565</ele>
        <time>2021-11-08T14:55:00+01:00</time>
      </trkpt>
      <trkpt lat="43.38033" lon="5.8685">
        <ele>565</ele>
        <time>2021-11-08T14:55:01+01:00</time>
      </trkpt>
      <trkpt lat="43.38034" lon="5.8685">
        <ele>565</ele>
        <time>2021-11-08T14:55:02+01:00</time>
      </trkpt>
      <trkpt lat="43.38049" lon="5.86852">
        <ele>566</ele>
        <time>2021-11-08T14:55:16+01:00</time>
      </trkpt>
      <trkpt lat="43.38067" lon="5.86851">
        <ele>567</ele>
        <time>2021-11-08T14:55:33+01:00</time>
      </trkpt>
      <trkpt lat="43.38076" lon="5.86851">
        <ele>567</ele>
        <time>2021-11-08T14:55:46+01:00</time>
      </trkpt>
      <trkpt lat="43.38078" lon="5.86852">
        <ele>568</ele>
        <time>2021-11-08T14:56:14+01:00</time>
      </trkpt>
      <trkpt lat="43.38078" lon="5.86852">
        <ele>568</ele>
        <time>2021-11-08T14:56:16+01:00</time>
      </trkpt>
      <trkpt lat="43.38087" lon="5.8685">
        <ele>568</ele>
        <time>2021-11-08T14:56:31+01:00</time>
      </trkpt>
      <trkpt lat="43.38092" lon="5.8685">
        <ele>569</ele>
        <time>2021-11-08T14:56:37+01:00</time>
      </trkpt>
      <trkpt lat="43.3811" lon="5.8685">
        <ele>570</ele>
        <time>2021-11-08T14:56:53+01:00</time>
      </trkpt>
      <trkpt lat="43.38124" lon="5.86852">
        <ele>573</ele>
        <time>2021-11-08T14:57:08+01:00</time>
      </trkpt>
      <trkpt lat="43.38137" lon="5.86852">
        <ele>575</ele>
        <time>2021-11-08T14:57:22+01:00</time>
      </trkpt>
      <trkpt lat="43.38149" lon="5.86851">
        <ele>576</ele>
        <time>2021-11-08T14:57:34+01:00</time>
      </trkpt>
      <trkpt lat="43.38156" lon="5.86849">
        <ele>577</ele>
        <time>2021-11-08T14:57:43+01:00</time>
      </trkpt>
      <trkpt lat="43.38166" lon="5.86853">
        <ele>579</ele>
        <time>2021-11-08T14:57:54+01:00</time>
      </trkpt>
      <trkpt lat="43.38177" lon="5.86854">
        <ele>579</ele>
        <time>2021-11-08T14:58:06+01:00</time>
      </trkpt>
      <trkpt lat="43.38186" lon="5.86859">
        <ele>580</ele>
        <time>2021-11-08T14:58:18+01:00</time>
      </trkpt>
      <trkpt lat="43.38201" lon="5.86858">
        <ele>581</ele>
        <time>2021-11-08T14:58:31+01:00</time>
      </trkpt>
      <trkpt lat="43.38211" lon="5.86862">
        <ele>583</ele>
        <time>2021-11-08T14:58:44+01:00</time>
      </trkpt>
      <trkpt lat="43.38226" lon="5.8687">
        <ele>586</ele>
        <time>2021-11-08T14:59:00+01:00</time>
      </trkpt>
      <trkpt lat="43.38227" lon="5.86871">
        <ele>586</ele>
        <time>2021-11-08T14:59:02+01:00</time>
      </trkpt>
      <trkpt lat="43.38238" lon="5.86879">
        <ele>588</ele>
        <time>2021-11-08T14:59:16+01:00</time>
      </trkpt>
      <trkpt lat="43.38252" lon="5.86873">
        <ele>590</ele>
        <time>2021-11-08T14:59:31+01:00</time>
      </trkpt>
      <trkpt lat="43.38254" lon="5.86871">
        <ele>590</ele>
        <time>2021-11-08T14:59:34+01:00</time>
      </trkpt>
      <trkpt lat="43.38263" lon="5.86865">
        <ele>591</ele>
        <time>2021-11-08T14:59:44+01:00</time>
      </trkpt>
      <trkpt lat="43.38275" lon="5.86871">
        <ele>592</ele>
        <time>2021-11-08T14:59:56+01:00</time>
      </trkpt>
      <trkpt lat="43.3828" lon="5.86872">
        <ele>592</ele>
        <time>2021-11-08T15:00:01+01:00</time>
      </trkpt>
      <trkpt lat="43.38283" lon="5.86873">
        <ele>593</ele>
        <time>2021-11-08T15:00:04+01:00</time>
      </trkpt>
      <trkpt lat="43.38294" lon="5.86861">
        <ele>595</ele>
        <time>2021-11-08T15:00:21+01:00</time>
      </trkpt>
      <trkpt lat="43.38305" lon="5.86859">
        <ele>596</ele>
        <time>2021-11-08T15:00:35+01:00</time>
      </trkpt>
      <trkpt lat="43.38316" lon="5.86853">
        <ele>598</ele>
        <time>2021-11-08T15:00:48+01:00</time>
      </trkpt>
      <trkpt lat="43.38317" lon="5.86854">
        <ele>599</ele>
        <time>2021-11-08T15:00:51+01:00</time>
      </trkpt>
      <trkpt lat="43.38326" lon="5.86857">
        <ele>601</ele>
        <time>2021-11-08T15:01:03+01:00</time>
      </trkpt>
      <trkpt lat="43.38331" lon="5.86853">
        <ele>602</ele>
        <time>2021-11-08T15:01:09+01:00</time>
      </trkpt>
      <trkpt lat="43.38337" lon="5.86853">
        <ele>603</ele>
        <time>2021-11-08T15:01:15+01:00</time>
      </trkpt>
      <trkpt lat="43.3835" lon="5.86849">
        <ele>606</ele>
        <time>2021-11-08T15:01:29+01:00</time>
      </trkpt>
      <trkpt lat="43.38358" lon="5.86849">
        <ele>607</ele>
        <time>2021-11-08T15:01:38+01:00</time>
      </trkpt>
      <trkpt lat="43.38367" lon="5.86849">
        <ele>608</ele>
        <time>2021-11-08T15:01:48+01:00</time>
      </trkpt>
      <trkpt lat="43.38377" lon="5.86841">
        <ele>609</ele>
        <time>2021-11-08T15:02:00+01:00</time>
      </trkpt>
      <trkpt lat="43.38382" lon="5.86832">
        <ele>609</ele>
        <time>2021-11-08T15:02:10+01:00</time>
      </trkpt>
      <trkpt lat="43.38388" lon="5.86834">
        <ele>610</ele>
        <time>2021-11-08T15:02:16+01:00</time>
      </trkpt>
      <trkpt lat="43.38391" lon="5.86827">
        <ele>610</ele>
        <time>2021-11-08T15:02:22+01:00</time>
      </trkpt>
      <trkpt lat="43.38397" lon="5.86812">
        <ele>610</ele>
        <time>2021-11-08T15:02:36+01:00</time>
      </trkpt>
      <trkpt lat="43.38397" lon="5.86811">
        <ele>610</ele>
        <time>2021-11-08T15:02:37+01:00</time>
      </trkpt>
      <trkpt lat="43.38406" lon="5.86806">
        <ele>610</ele>
        <time>2021-11-08T15:02:46+01:00</time>
      </trkpt>
      <trkpt lat="43.38412" lon="5.86805">
        <ele>610</ele>
        <time>2021-11-08T15:02:54+01:00</time>
      </trkpt>
      <trkpt lat="43.38419" lon="5.86804">
        <ele>610</ele>
        <time>2021-11-08T15:03:08+01:00</time>
      </trkpt>
      <trkpt lat="43.38419" lon="5.86804">
        <ele>610</ele>
        <time>2021-11-08T15:03:25+01:00</time>
      </trkpt>
      <trkpt lat="43.38419" lon="5.86803">
        <ele>610</ele>
        <time>2021-11-08T15:03:51+01:00</time>
      </trkpt>
      <trkpt lat="43.38418" lon="5.86803">
        <ele>610</ele>
        <time>2021-11-08T15:04:15+01:00</time>
      </trkpt>
      <trkpt lat="43.38417" lon="5.868">
        <ele>610</ele>
        <time>2021-11-08T15:04:36+01:00</time>
      </trkpt>
      <trkpt lat="43.3842" lon="5.86802">
        <ele>610</ele>
        <time>2021-11-08T15:05:02+01:00</time>
      </trkpt>
      <trkpt lat="43.38418" lon="5.86801">
        <ele>610</ele>
        <time>2021-11-08T15:05:26+01:00</time>
      </trkpt>
      <trkpt lat="43.38416" lon="5.868">
        <ele>610</ele>
        <time>2021-11-08T15:05:48+01:00</time>
      </trkpt>
      <trkpt lat="43.38416" lon="5.86785">
        <ele>610</ele>
        <time>2021-11-08T15:06:05+01:00</time>
      </trkpt>
      <trkpt lat="43.38423" lon="5.86765">
        <ele>608</ele>
        <time>2021-11-08T15:06:22+01:00</time>
      </trkpt>
      <trkpt lat="43.38427" lon="5.8675">
        <ele>605</ele>
        <time>2021-11-08T15:06:38+01:00</time>
      </trkpt>
      <trkpt lat="43.38429" lon="5.86736">
        <ele>602</ele>
        <time>2021-11-08T15:06:51+01:00</time>
      </trkpt>
      <trkpt lat="43.3843" lon="5.86726">
        <ele>600</ele>
        <time>2021-11-08T15:07:09+01:00</time>
      </trkpt>
      <trkpt lat="43.3843" lon="5.86715">
        <ele>597</ele>
        <time>2021-11-08T15:07:26+01:00</time>
      </trkpt>
      <trkpt lat="43.3843" lon="5.86708">
        <ele>596</ele>
        <time>2021-11-08T15:07:39+01:00</time>
      </trkpt>
      <trkpt lat="43.38432" lon="5.86709">
        <ele>595</ele>
        <time>2021-11-08T15:07:43+01:00</time>
      </trkpt>
      <trkpt lat="43.38435" lon="5.86698">
        <ele>592</ele>
        <time>2021-11-08T15:07:57+01:00</time>
      </trkpt>
      <trkpt lat="43.38435" lon="5.86699">
        <ele>592</ele>
        <time>2021-11-08T15:08:04+01:00</time>
      </trkpt>
      <trkpt lat="43.38435" lon="5.86702">
        <ele>593</ele>
        <time>2021-11-08T15:08:12+01:00</time>
      </trkpt>
      <trkpt lat="43.38435" lon="5.86699">
        <ele>593</ele>
        <time>2021-11-08T15:08:20+01:00</time>
      </trkpt>
      <trkpt lat="43.38433" lon="5.86695">
        <ele>592</ele>
        <time>2021-11-08T15:08:27+01:00</time>
      </trkpt>
      <trkpt lat="43.38432" lon="5.86695">
        <ele>592</ele>
        <time>2021-11-08T15:08:29+01:00</time>
      </trkpt>
      <trkpt lat="43.38437" lon="5.86691">
        <ele>590</ele>
        <time>2021-11-08T15:08:42+01:00</time>
      </trkpt>
      <trkpt lat="43.38439" lon="5.86691">
        <ele>590</ele>
        <time>2021-11-08T15:08:46+01:00</time>
      </trkpt>
      <trkpt lat="43.38442" lon="5.86683">
        <ele>588</ele>
        <time>2021-11-08T15:08:58+01:00</time>
      </trkpt>
      <trkpt lat="43.38444" lon="5.86669">
        <ele>584</ele>
        <time>2021-11-08T15:09:14+01:00</time>
      </trkpt>
      <trkpt lat="43.38446" lon="5.86656">
        <ele>581</ele>
        <time>2021-11-08T15:09:27+01:00</time>
      </trkpt>
      <trkpt lat="43.38448" lon="5.86646">
        <ele>578</ele>
        <time>2021-11-08T15:09:43+01:00</time>
      </trkpt>
      <trkpt lat="43.38449" lon="5.86635">
        <ele>575</ele>
        <time>2021-11-08T15:10:00+01:00</time>
      </trkpt>
      <trkpt lat="43.3845" lon="5.86618">
        <ele>572</ele>
        <time>2021-11-08T15:10:18+01:00</time>
      </trkpt>
      <trkpt lat="43.38452" lon="5.86602">
        <ele>568</ele>
        <time>2021-11-08T15:10:34+01:00</time>
      </trkpt>
      <trkpt lat="43.38457" lon="5.86593">
        <ele>565</ele>
        <time>2021-11-08T15:10:52+01:00</time>
      </trkpt>
      <trkpt lat="43.38461" lon="5.86583">
        <ele>563</ele>
        <time>2021-11-08T15:11:10+01:00</time>
      </trkpt>
      <trkpt lat="43.38465" lon="5.86568">
        <ele>560</ele>
        <time>2021-11-08T15:11:26+01:00</time>
      </trkpt>
      <trkpt lat="43.38469" lon="5.8655">
        <ele>559</ele>
        <time>2021-11-08T15:11:44+01:00</time>
      </trkpt>
      <trkpt lat="43.38469" lon="5.86536">
        <ele>559</ele>
        <time>2021-11-08T15:11:58+01:00</time>
      </trkpt>
      <trkpt lat="43.3847" lon="5.86528">
        <ele>559</ele>
        <time>2021-11-08T15:12:16+01:00</time>
      </trkpt>
      <trkpt lat="43.38473" lon="5.86524">
        <ele>558</ele>
        <time>2021-11-08T15:12:42+01:00</time>
      </trkpt>
      <trkpt lat="43.38478" lon="5.86522">
        <ele>556</ele>
        <time>2021-11-08T15:13:04+01:00</time>
      </trkpt>
      <trkpt lat="43.38482" lon="5.86517">
        <ele>554</ele>
        <time>2021-11-08T15:13:17+01:00</time>
      </trkpt>
      <trkpt lat="43.38487" lon="5.86506">
        <ele>552</ele>
        <time>2021-11-08T15:13:33+01:00</time>
      </trkpt>
      <trkpt lat="43.38491" lon="5.86493">
        <ele>550</ele>
        <time>2021-11-08T15:13:48+01:00</time>
      </trkpt>
      <trkpt lat="43.38499" lon="5.8648">
        <ele>549</ele>
        <time>2021-11-08T15:14:04+01:00</time>
      </trkpt>
      <trkpt lat="43.38503" lon="5.86475">
        <ele>548</ele>
        <time>2021-11-08T15:14:12+01:00</time>
      </trkpt>
      <trkpt lat="43.38508" lon="5.8646">
        <ele>544</ele>
        <time>2021-11-08T15:14:27+01:00</time>
      </trkpt>
      <trkpt lat="43.38518" lon="5.86449">
        <ele>541</ele>
        <time>2021-11-08T15:14:44+01:00</time>
      </trkpt>
      <trkpt lat="43.38519" lon="5.86434">
        <ele>540</ele>
        <time>2021-11-08T15:14:59+01:00</time>
      </trkpt>
      <trkpt lat="43.3852" lon="5.86415">
        <ele>539</ele>
        <time>2021-11-08T15:15:14+01:00</time>
      </trkpt>
      <trkpt lat="43.38526" lon="5.864">
        <ele>537</ele>
        <time>2021-11-08T15:15:30+01:00</time>
      </trkpt>
      <trkpt lat="43.38531" lon="5.86395">
        <ele>536</ele>
        <time>2021-11-08T15:15:44+01:00</time>
      </trkpt>
      <trkpt lat="43.38531" lon="5.86394">
        <ele>536</ele>
        <time>2021-11-08T15:15:45+01:00</time>
      </trkpt>
      <trkpt lat="43.38531" lon="5.86393">
        <ele>536</ele>
        <time>2021-11-08T15:15:58+01:00</time>
      </trkpt>
      <trkpt lat="43.38534" lon="5.86395">
        <ele>535</ele>
        <time>2021-11-08T15:16:13+01:00</time>
      </trkpt>
      <trkpt lat="43.38544" lon="5.864">
        <ele>532</ele>
        <time>2021-11-08T15:16:29+01:00</time>
      </trkpt>
      <trkpt lat="43.38551" lon="5.864">
        <ele>530</ele>
        <time>2021-11-08T15:16:45+01:00</time>
      </trkpt>
      <trkpt lat="43.38558" lon="5.86383">
        <ele>528</ele>
        <time>2021-11-08T15:17:01+01:00</time>
      </trkpt>
      <trkpt lat="43.38567" lon="5.86368">
        <ele>525</ele>
        <time>2021-11-08T15:17:16+01:00</time>
      </trkpt>
      <trkpt lat="43.38576" lon="5.86347">
        <ele>522</ele>
        <time>2021-11-08T15:17:34+01:00</time>
      </trkpt>
      <trkpt lat="43.38582" lon="5.86325">
        <ele>520</ele>
        <time>2021-11-08T15:17:52+01:00</time>
      </trkpt>
      <trkpt lat="43.38586" lon="5.86311">
        <ele>519</ele>
        <time>2021-11-08T15:18:03+01:00</time>
      </trkpt>
      <trkpt lat="43.38597" lon="5.86287">
        <ele>517</ele>
        <time>2021-11-08T15:18:22+01:00</time>
      </trkpt>
      <trkpt lat="43.38601" lon="5.86271">
        <ele>516</ele>
        <time>2021-11-08T15:18:37+01:00</time>
      </trkpt>
      <trkpt lat="43.386" lon="5.86266">
        <ele>516</ele>
        <time>2021-11-08T15:18:52+01:00</time>
      </trkpt>
      <trkpt lat="43.38603" lon="5.86255">
        <ele>515</ele>
        <time>2021-11-08T15:19:13+01:00</time>
      </trkpt>
      <trkpt lat="43.38611" lon="5.86245">
        <ele>513</ele>
        <time>2021-11-08T15:19:27+01:00</time>
      </trkpt>
      <trkpt lat="43.38617" lon="5.86239">
        <ele>511</ele>
        <time>2021-11-08T15:19:43+01:00</time>
      </trkpt>
      <trkpt lat="43.38624" lon="5.86243">
        <ele>510</ele>
        <time>2021-11-08T15:19:58+01:00</time>
      </trkpt>
      <trkpt lat="43.38627" lon="5.86255">
        <ele>509</ele>
        <time>2021-11-08T15:20:15+01:00</time>
      </trkpt>
      <trkpt lat="43.38637" lon="5.86249">
        <ele>506</ele>
        <time>2021-11-08T15:20:29+01:00</time>
      </trkpt>
      <trkpt lat="43.38648" lon="5.86238">
        <ele>502</ele>
        <time>2021-11-08T15:20:46+01:00</time>
      </trkpt>
      <trkpt lat="43.38653" lon="5.86223">
        <ele>499</ele>
        <time>2021-11-08T15:21:01+01:00</time>
      </trkpt>
      <trkpt lat="43.38655" lon="5.86208">
        <ele>495</ele>
        <time>2021-11-08T15:21:20+01:00</time>
      </trkpt>
      <trkpt lat="43.38661" lon="5.86195">
        <ele>491</ele>
        <time>2021-11-08T15:21:37+01:00</time>
      </trkpt>
      <trkpt lat="43.38667" lon="5.86186">
        <ele>489</ele>
        <time>2021-11-08T15:21:54+01:00</time>
      </trkpt>
      <trkpt lat="43.38678" lon="5.86179">
        <ele>486</ele>
        <time>2021-11-08T15:22:09+01:00</time>
      </trkpt>
      <trkpt lat="43.38688" lon="5.86168">
        <ele>483</ele>
        <time>2021-11-08T15:22:26+01:00</time>
      </trkpt>
      <trkpt lat="43.38697" lon="5.86158">
        <ele>481</ele>
        <time>2021-11-08T15:22:43+01:00</time>
      </trkpt>
      <trkpt lat="43.38704" lon="5.86142">
        <ele>480</ele>
        <time>2021-11-08T15:22:57+01:00</time>
      </trkpt>
      <trkpt lat="43.38694" lon="5.86135">
        <ele>481</ele>
        <time>2021-11-08T15:23:13+01:00</time>
      </trkpt>
      <trkpt lat="43.38685" lon="5.86138">
        <ele>480</ele>
        <time>2021-11-08T15:23:30+01:00</time>
      </trkpt>
      <trkpt lat="43.38683" lon="5.86138">
        <ele>480</ele>
        <time>2021-11-08T15:23:44+01:00</time>
      </trkpt>
      <trkpt lat="43.38683" lon="5.86138">
        <ele>480</ele>
        <time>2021-11-08T15:24:11+01:00</time>
      </trkpt>
      <trkpt lat="43.38677" lon="5.86138">
        <ele>480</ele>
        <time>2021-11-08T15:24:25+01:00</time>
      </trkpt>
      <trkpt lat="43.38664" lon="5.86136">
        <ele>479</ele>
        <time>2021-11-08T15:24:44+01:00</time>
      </trkpt>
      <trkpt lat="43.38659" lon="5.86126">
        <ele>477</ele>
        <time>2021-11-08T15:25:00+01:00</time>
      </trkpt>
      <trkpt lat="43.38653" lon="5.86118">
        <ele>474</ele>
        <time>2021-11-08T15:25:15+01:00</time>
      </trkpt>
      <trkpt lat="43.38652" lon="5.86108">
        <ele>471</ele>
        <time>2021-11-08T15:25:31+01:00</time>
      </trkpt>
      <trkpt lat="43.38651" lon="5.86099">
        <ele>468</ele>
        <time>2021-11-08T15:25:47+01:00</time>
      </trkpt>
      <trkpt lat="43.38651" lon="5.86095">
        <ele>467</ele>
        <time>2021-11-08T15:26:09+01:00</time>
      </trkpt>
      <trkpt lat="43.38646" lon="5.86079">
        <ele>462</ele>
        <time>2021-11-08T15:26:35+01:00</time>
      </trkpt>
      <trkpt lat="43.38643" lon="5.86079">
        <ele>462</ele>
        <time>2021-11-08T15:27:02+01:00</time>
      </trkpt>
      <trkpt lat="43.38644" lon="5.8607">
        <ele>459</ele>
        <time>2021-11-08T15:27:23+01:00</time>
      </trkpt>
      <trkpt lat="43.38649" lon="5.86069">
        <ele>459</ele>
        <time>2021-11-08T15:27:41+01:00</time>
      </trkpt>
      <trkpt lat="43.38653" lon="5.86067">
        <ele>459</ele>
        <time>2021-11-08T15:27:55+01:00</time>
      </trkpt>
      <trkpt lat="43.38652" lon="5.86062">
        <ele>458</ele>
        <time>2021-11-08T15:28:09+01:00</time>
      </trkpt>
      <trkpt lat="43.38649" lon="5.86056">
        <ele>456</ele>
        <time>2021-11-08T15:28:24+01:00</time>
      </trkpt>
      <trkpt lat="43.38646" lon="5.86048">
        <ele>453</ele>
        <time>2021-11-08T15:28:43+01:00</time>
      </trkpt>
      <trkpt lat="43.38642" lon="5.86042">
        <ele>452</ele>
        <time>2021-11-08T15:29:00+01:00</time>
      </trkpt>
      <trkpt lat="43.38643" lon="5.86036">
        <ele>451</ele>
        <time>2021-11-08T15:29:17+01:00</time>
      </trkpt>
      <trkpt lat="43.38642" lon="5.86032">
        <ele>450</ele>
        <time>2021-11-08T15:29:40+01:00</time>
      </trkpt>
      <trkpt lat="43.38644" lon="5.86033">
        <ele>450</ele>
        <time>2021-11-08T15:30:07+01:00</time>
      </trkpt>
      <trkpt lat="43.38646" lon="5.86036">
        <ele>452</ele>
        <time>2021-11-08T15:30:36+01:00</time>
      </trkpt>
      <trkpt lat="43.38645" lon="5.86038">
        <ele>452</ele>
        <time>2021-11-08T15:31:10+01:00</time>
      </trkpt>
      <trkpt lat="43.38646" lon="5.86039">
        <ele>452</ele>
        <time>2021-11-08T15:31:30+01:00</time>
      </trkpt>
      <trkpt lat="43.38644" lon="5.86033">
        <ele>450</ele>
        <time>2021-11-08T15:31:46+01:00</time>
      </trkpt>
      <trkpt lat="43.38643" lon="5.86021">
        <ele>449</ele>
        <time>2021-11-08T15:31:54+01:00</time>
      </trkpt>
      <trkpt lat="43.3864" lon="5.86007">
        <ele>447</ele>
        <time>2021-11-08T15:32:07+01:00</time>
      </trkpt>
      <trkpt lat="43.38639" lon="5.85984">
        <ele>445</ele>
        <time>2021-11-08T15:32:24+01:00</time>
      </trkpt>
      <trkpt lat="43.38638" lon="5.85984">
        <ele>445</ele>
        <time>2021-11-08T15:32:25+01:00</time>
      </trkpt>
      <trkpt lat="43.38625" lon="5.85973">
        <ele>441</ele>
        <time>2021-11-08T15:32:41+01:00</time>
      </trkpt>
      <trkpt lat="43.38609" lon="5.85962">
        <ele>437</ele>
        <time>2021-11-08T15:32:56+01:00</time>
      </trkpt>
      <trkpt lat="43.38601" lon="5.8595">
        <ele>434</ele>
        <time>2021-11-08T15:33:11+01:00</time>
      </trkpt>
      <trkpt lat="43.386" lon="5.85949">
        <ele>434</ele>
        <time>2021-11-08T15:33:12+01:00</time>
      </trkpt>
      <trkpt lat="43.38585" lon="5.85935">
        <ele>430</ele>
        <time>2021-11-08T15:33:28+01:00</time>
      </trkpt>
      <trkpt lat="43.38573" lon="5.85918">
        <ele>428</ele>
        <time>2021-11-08T15:33:45+01:00</time>
      </trkpt>
      <trkpt lat="43.38569" lon="5.85901">
        <ele>427</ele>
        <time>2021-11-08T15:34:01+01:00</time>
      </trkpt>
      <trkpt lat="43.38567" lon="5.85875">
        <ele>424</ele>
        <time>2021-11-08T15:34:19+01:00</time>
      </trkpt>
      <trkpt lat="43.38571" lon="5.85855">
        <ele>423</ele>
        <time>2021-11-08T15:34:39+01:00</time>
      </trkpt>
      <trkpt lat="43.38569" lon="5.85839">
        <ele>421</ele>
        <time>2021-11-08T15:34:56+01:00</time>
      </trkpt>
      <trkpt lat="43.38569" lon="5.85837">
        <ele>421</ele>
        <time>2021-11-08T15:34:57+01:00</time>
      </trkpt>
      <trkpt lat="43.38556" lon="5.85813">
        <ele>418</ele>
        <time>2021-11-08T15:35:17+01:00</time>
      </trkpt>
      <trkpt lat="43.38541" lon="5.85806">
        <ele>415</ele>
        <time>2021-11-08T15:35:39+01:00</time>
      </trkpt>
      <trkpt lat="43.38533" lon="5.85804">
        <ele>414</ele>
        <time>2021-11-08T15:35:57+01:00</time>
      </trkpt>
      <trkpt lat="43.38518" lon="5.85793">
        <ele>412</ele>
        <time>2021-11-08T15:36:17+01:00</time>
      </trkpt>
      <trkpt lat="43.38515" lon="5.85774">
        <ele>412</ele>
        <time>2021-11-08T15:36:32+01:00</time>
      </trkpt>
      <trkpt lat="43.38516" lon="5.85756">
        <ele>412</ele>
        <time>2021-11-08T15:36:49+01:00</time>
      </trkpt>
      <trkpt lat="43.38512" lon="5.85741">
        <ele>411</ele>
        <time>2021-11-08T15:37:08+01:00</time>
      </trkpt>
      <trkpt lat="43.3851" lon="5.85718">
        <ele>409</ele>
        <time>2021-11-08T15:37:26+01:00</time>
      </trkpt>
      <trkpt lat="43.38518" lon="5.85694">
        <ele>407</ele>
        <time>2021-11-08T15:37:47+01:00</time>
      </trkpt>
      <trkpt lat="43.38534" lon="5.8568">
        <ele>405</ele>
        <time>2021-11-08T15:38:07+01:00</time>
      </trkpt>
      <trkpt lat="43.3855" lon="5.85671">
        <ele>402</ele>
        <time>2021-11-08T15:38:27+01:00</time>
      </trkpt>
      <trkpt lat="43.38563" lon="5.85665">
        <ele>400</ele>
        <time>2021-11-08T15:38:45+01:00</time>
      </trkpt>
      <trkpt lat="43.38577" lon="5.85649">
        <ele>401</ele>
        <time>2021-11-08T15:39:05+01:00</time>
      </trkpt>
      <trkpt lat="43.38589" lon="5.85633">
        <ele>401</ele>
        <time>2021-11-08T15:39:24+01:00</time>
      </trkpt>
      <trkpt lat="43.38604" lon="5.85628">
        <ele>400</ele>
        <time>2021-11-08T15:39:44+01:00</time>
      </trkpt>
      <trkpt lat="43.38623" lon="5.85635">
        <ele>399</ele>
        <time>2021-11-08T15:40:04+01:00</time>
      </trkpt>
      <trkpt lat="43.38636" lon="5.85628">
        <ele>398</ele>
        <time>2021-11-08T15:40:25+01:00</time>
      </trkpt>
      <trkpt lat="43.38629" lon="5.85609">
        <ele>397</ele>
        <time>2021-11-08T15:40:46+01:00</time>
      </trkpt>
      <trkpt lat="43.38639" lon="5.85599">
        <ele>395</ele>
        <time>2021-11-08T15:41:05+01:00</time>
      </trkpt>
      <trkpt lat="43.38652" lon="5.85601">
        <ele>393</ele>
        <time>2021-11-08T15:41:18+01:00</time>
      </trkpt>
      <trkpt lat="43.38662" lon="5.85598">
        <ele>391</ele>
        <time>2021-11-08T15:41:37+01:00</time>
      </trkpt>
      <trkpt lat="43.38665" lon="5.85597">
        <ele>391</ele>
        <time>2021-11-08T15:41:42+01:00</time>
      </trkpt>
      <trkpt lat="43.38681" lon="5.85595">
        <ele>390</ele>
        <time>2021-11-08T15:42:02+01:00</time>
      </trkpt>
      <trkpt lat="43.38698" lon="5.85597">
        <ele>389</ele>
        <time>2021-11-08T15:42:23+01:00</time>
      </trkpt>
      <trkpt lat="43.38715" lon="5.856">
        <ele>390</ele>
        <time>2021-11-08T15:42:42+01:00</time>
      </trkpt>
      <trkpt lat="43.38735" lon="5.85598">
        <ele>390</ele>
        <time>2021-11-08T15:43:04+01:00</time>
      </trkpt>
      <trkpt lat="43.3875" lon="5.85584">
        <ele>389</ele>
        <time>2021-11-08T15:43:25+01:00</time>
      </trkpt>
      <trkpt lat="43.38769" lon="5.85581">
        <ele>389</ele>
        <time>2021-11-08T15:43:47+01:00</time>
      </trkpt>
      <trkpt lat="43.38782" lon="5.85574">
        <ele>389</ele>
        <time>2021-11-08T15:44:04+01:00</time>
      </trkpt>
      <trkpt lat="43.38784" lon="5.85574">
        <ele>389</ele>
        <time>2021-11-08T15:44:05+01:00</time>
      </trkpt>
      <trkpt lat="43.38788" lon="5.85573">
        <ele>389</ele>
        <time>2021-11-08T15:44:23+01:00</time>
      </trkpt>
      <trkpt lat="43.38792" lon="5.85576">
        <ele>389</ele>
        <time>2021-11-08T15:44:50+01:00</time>
      </trkpt>
      <trkpt lat="43.38788" lon="5.85578">
        <ele>389</ele>
        <time>2021-11-08T15:45:20+01:00</time>
      </trkpt>
      <trkpt lat="43.388" lon="5.85568">
        <ele>389</ele>
        <time>2021-11-08T15:45:39+01:00</time>
      </trkpt>
      <trkpt lat="43.38808" lon="5.85565">
        <ele>389</ele>
        <time>2021-11-08T15:45:59+01:00</time>
      </trkpt>
      <trkpt lat="43.38816" lon="5.85555">
        <ele>387</ele>
        <time>2021-11-08T15:46:19+01:00</time>
      </trkpt>
      <trkpt lat="43.38826" lon="5.85552">
        <ele>387</ele>
        <time>2021-11-08T15:46:36+01:00</time>
      </trkpt>
      <trkpt lat="43.38826" lon="5.85552">
        <ele>386</ele>
        <time>2021-11-08T15:46:38+01:00</time>
      </trkpt>
      <trkpt lat="43.38834" lon="5.85554">
        <ele>385</ele>
        <time>2021-11-08T15:46:59+01:00</time>
      </trkpt>
      <trkpt lat="43.38837" lon="5.85551">
        <ele>385</ele>
        <time>2021-11-08T15:47:19+01:00</time>
      </trkpt>
      <trkpt lat="43.38836" lon="5.85551">
        <ele>385</ele>
        <time>2021-11-08T15:47:42+01:00</time>
      </trkpt>
      <trkpt lat="43.38837" lon="5.85548">
        <ele>385</ele>
        <time>2021-11-08T15:47:59+01:00</time>
      </trkpt>
      <trkpt lat="43.38837" lon="5.85554">
        <ele>385</ele>
        <time>2021-11-08T15:48:30+01:00</time>
      </trkpt>
      <trkpt lat="43.38835" lon="5.85553">
        <ele>385</ele>
        <time>2021-11-08T15:49:01+01:00</time>
      </trkpt>
      <trkpt lat="43.38837" lon="5.85549">
        <ele>385</ele>
        <time>2021-11-08T15:49:20+01:00</time>
      </trkpt>
      <trkpt lat="43.38838" lon="5.85548">
        <ele>385</ele>
        <time>2021-11-08T15:49:54+01:00</time>
      </trkpt>
      <trkpt lat="43.38837" lon="5.85549">
        <ele>385</ele>
        <time>2021-11-08T15:50:20+01:00</time>
      </trkpt>
      <trkpt lat="43.38838" lon="5.85551">
        <ele>385</ele>
        <time>2021-11-08T15:50:43+01:00</time>
      </trkpt>
      <trkpt lat="43.38835" lon="5.85549">
        <ele>386</ele>
        <time>2021-11-08T15:51:10+01:00</time>
      </trkpt>
      <trkpt lat="43.38838" lon="5.85553">
        <ele>385</ele>
        <time>2021-11-08T15:51:35+01:00</time>
      </trkpt>
      <trkpt lat="43.38841" lon="5.85551">
        <ele>384</ele>
        <time>2021-11-08T15:52:00+01:00</time>
      </trkpt>
      <trkpt lat="43.38844" lon="5.85553">
        <ele>384</ele>
        <time>2021-11-08T15:52:20+01:00</time>
      </trkpt>
      <trkpt lat="43.38849" lon="5.85553">
        <ele>383</ele>
        <time>2021-11-08T15:52:48+01:00</time>
      </trkpt>
      <trkpt lat="43.38873" lon="5.85557">
        <ele>381</ele>
        <time>2021-11-08T15:53:14+01:00</time>
      </trkpt>
      <trkpt lat="43.38886" lon="5.85553">
        <ele>380</ele>
        <time>2021-11-08T15:53:35+01:00</time>
      </trkpt>
      <trkpt lat="43.38893" lon="5.85554">
        <ele>380</ele>
        <time>2021-11-08T15:53:51+01:00</time>
      </trkpt>
      <trkpt lat="43.38906" lon="5.85552">
        <ele>380</ele>
        <time>2021-11-08T15:54:07+01:00</time>
      </trkpt>
      <trkpt lat="43.3893" lon="5.85549">
        <ele>379</ele>
        <time>2021-11-08T15:54:31+01:00</time>
      </trkpt>
      <trkpt lat="43.3895" lon="5.85539">
        <ele>378</ele>
        <time>2021-11-08T15:54:53+01:00</time>
      </trkpt>
      <trkpt lat="43.38952" lon="5.85525">
        <ele>378</ele>
        <time>2021-11-08T15:55:08+01:00</time>
      </trkpt>
      <trkpt lat="43.38951" lon="5.85524">
        <ele>379</ele>
        <time>2021-11-08T15:55:09+01:00</time>
      </trkpt>
      <trkpt lat="43.3895" lon="5.85506">
        <ele>379</ele>
        <time>2021-11-08T15:55:24+01:00</time>
      </trkpt>
      <trkpt lat="43.38948" lon="5.85489">
        <ele>378</ele>
        <time>2021-11-08T15:55:42+01:00</time>
      </trkpt>
      <trkpt lat="43.38942" lon="5.8547">
        <ele>378</ele>
        <time>2021-11-08T15:56:01+01:00</time>
      </trkpt>
      <trkpt lat="43.38934" lon="5.85444">
        <ele>378</ele>
        <time>2021-11-08T15:56:21+01:00</time>
      </trkpt>
      <trkpt lat="43.38933" lon="5.85429">
        <ele>378</ele>
        <time>2021-11-08T15:56:34+01:00</time>
      </trkpt>
      <trkpt lat="43.38923" lon="5.85409">
        <ele>379</ele>
        <time>2021-11-08T15:56:56+01:00</time>
      </trkpt>
      <trkpt lat="43.38924" lon="5.85406">
        <ele>379</ele>
        <time>2021-11-08T15:57:15+01:00</time>
      </trkpt>
      <trkpt lat="43.38921" lon="5.85384">
        <ele>378</ele>
        <time>2021-11-08T15:57:32+01:00</time>
      </trkpt>
      <trkpt lat="43.38924" lon="5.8536">
        <ele>377</ele>
        <time>2021-11-08T15:57:54+01:00</time>
      </trkpt>
      <trkpt lat="43.38917" lon="5.85344">
        <ele>378</ele>
        <time>2021-11-08T15:58:12+01:00</time>
      </trkpt>
      <trkpt lat="43.38919" lon="5.85335">
        <ele>378</ele>
        <time>2021-11-08T15:58:25+01:00</time>
      </trkpt>
      <trkpt lat="43.38919" lon="5.85327">
        <ele>378</ele>
        <time>2021-11-08T15:58:42+01:00</time>
      </trkpt>
      <trkpt lat="43.38916" lon="5.85313">
        <ele>378</ele>
        <time>2021-11-08T15:58:56+01:00</time>
      </trkpt>
      <trkpt lat="43.38916" lon="5.85293">
        <ele>379</ele>
        <time>2021-11-08T15:59:17+01:00</time>
      </trkpt>
      <trkpt lat="43.3892" lon="5.85265">
        <ele>379</ele>
        <time>2021-11-08T15:59:38+01:00</time>
      </trkpt>
      <trkpt lat="43.38921" lon="5.85256">
        <ele>379</ele>
        <time>2021-11-08T15:59:55+01:00</time>
      </trkpt>
      <trkpt lat="43.38925" lon="5.8524">
        <ele>378</ele>
        <time>2021-11-08T16:00:10+01:00</time>
      </trkpt>
      <trkpt lat="43.38928" lon="5.85221">
        <ele>378</ele>
        <time>2021-11-08T16:00:27+01:00</time>
      </trkpt>
      <trkpt lat="43.38933" lon="5.85201">
        <ele>379</ele>
        <time>2021-11-08T16:00:46+01:00</time>
      </trkpt>
      <trkpt lat="43.38934" lon="5.85186">
        <ele>379</ele>
        <time>2021-11-08T16:01:03+01:00</time>
      </trkpt>
      <trkpt lat="43.38937" lon="5.85171">
        <ele>379</ele>
        <time>2021-11-08T16:01:18+01:00</time>
      </trkpt>
      <trkpt lat="43.38942" lon="5.85158">
        <ele>379</ele>
        <time>2021-11-08T16:01:36+01:00</time>
      </trkpt>
      <trkpt lat="43.38943" lon="5.85156">
        <ele>379</ele>
        <time>2021-11-08T16:01:40+01:00</time>
      </trkpt>
      <trkpt lat="43.38943" lon="5.85156">
        <ele>379</ele>
        <time>2021-11-08T16:01:41+01:00</time>
      </trkpt>
      <trkpt lat="43.38949" lon="5.85139">
        <ele>379</ele>
        <time>2021-11-08T16:01:57+01:00</time>
      </trkpt>
      <trkpt lat="43.38955" lon="5.85125">
        <ele>378</ele>
        <time>2021-11-08T16:02:15+01:00</time>
      </trkpt>
      <trkpt lat="43.38962" lon="5.85125">
        <ele>377</ele>
        <time>2021-11-08T16:02:31+01:00</time>
      </trkpt>
      <trkpt lat="43.38968" lon="5.85128">
        <ele>377</ele>
        <time>2021-11-08T16:02:46+01:00</time>
      </trkpt>
      <trkpt lat="43.38977" lon="5.85133">
        <ele>376</ele>
        <time>2021-11-08T16:03:00+01:00</time>
      </trkpt>
      <trkpt lat="43.38995" lon="5.85135">
        <ele>375</ele>
        <time>2021-11-08T16:03:21+01:00</time>
      </trkpt>
      <trkpt lat="43.3901" lon="5.85136">
        <ele>373</ele>
        <time>2021-11-08T16:03:39+01:00</time>
      </trkpt>
      <trkpt lat="43.39022" lon="5.85135">
        <ele>372</ele>
        <time>2021-11-08T16:03:56+01:00</time>
      </trkpt>
      <trkpt lat="43.39034" lon="5.85135">
        <ele>371</ele>
        <time>2021-11-08T16:04:10+01:00</time>
      </trkpt>
      <trkpt lat="43.39051" lon="5.85136">
        <ele>369</ele>
        <time>2021-11-08T16:04:31+01:00</time>
      </trkpt>
      <trkpt lat="43.39062" lon="5.85135">
        <ele>368</ele>
        <time>2021-11-08T16:04:46+01:00</time>
      </trkpt>
      <trkpt lat="43.39076" lon="5.85129">
        <ele>367</ele>
        <time>2021-11-08T16:05:04+01:00</time>
      </trkpt>
      <trkpt lat="43.39088" lon="5.85127">
        <ele>366</ele>
        <time>2021-11-08T16:05:21+01:00</time>
      </trkpt>
      <trkpt lat="43.39095" lon="5.85124">
        <ele>366</ele>
        <time>2021-11-08T16:05:36+01:00</time>
      </trkpt>
      <trkpt lat="43.39111" lon="5.85127">
        <ele>365</ele>
        <time>2021-11-08T16:06:02+01:00</time>
      </trkpt>
      <trkpt lat="43.39123" lon="5.85125">
        <ele>363</ele>
        <time>2021-11-08T16:06:19+01:00</time>
      </trkpt>
      <trkpt lat="43.39133" lon="5.85122">
        <ele>362</ele>
        <time>2021-11-08T16:06:35+01:00</time>
      </trkpt>
      <trkpt lat="43.39151" lon="5.85121">
        <ele>361</ele>
        <time>2021-11-08T16:06:56+01:00</time>
      </trkpt>
      <trkpt lat="43.39159" lon="5.85121">
        <ele>360</ele>
        <time>2021-11-08T16:07:12+01:00</time>
      </trkpt>
      <trkpt lat="43.39168" lon="5.85117">
        <ele>359</ele>
        <time>2021-11-08T16:07:27+01:00</time>
      </trkpt>
      <trkpt lat="43.39177" lon="5.85117">
        <ele>360</ele>
        <time>2021-11-08T16:07:44+01:00</time>
      </trkpt>
      <trkpt lat="43.39181" lon="5.85106">
        <ele>359</ele>
        <time>2021-11-08T16:08:02+01:00</time>
      </trkpt>
      <trkpt lat="43.39187" lon="5.85093">
        <ele>359</ele>
        <time>2021-11-08T16:08:17+01:00</time>
      </trkpt>
      <trkpt lat="43.39182" lon="5.85086">
        <ele>359</ele>
        <time>2021-11-08T16:08:37+01:00</time>
      </trkpt>
      <trkpt lat="43.39191" lon="5.85072">
        <ele>359</ele>
        <time>2021-11-08T16:08:55+01:00</time>
      </trkpt>
      <trkpt lat="43.39192" lon="5.85058">
        <ele>358</ele>
        <time>2021-11-08T16:09:18+01:00</time>
      </trkpt>
      <trkpt lat="43.39195" lon="5.85053">
        <ele>358</ele>
        <time>2021-11-08T16:09:32+01:00</time>
      </trkpt>
      <trkpt lat="43.39196" lon="5.85047">
        <ele>358</ele>
        <time>2021-11-08T16:09:59+01:00</time>
      </trkpt>
      <trkpt lat="43.39199" lon="5.85049">
        <ele>358</ele>
        <time>2021-11-08T16:10:19+01:00</time>
      </trkpt>
      <trkpt lat="43.39202" lon="5.85045">
        <ele>358</ele>
        <time>2021-11-08T16:10:37+01:00</time>
      </trkpt>
      <trkpt lat="43.39203" lon="5.85031">
        <ele>357</ele>
        <time>2021-11-08T16:10:58+01:00</time>
      </trkpt>
      <trkpt lat="43.39208" lon="5.85021">
        <ele>357</ele>
        <time>2021-11-08T16:11:15+01:00</time>
      </trkpt>
      <trkpt lat="43.39211" lon="5.85019">
        <ele>357</ele>
        <time>2021-11-08T16:11:35+01:00</time>
      </trkpt>
      <trkpt lat="43.39216" lon="5.85007">
        <ele>356</ele>
        <time>2021-11-08T16:11:52+01:00</time>
      </trkpt>
      <trkpt lat="43.39217" lon="5.84988">
        <ele>356</ele>
        <time>2021-11-08T16:12:08+01:00</time>
      </trkpt>
      <trkpt lat="43.39218" lon="5.84963">
        <ele>355</ele>
        <time>2021-11-08T16:12:27+01:00</time>
      </trkpt>
      <trkpt lat="43.39215" lon="5.84952">
        <ele>355</ele>
        <time>2021-11-08T16:12:42+01:00</time>
      </trkpt>
      <trkpt lat="43.39216" lon="5.84941">
        <ele>355</ele>
        <time>2021-11-08T16:13:01+01:00</time>
      </trkpt>
      <trkpt lat="43.39218" lon="5.84937">
        <ele>355</ele>
        <time>2021-11-08T16:13:17+01:00</time>
      </trkpt>
      <trkpt lat="43.39227" lon="5.84944">
        <ele>355</ele>
        <time>2021-11-08T16:13:37+01:00</time>
      </trkpt>
      <trkpt lat="43.39233" lon="5.84949">
        <ele>355</ele>
        <time>2021-11-08T16:13:54+01:00</time>
      </trkpt>
      <trkpt lat="43.39242" lon="5.84949">
        <ele>355</ele>
        <time>2021-11-08T16:14:10+01:00</time>
      </trkpt>
      <trkpt lat="43.39245" lon="5.84962">
        <ele>355</ele>
        <time>2021-11-08T16:14:24+01:00</time>
      </trkpt>
      <trkpt lat="43.39245" lon="5.84975">
        <ele>355</ele>
        <time>2021-11-08T16:14:41+01:00</time>
      </trkpt>
      <trkpt lat="43.39245" lon="5.84994">
        <ele>356</ele>
        <time>2021-11-08T16:15:01+01:00</time>
      </trkpt>
      <trkpt lat="43.39244" lon="5.85005">
        <ele>356</ele>
        <time>2021-11-08T16:15:15+01:00</time>
      </trkpt>
      <trkpt lat="43.39243" lon="5.85008">
        <ele>356</ele>
        <time>2021-11-08T16:15:35+01:00</time>
      </trkpt>
      <trkpt lat="43.39244" lon="5.85021">
        <ele>356</ele>
        <time>2021-11-08T16:15:49+01:00</time>
      </trkpt>
      <trkpt lat="43.39245" lon="5.85021">
        <ele>356</ele>
        <time>2021-11-08T16:15:57+01:00</time>
      </trkpt>
      <trkpt lat="43.39253" lon="5.85019">
        <ele>356</ele>
        <time>2021-11-08T16:16:13+01:00</time>
      </trkpt>
      <trkpt lat="43.3925" lon="5.85021">
        <ele>356</ele>
        <time>2021-11-08T16:16:27+01:00</time>
      </trkpt>
      <trkpt lat="43.39245" lon="5.85052">
        <ele>357</ele>
        <time>2021-11-08T16:16:50+01:00</time>
      </trkpt>
      <trkpt lat="43.39245" lon="5.8507">
        <ele>358</ele>
        <time>2021-11-08T16:17:10+01:00</time>
      </trkpt>
      <trkpt lat="43.39243" lon="5.8508">
        <ele>358</ele>
        <time>2021-11-08T16:17:33+01:00</time>
      </trkpt>
      <trkpt lat="43.39244" lon="5.8508">
        <ele>358</ele>
        <time>2021-11-08T16:17:57+01:00</time>
      </trkpt>
      <trkpt lat="43.39242" lon="5.85076">
        <ele>358</ele>
        <time>2021-11-08T16:18:19+01:00</time>
      </trkpt>
      <trkpt lat="43.39248" lon="5.85078">
        <ele>358</ele>
        <time>2021-11-08T16:18:38+01:00</time>
      </trkpt>
      <trkpt lat="43.39246" lon="5.85079">
        <ele>358</ele>
        <time>2021-11-08T16:18:53+01:00</time>
      </trkpt>
      <trkpt lat="43.39247" lon="5.85085">
        <ele>358</ele>
        <time>2021-11-08T16:19:11+01:00</time>
      </trkpt>
      <trkpt lat="43.39247" lon="5.85085">
        <ele>358</ele>
        <time>2021-11-08T16:19:12+01:00</time>
      </trkpt>
      <trkpt lat="43.39248" lon="5.85085">
        <ele>358</ele>
        <time>2021-11-08T16:19:16+01:00</time>
      </trkpt>
      <trkpt lat="43.3925" lon="5.85088">
        <ele>358</ele>
        <time>2021-11-08T16:19:20+01:00</time>
      </trkpt>
      <trkpt lat="43.39257" lon="5.85089">
        <ele>358</ele>
        <time>2021-11-08T16:19:30+01:00</time>
      </trkpt>
      <trkpt lat="43.39256" lon="5.8509">
        <ele>358</ele>
        <time>2021-11-08T16:19:33+01:00</time>
      </trkpt>
      <trkpt lat="43.3926" lon="5.85102">
        <ele>358</ele>
        <time>2021-11-08T16:19:45+01:00</time>
      </trkpt>
      <trkpt lat="43.39261" lon="5.85111">
        <ele>358</ele>
        <time>2021-11-08T16:20:01+01:00</time>
      </trkpt>
      <trkpt lat="43.39266" lon="5.85114">
        <ele>357</ele>
        <time>2021-11-08T16:20:19+01:00</time>
      </trkpt>
      <trkpt lat="43.39268" lon="5.85112">
        <ele>357</ele>
        <time>2021-11-08T16:20:34+01:00</time>
      </trkpt>
      <trkpt lat="43.39278" lon="5.851">
        <ele>356</ele>
        <time>2021-11-08T16:20:51+01:00</time>
      </trkpt>
      <trkpt lat="43.3929" lon="5.85098">
        <ele>355</ele>
        <time>2021-11-08T16:21:09+01:00</time>
      </trkpt>
      <trkpt lat="43.39286" lon="5.85093">
        <ele>356</ele>
        <time>2021-11-08T16:21:26+01:00</time>
      </trkpt>
      <trkpt lat="43.39289" lon="5.85095">
        <ele>355</ele>
        <time>2021-11-08T16:21:43+01:00</time>
      </trkpt>
      <trkpt lat="43.39294" lon="5.85096">
        <ele>355</ele>
        <time>2021-11-08T16:22:04+01:00</time>
      </trkpt>
      <trkpt lat="43.39293" lon="5.85096">
        <ele>355</ele>
        <time>2021-11-08T16:22:28+01:00</time>
      </trkpt>
      <trkpt lat="43.39292" lon="5.85094">
        <ele>355</ele>
        <time>2021-11-08T16:22:49+01:00</time>
      </trkpt>
      <trkpt lat="43.39314" lon="5.85096">
        <ele>354</ele>
        <time>2021-11-08T16:23:11+01:00</time>
      </trkpt>
      <trkpt lat="43.39332" lon="5.85108">
        <ele>354</ele>
        <time>2021-11-08T16:23:29+01:00</time>
      </trkpt>
      <trkpt lat="43.39341" lon="5.85124">
        <ele>354</ele>
        <time>2021-11-08T16:23:47+01:00</time>
      </trkpt>
      <trkpt lat="43.39348" lon="5.85144">
        <ele>354</ele>
        <time>2021-11-08T16:24:05+01:00</time>
      </trkpt>
      <trkpt lat="43.39349" lon="5.85147">
        <ele>354</ele>
        <time>2021-11-08T16:24:07+01:00</time>
      </trkpt>
      <trkpt lat="43.39349" lon="5.85152">
        <ele>354</ele>
        <time>2021-11-08T16:24:10+01:00</time>
      </trkpt>
      <trkpt lat="43.39351" lon="5.85153">
        <ele>354</ele>
        <time>2021-11-08T16:24:25+01:00</time>
      </trkpt>
      <trkpt lat="43.39351" lon="5.85153">
        <ele>354</ele>
        <time>2021-11-08T16:24:28+01:00</time>
      </trkpt>
    </trkseg>
  </trk>
</gpx>